Provisional Data: Meshoppen Creek near Kaiserville, PA


Please select a monitoring station.
Please select start date.
Please select start date.

Toggle Unit: C/F Toggle Unit: C/F
Sample Time Temperature (C) Temperature (F) Specific Conductivity (mS/cm) pH   Turbidity (NTU+) DO (mg/L)
3/23/2021 12:00:00 AM 6.18 43.124 0.109 7.06 4.98 12.08
3/23/2021 12:15:00 AM 6.07 42.926 0.11 7.08 5.12 12.12
3/23/2021 12:30:00 AM 5.96 42.728 0.11 7.08 5.22 12.15
3/23/2021 12:45:00 AM 5.85 42.53 0.11 7.07 5.04 12.18
3/23/2021 1:00:00 AM 5.75 42.35 0.11 7.07 5.12 12.21
3/23/2021 1:15:00 AM 5.65 42.17 0.11 7.08 4.92 12.24
3/23/2021 1:30:00 AM 5.55 41.99 0.11 7.08 5.08 12.27
3/23/2021 1:45:00 AM 5.46 41.828 0.109 7.07 5.33 12.3
3/23/2021 2:00:00 AM 5.36 41.648 0.109 7.08 5.07 12.33
3/23/2021 2:15:00 AM 5.27 41.486 0.11 7.07 5.01 12.36
3/23/2021 2:30:00 AM 5.19 41.342 0.11 7.07 5.05 12.38
3/23/2021 2:45:00 AM 5.1 41.18 0.11 7.07 5.04 12.4
3/23/2021 3:00:00 AM 5.02 41.036 0.11 7.05 5.15 12.43
3/23/2021 3:15:00 AM 4.95 40.91 0.11 7.08 4.93 12.46
3/23/2021 3:30:00 AM 4.87 40.766 0.11 7.07 5.27 12.49
3/23/2021 3:45:00 AM 4.79 40.622 0.11 7.07 4.98 12.51
3/23/2021 4:00:00 AM 4.71 40.478 0.11 7.07 5.16 12.54
3/23/2021 4:15:00 AM 4.63 40.334 0.11 7.06 5.9 12.57
3/23/2021 4:30:00 AM 4.56 40.208 0.11 7.07 4.86 12.59
3/23/2021 4:45:00 AM 4.49 40.082 0.11 7.07 5.24 12.62
3/23/2021 5:00:00 AM 4.41 39.938 0.11 7.08 5.39 12.64
3/23/2021 5:15:00 AM 4.34 39.812 0.11 7.07 5.23 12.67
3/23/2021 5:30:00 AM 4.27 39.686 0.11 7.09 5.4 12.69
3/23/2021 5:45:00 AM 4.2 39.56 0.11 7.08 5.31 12.72
3/23/2021 6:00:00 AM 4.13 39.434 0.11 7.07 5.04 12.74
3/23/2021 6:15:00 AM 4.07 39.326 0.11 7.07 5.24 12.76
3/23/2021 6:30:00 AM 4 39.2 0.11 7.07 5.33 12.78
3/23/2021 6:45:00 AM 3.94 39.092 0.11 7.07 5.27 12.81
3/23/2021 7:00:00 AM 3.88 38.984 0.11 7.08 5.4 12.83
3/23/2021 7:15:00 AM 3.83 38.894 0.11 7.08 5.23 12.86
3/23/2021 7:30:00 AM 3.78 38.804 0.11 7.08 5.42 12.91
3/23/2021 7:45:00 AM 3.74 38.732 0.11 7.09 5.31 12.96
3/23/2021 8:00:00 AM 3.7 38.66 0.11 7.11 5.38 13
3/23/2021 8:15:00 AM 3.68 38.624 0.11 7.12 5.13 13.06
3/23/2021 8:30:00 AM 3.68 38.624 0.11 7.14 5.07 13.1
3/23/2021 8:45:00 AM 3.68 38.624 0.11 7.16 5.16 13.14
3/23/2021 9:00:00 AM 3.71 38.678 0.11 7.17 5.31 13.17
3/23/2021 9:15:00 AM 3.76 38.768 0.11 7.19 5.01 13.2
3/23/2021 9:30:00 AM 3.83 38.894 0.11 7.22 5.26 13.22
3/23/2021 9:45:00 AM 3.93 39.074 0.11 7.23 5.12 13.23
3/23/2021 10:00:00 AM 4.05 39.29 0.11 7.25 4.99 13.23
3/23/2021 10:15:00 AM 4.18 39.524 0.11 7.28 4.93 13.23
3/23/2021 10:30:00 AM 4.32 39.776 0.11 7.3 4.98 13.22
3/23/2021 10:45:00 AM 4.46 40.028 0.109 7.3 4.78 13.2
3/23/2021 11:00:00 AM 4.63 40.334 0.109 7.32 5.01 13.17
3/23/2021 11:15:00 AM 4.82 40.676 0.109 7.34 4.75 13.14
3/23/2021 11:30:00 AM 5.03 41.054 0.109 7.35 4.88 13.11
3/23/2021 11:45:00 AM 5.24 41.432 0.109 7.37 4.95 13.06
3/23/2021 12:00:00 PM 5.48 41.864 0.109 7.38 4.94 13
3/23/2021 12:15:00 PM 5.73 42.314 0.109 7.41 4.72 12.94
3/23/2021 12:30:00 PM 5.95 42.71 0.109 7.42 4.91 12.89
3/23/2021 12:45:00 PM 6.18 43.124 0.109 7.42 5.02 12.82
3/23/2021 1:00:00 PM 6.44 43.592 0.108 7.44 4.81 12.76
3/23/2021 1:15:00 PM 6.68 44.024 0.109 7.45 4.66 12.69
3/23/2021 1:30:00 PM 6.92 44.456 0.108 7.46 4.72 12.63
3/23/2021 1:45:00 PM 7.13 44.834 0.108 7.45 4.8 12.56
3/23/2021 2:00:00 PM 7.33 45.194 0.108 7.47 4.82 12.51
3/23/2021 2:15:00 PM 7.52 45.536 0.108 7.48 4.94 12.45
3/23/2021 2:30:00 PM 7.67 45.806 0.108 7.48 4.69 12.4
3/23/2021 2:45:00 PM 7.81 46.058 0.108 7.49 4.7 12.35
3/23/2021 3:00:00 PM 7.93 46.274 0.108 7.49 4.8 12.3
3/23/2021 3:15:00 PM 8.03 46.454 0.108 7.47 4.76 12.27
3/23/2021 3:30:00 PM 8.1 46.58 0.108 7.49 4.62 12.23
3/23/2021 3:45:00 PM 8.15 46.67 0.108 7.49 4.78 12.19
3/23/2021 4:00:00 PM 8.2 46.76 0.107 7.5 4.64 12.17
3/23/2021 4:15:00 PM 8.28 46.904 0.107 7.51 4.73 12.15
3/23/2021 4:30:00 PM 8.32 46.976 0.107 7.5 4.58 12.11
3/23/2021 4:45:00 PM 8.36 47.048 0.107 7.5 4.65 12.09
3/23/2021 5:00:00 PM 8.42 47.156 0.107 7.5 4.63 12.06
3/23/2021 5:15:00 PM 8.47 47.246 0.107 7.5 4.71 12.03
3/23/2021 5:30:00 PM 8.53 47.354 0.107 7.5 4.83 11.98
3/23/2021 5:45:00 PM 8.58 47.444 0.107 7.47 4.82 11.94
3/23/2021 6:00:00 PM 8.62 47.516 0.107 7.46 4.84 11.85
3/23/2021 6:15:00 PM 8.65 47.57 0.107 7.43 4.82 11.79
3/23/2021 6:30:00 PM 8.68 47.624 0.107 7.41 4.75 11.74
3/23/2021 6:45:00 PM 8.71 47.678 0.107 7.36 4.84 11.68
3/23/2021 7:00:00 PM 8.72 47.696 0.107 7.35 4.82 11.62
3/23/2021 7:15:00 PM 8.73 47.714 0.108 7.33 4.74 11.54
3/23/2021 7:30:00 PM 8.72 47.696 0.108 7.3 5.04 11.51
3/23/2021 7:45:00 PM 8.7 47.66 0.108 7.26 5.03 11.48
3/23/2021 8:00:00 PM 8.66 47.588 0.108 7.24 4.83 11.45
3/23/2021 8:15:00 PM 8.62 47.516 0.108 7.22 5 11.42
3/23/2021 8:30:00 PM 8.58 47.444 0.108 7.2 5.03 11.43
3/23/2021 8:45:00 PM 8.53 47.354 0.108 7.19 5.07 11.41
3/23/2021 9:00:00 PM 8.47 47.246 0.108 7.17 4.92 11.42
3/23/2021 9:15:00 PM 8.41 47.138 0.108 7.16 5.12 11.42
3/23/2021 9:30:00 PM 8.34 47.012 0.108 7.16 4.67 11.45
3/23/2021 9:45:00 PM 8.27 46.886 0.108 7.13 4.93 11.44
3/23/2021 10:00:00 PM 8.2 46.76 0.109 7.12 4.86 11.46
3/23/2021 10:15:00 PM 8.12 46.616 0.109 7.13 4.76 11.48
3/23/2021 10:30:00 PM 8.05 46.49 0.109 7.12 5.02 11.49
3/23/2021 10:45:00 PM 7.97 46.346 0.109 7.12 4.88 11.51
3/23/2021 11:00:00 PM 7.9 46.22 0.109 7.09 5.34 11.52
3/23/2021 11:15:00 PM 7.83 46.094 0.109 7.1 5.22 11.54
3/23/2021 11:30:00 PM 7.76 45.968 0.109 7.11 4.96 11.56
3/23/2021 11:45:00 PM 7.69 45.842 0.109 7.1 5.1 11.58
3/24/2021 12:00:00 AM 7.62 45.716 0.109 7.11 5.04 11.6
3/24/2021 12:15:00 AM 7.54 45.572 0.109 7.1 4.98 11.62
3/24/2021 12:30:00 AM 7.46 45.428 0.109 7.1 4.94 11.64
3/24/2021 12:45:00 AM 7.38 45.284 0.11 7.1 5.13 11.66
3/24/2021 1:00:00 AM 7.3 45.14 0.11 7.1 5.33 11.68
3/24/2021 1:15:00 AM 7.23 45.014 0.11 7.1 5.33 11.7
3/24/2021 1:30:00 AM 7.16 44.888 0.11 7.1 4.92 11.72
3/24/2021 1:45:00 AM 7.1 44.78 0.11 7.14 5.3 11.75
3/24/2021 2:00:00 AM 7.03 44.654 0.11 7.11 5.32 11.76
3/24/2021 2:15:00 AM 6.97 44.546 0.11 7.09 4.99 11.78
3/24/2021 2:30:00 AM 6.91 44.438 0.11 7.1 5.1 11.8
3/24/2021 2:45:00 AM 6.86 44.348 0.11 7.1 5.22 11.81
3/24/2021 3:00:00 AM 6.81 44.258 0.111 7.1 5.26 11.83
3/24/2021 3:15:00 AM 6.77 44.186 0.111 7.1 4.98 11.84
3/24/2021 3:30:00 AM 6.72 44.096 0.111 7.1 5.12 11.85
3/24/2021 3:45:00 AM 6.68 44.024 0.111 7.11 5.02 11.86
3/24/2021 4:00:00 AM 6.64 43.952 0.111 7.11 5.19 11.87
3/24/2021 4:15:00 AM 6.6 43.88 0.111 7.11 5.24 11.89
3/24/2021 4:30:00 AM 6.56 43.808 0.111 7.12 5.02 11.9
3/24/2021 4:45:00 AM 6.53 43.754 0.111 7.11 5.07 11.92
3/24/2021 5:00:00 AM 6.49 43.682 0.111 7.1 5.27 11.93
3/24/2021 5:15:00 AM 6.45 43.61 0.111 7.11 5.13 11.93
3/24/2021 5:30:00 AM 6.42 43.556 0.111 7.11 5.17 11.94
3/24/2021 5:45:00 AM 6.4 43.52 0.111 7.12 5.21 11.96
3/24/2021 6:00:00 AM 6.38 43.484 0.111 7.1 5.16 11.96
3/24/2021 6:15:00 AM 6.36 43.448 0.111 7.13 5.2 11.97
3/24/2021 6:30:00 AM 6.34 43.412 0.111 7.11 4.9 11.97
3/24/2021 6:45:00 AM 6.32 43.376 0.111 7.13 4.97 11.99
3/24/2021 7:00:00 AM 6.3 43.34 0.111 7.12 5.01 11.99
3/24/2021 7:15:00 AM 6.28 43.304 0.111 7.11 5.26 12
3/24/2021 7:30:00 AM 6.28 43.304 0.111 7.12 5.07 12
3/24/2021 7:45:00 AM 6.27 43.286 0.111 7.1 5.03 12.03
3/24/2021 8:00:00 AM 6.27 43.286 0.111 7.12 5.22 12.04
3/24/2021 8:15:00 AM 6.27 43.286 0.111 7.14 5.07 12.05
3/24/2021 8:30:00 AM 6.27 43.286 0.111 7.14 5.11 12.07
3/24/2021 8:45:00 AM 6.27 43.286 0.111 7.15 5.14 12.08
3/24/2021 9:00:00 AM 6.28 43.304 0.111 7.16 5.29 12.1
3/24/2021 9:15:00 AM 6.3 43.34 0.111 7.17 5.19 12.12
3/24/2021 9:30:00 AM 6.31 43.358 0.111 7.18 5 12.15
3/24/2021 9:45:00 AM 6.33 43.394 0.111 7.19 5.46 12.18
3/24/2021 10:00:00 AM 6.36 43.448 0.111 7.2 5.12 12.21
3/24/2021 10:15:00 AM 6.39 43.502 0.11 7.22 5.27 12.25
3/24/2021 10:30:00 AM 6.45 43.61 0.11 7.24 5.09 12.28
3/24/2021 10:45:00 AM 6.49 43.682 0.11 7.26 5 12.3
3/24/2021 11:00:00 AM 6.53 43.754 0.11 7.28 5.48 12.31
3/24/2021 11:15:00 AM 6.58 43.844 0.11 7.29 5.22 12.33
3/24/2021 11:30:00 AM 6.62 43.916 0.11 7.31 5.28 12.35
3/24/2021 11:45:00 AM 6.68 44.024 0.11 7.32 5.15 12.35
3/24/2021 12:00:00 PM 6.72 44.096 0.11 7.33 4.92 12.35
3/24/2021 12:15:00 PM 6.79 44.222 0.109 7.36 4.96 12.36
3/24/2021 12:30:00 PM 6.85 44.33 0.109 7.38 4.89 12.37
3/24/2021 12:45:00 PM 6.91 44.438 0.109 7.38 5.28 12.36
3/24/2021 1:00:00 PM 6.96 44.528 0.109 7.4 4.79 12.35
3/24/2021 1:15:00 PM 7.01 44.618 0.109 7.39 4.98 12.34
3/24/2021 1:30:00 PM 7.07 44.726 0.109 7.41 5 12.35
3/24/2021 1:45:00 PM 7.12 44.816 0.109 7.42 5.14 12.32
3/24/2021 2:00:00 PM 7.18 44.924 0.109 7.42 5.37 12.29
3/24/2021 2:15:00 PM 7.23 45.014 0.109 7.42 5.36 12.27
3/24/2021 2:30:00 PM 7.27 45.086 0.108 7.41 5.02 12.24
3/24/2021 2:45:00 PM 7.31 45.158 0.108 7.4 5.22 12.22
3/24/2021 3:00:00 PM 7.34 45.212 0.108 7.38 5.56 12.17
3/24/2021 3:15:00 PM 7.39 45.302 0.108 7.37 5.49 12.17
3/24/2021 3:30:00 PM 7.41 45.338 0.108 7.37 5.45 12.13
3/24/2021 3:45:00 PM 7.45 45.41 0.109 7.37 5.67 12.12
3/24/2021 4:00:00 PM 7.48 45.464 0.109 7.36 5.23 12.08
3/24/2021 4:15:00 PM 7.5 45.5 0.109 7.34 5.39 12.05
3/24/2021 4:30:00 PM 7.52 45.536 0.109 7.32 5.6 12.02
3/24/2021 4:45:00 PM 7.55 45.59 0.109 7.32 6.14 12.01
3/24/2021 5:00:00 PM 7.57 45.626 0.109 7.31 6.16 11.97
3/24/2021 5:15:00 PM 7.58 45.644 0.109 7.31 6.67 11.95
3/24/2021 5:30:00 PM 7.59 45.662 0.11 7.29 7.19 11.91
3/24/2021 5:45:00 PM 7.6 45.68 0.111 7.27 7.15 11.89
3/24/2021 6:00:00 PM 7.61 45.698 0.111 7.26 7.51 11.88
3/24/2021 6:15:00 PM 7.62 45.716 0.112 7.26 7.7 11.86
3/24/2021 6:30:00 PM 7.64 45.752 0.112 7.26 7.48 11.84
3/24/2021 6:45:00 PM 7.65 45.77 0.112 7.24 7.83 11.82
3/24/2021 7:00:00 PM 7.66 45.788 0.112 7.24 8.09 11.79
3/24/2021 7:15:00 PM 7.68 45.824 0.112 7.23 8.12 11.76
3/24/2021 7:30:00 PM 7.68 45.824 0.112 7.22 8.16 11.73
3/24/2021 7:45:00 PM 7.7 45.86 0.113 7.21 8.68 11.7
3/24/2021 8:00:00 PM 7.7 45.86 0.113 7.2 8.92 11.68
3/24/2021 8:15:00 PM 7.7 45.86 0.113 7.21 8.96 11.67
3/24/2021 8:30:00 PM 7.7 45.86 0.113 7.2 9.28 11.65
3/24/2021 8:45:00 PM 7.69 45.842 0.114 7.18 9.33 11.64
3/24/2021 9:00:00 PM 7.69 45.842 0.113 7.18 9.86 11.63
3/24/2021 9:15:00 PM 7.68 45.824 0.114 7.18 9.78 11.63
3/24/2021 9:30:00 PM 7.67 45.806 0.113 7.17 10.16 11.62
3/24/2021 9:45:00 PM 7.66 45.788 0.113 7.17 9.51 11.61
3/24/2021 10:00:00 PM 7.65 45.77 0.113 7.17 10.18 11.61
3/24/2021 10:15:00 PM 7.64 45.752 0.113 7.16 10.25 11.62
3/24/2021 10:30:00 PM 7.62 45.716 0.113 7.14 10.5 11.61
3/24/2021 10:45:00 PM 7.6 45.68 0.113 7.14 10.14 11.62
3/24/2021 11:00:00 PM 7.59 45.662 0.113 7.13 10.72 11.61
3/24/2021 11:15:00 PM 7.57 45.626 0.113 7.13 11.11 11.61
3/24/2021 11:30:00 PM 7.55 45.59 0.113 7.13 11.78 11.61
3/24/2021 11:45:00 PM 7.54 45.572 0.113 7.09 11.48 11.61
3/25/2021 12:00:00 AM 7.52 45.536 0.113 7.09 12.01 11.62
3/25/2021 12:15:00 AM 7.5 45.5 0.113 7.08 12.7 11.62
3/25/2021 12:30:00 AM 7.48 45.464 0.113 7.07 12.62 11.63
3/25/2021 12:45:00 AM 7.46 45.428 0.112 7.06 12.57 11.63
3/25/2021 1:00:00 AM 7.44 45.392 0.112 7.06 13.43 11.63
3/25/2021 1:15:00 AM 7.42 45.356 0.112 7.06 13.23 11.63
3/25/2021 1:30:00 AM 7.41 45.338 0.111 7.07 13.55 11.63
3/25/2021 1:45:00 AM 7.4 45.32 0.111 7.07 13.26 11.65
3/25/2021 2:00:00 AM 7.38 45.284 0.111 7.07 13.61 11.66
3/25/2021 2:15:00 AM 7.37 45.266 0.11 7.06 13.39 11.65
3/25/2021 2:30:00 AM 7.36 45.248 0.11 7.06 14.06 11.65
3/25/2021 2:45:00 AM 7.34 45.212 0.11 7.06 13.96 11.66
3/25/2021 3:00:00 AM 7.33 45.194 0.11 7.06 14.1 11.66
3/25/2021 3:15:00 AM 7.32 45.176 0.11 7.06 14.9 11.67
3/25/2021 3:30:00 AM 7.31 45.158 0.11 7.05 14.83 11.67
3/25/2021 3:45:00 AM 7.3 45.14 0.11 7.05 15.09 11.67
3/25/2021 4:00:00 AM 7.29 45.122 0.111 7.05 17.67 11.67
3/25/2021 4:15:00 AM 7.28 45.104 0.111 7.05 17.8 11.68
3/25/2021 4:30:00 AM 7.27 45.086 0.112 7.04 18.76 11.68
3/25/2021 4:45:00 AM 7.26 45.068 0.112 7.04 18.41 11.68
3/25/2021 5:00:00 AM 7.25 45.05 0.113 7.04 19.09 11.68
3/25/2021 5:15:00 AM 7.24 45.032 0.113 7.04 19.06 11.69
3/25/2021 5:30:00 AM 7.23 45.014 0.113 7.03 18.61 11.69
3/25/2021 5:45:00 AM 7.23 45.014 0.113 7.03 17.73 11.7
3/25/2021 6:00:00 AM 7.22 44.996 0.113 7.04 25.32 11.69
3/25/2021 6:15:00 AM 7.21 44.978 0.112 7.01 13.14 11.7
3/25/2021 6:30:00 AM 7.19 44.942 0.112 7.02 17.08 11.71
3/25/2021 6:45:00 AM 7.17 44.906 0.111 7.03 16.14 11.71
3/25/2021 7:00:00 AM 7.15 44.87 0.111 7.02 16.76 11.72
3/25/2021 7:15:00 AM 7.14 44.852 0.111 7 16.39 11.73
3/25/2021 7:30:00 AM 7.12 44.816 0.111 7.02 20.36 11.75
3/25/2021 7:45:00 AM 7.12 44.816 0.111 7.03 16.35 11.76
3/25/2021 8:00:00 AM 7.13 44.834 0.111 7.04 16.68 11.79
3/25/2021 8:15:00 AM 7.13 44.834 0.111 7.05 15.4 11.82
3/25/2021 8:30:00 AM 7.14 44.852 0.112 7.06 15.9 11.85
3/25/2021 8:45:00 AM 7.15 44.87 0.112 7.07 15.91 11.88
3/25/2021 9:00:00 AM 7.19 44.942 0.112 7.08 16.42 11.91
3/25/2021 9:15:00 AM 7.24 45.032 0.112 7.12 16.28 11.93
3/25/2021 9:30:00 AM 7.3 45.14 0.112 7.13 16.85 11.96
3/25/2021 9:45:00 AM 7.39 45.302 0.112 7.16 20.13 11.97
3/25/2021 10:00:00 AM 7.45 45.41 0.112 7.18 16.35 11.99
3/25/2021 10:15:00 AM 7.53 45.554 0.112 7.19 16.55 11.99
3/25/2021 10:30:00 AM 7.64 45.752 0.112 7.22 13.28 12.01
3/25/2021 10:45:00 AM 7.76 45.968 0.111 7.24 16.05 12.02
3/25/2021 11:00:00 AM 7.88 46.184 0.111 7.26 16.11 12.02
3/25/2021 11:15:00 AM 7.96 46.328 0.111 7.27 16.08 12.01
3/25/2021 11:30:00 AM 8.1 46.58 0.11 7.29 16.49 12.01
3/25/2021 11:45:00 AM 8.28 46.904 0.11 7.31 15.77 11.99
3/25/2021 12:00:00 PM 8.48 47.264 0.11 7.34 15.73 11.96
3/25/2021 12:15:00 PM 8.69 47.642 0.109 7.36 16.53 11.94
3/25/2021 12:30:00 PM 8.89 48.002 0.109 7.37 15.69 11.89
3/25/2021 12:45:00 PM 9.04 48.272 0.109 7.36 16.33 11.86
3/25/2021 1:00:00 PM 9.21 48.578 0.108 7.38 16.29 11.83
3/25/2021 1:15:00 PM 9.43 48.974 0.108 7.4 16.83 11.8
3/25/2021 1:30:00 PM 9.6 49.28 0.108 7.42 15.91 11.76
3/25/2021 1:45:00 PM 9.75 49.55 0.108 7.42 15.64 11.73
3/25/2021 2:00:00 PM 9.89 49.802 0.108 7.42 14.99 11.69
3/25/2021 2:15:00 PM 10.05 50.09 0.107 7.45 15.57 11.65
3/25/2021 2:30:00 PM 10.21 50.378 0.107 7.45 16.34 11.62
3/25/2021 2:45:00 PM 10.33 50.594 0.107 7.46 15.89 11.58
3/25/2021 3:00:00 PM 10.43 50.774 0.107 7.46 15.72 11.55
3/25/2021 3:15:00 PM 10.53 50.954 0.107 7.45 15.34 11.51
3/25/2021 3:30:00 PM 10.63 51.134 0.107 7.47 15.95 11.47
3/25/2021 3:45:00 PM 10.71 51.278 0.107 7.46 15.51 11.43
3/25/2021 4:00:00 PM 10.77 51.386 0.107 7.46 15.34 11.4
3/25/2021 4:15:00 PM 10.83 51.494 0.107 7.46 14.87 11.37
3/25/2021 4:30:00 PM 10.88 51.584 0.107 7.44 15.67 11.33
3/25/2021 4:45:00 PM 10.94 51.692 0.107 7.44 14.95 11.29
3/25/2021 5:00:00 PM 11 51.8 0.107 7.44 14.52 11.26
3/25/2021 5:15:00 PM 11.06 51.908 0.107 7.41 14.31 11.21
3/25/2021 5:30:00 PM 11.09 51.962 0.107 7.39 14.21 11.17
3/25/2021 5:45:00 PM 11.11 51.998 0.108 7.36 13.69 11.12
3/25/2021 6:00:00 PM 11.11 51.998 0.108 7.34 14.43 11.09
3/25/2021 6:15:00 PM 11.1 51.98 0.108 7.32 14.76 11.04
3/25/2021 6:30:00 PM 11.07 51.926 0.108 7.31 14.07 11
3/25/2021 6:45:00 PM 11.04 51.872 0.108 7.28 13.7 10.97
3/25/2021 7:00:00 PM 10.99 51.782 0.108 7.24 14.55 10.93
3/25/2021 7:15:00 PM 10.94 51.692 0.109 7.2 14.05 10.9
3/25/2021 7:30:00 PM 10.88 51.584 0.109 7.17 15.14 10.86
3/25/2021 7:45:00 PM 10.82 51.476 0.109 7.15 14.15 10.85
3/25/2021 8:00:00 PM 10.76 51.368 0.109 7.12 14.31 10.82
3/25/2021 8:15:00 PM 10.7 51.26 0.109 7.1 14.34 10.81
3/25/2021 8:30:00 PM 10.64 51.152 0.11 7.08 14.35 10.82
3/25/2021 8:45:00 PM 10.58 51.044 0.11 7.06 14.58 10.81
3/25/2021 9:00:00 PM 10.51 50.918 0.11 7.07 13.67 10.81
3/25/2021 9:15:00 PM 10.47 50.846 0.11 7.08 14.19 10.82
3/25/2021 9:30:00 PM 10.43 50.774 0.11 7.07 13.77 10.83
3/25/2021 9:45:00 PM 10.39 50.702 0.111 7.07 13.24 10.83
3/25/2021 10:00:00 PM 10.35 50.63 0.111 7.07 12.96 10.83
3/25/2021 10:15:00 PM 10.31 50.558 0.111 7.07 14.08 10.83
3/25/2021 10:30:00 PM 10.27 50.486 0.111 7.07 13.31 10.83
3/25/2021 10:45:00 PM 10.23 50.414 0.111 7.06 13.49 10.83
3/25/2021 11:00:00 PM 10.2 50.36 0.111 7.06 13.67 10.83
3/25/2021 11:15:00 PM 10.16 50.288 0.111 7.07 13.59 10.84
3/25/2021 11:30:00 PM 10.12 50.216 0.111 7.06 13.06 10.84
3/25/2021 11:45:00 PM 10.09 50.162 0.112 7.04 13.2 10.84
3/26/2021 12:00:00 AM 10.07 50.126 0.112 7.06 13.18 10.84
3/26/2021 12:15:00 AM 10.04 50.072 0.112 7.04 12.87 10.84
3/26/2021 12:30:00 AM 10.01 50.018 0.112 7.06 13.74 10.85
3/26/2021 12:45:00 AM 9.98 49.964 0.112 7.05 13.02 10.85
3/26/2021 1:00:00 AM 9.96 49.928 0.112 7.06 13.07 10.85
3/26/2021 1:15:00 AM 9.94 49.892 0.112 7.06 12.95 10.85
3/26/2021 1:30:00 AM 9.92 49.856 0.112 7.06 13.09 10.86
3/26/2021 1:45:00 AM 9.9 49.82 0.112 7.04 13.11 10.85
3/26/2021 2:00:00 AM 9.89 49.802 0.112 7.06 12.99 10.86
3/26/2021 2:15:00 AM 9.88 49.784 0.112 7.06 12.87 10.85
3/26/2021 2:30:00 AM 9.86 49.748 0.112 7.07 12.76 10.86
3/26/2021 2:45:00 AM 9.84 49.712 0.112 7.04 13.21 10.86
3/26/2021 3:00:00 AM 9.83 49.694 0.112 7.06 12.88 10.86
3/26/2021 3:15:00 AM 9.83 49.694 0.112 7.06 12.95 10.86
3/26/2021 3:30:00 AM 9.82 49.676 0.112 7.06 12.71 10.85
3/26/2021 3:45:00 AM 9.83 49.694 0.112 7.06 12.25 10.85
3/26/2021 4:00:00 AM 9.84 49.712 0.112 7.07 13.13 10.85
3/26/2021 4:15:00 AM 9.85 49.73 0.112 7.07 12.53 10.83
3/26/2021 4:30:00 AM 9.86 49.748 0.112 7.07 11.7 10.83
3/26/2021 4:45:00 AM 9.88 49.784 0.112 7.08 12.24 10.82
3/26/2021 5:00:00 AM 9.9 49.82 0.112 7.05 12.82 10.81
3/26/2021 5:15:00 AM 9.91 49.838 0.112 7.08 12.31 10.8
3/26/2021 5:30:00 AM 9.93 49.874 0.112 7.05 11.94 10.79
3/26/2021 5:45:00 AM 9.94 49.892 0.112 7.07 11.52 10.78
3/26/2021 6:00:00 AM 9.94 49.892 0.112 7.07 11.59 10.78
3/26/2021 6:15:00 AM 9.95 49.91 0.112 7.08 11.75 10.78
3/26/2021 6:30:00 AM 9.97 49.946 0.112 7.08 11.53 10.77
3/26/2021 6:45:00 AM 9.98 49.964 0.112 7.08 11.09 10.77
3/26/2021 7:00:00 AM 10.01 50.018 0.112 7.09 11.71 10.76
3/26/2021 7:15:00 AM 10.05 50.09 0.112 7.09 11.35 10.75
3/26/2021 7:30:00 AM 10.07 50.126 0.112 7.1 10.97 10.75
3/26/2021 7:45:00 AM 10.1 50.18 0.111 7.09 11.26 10.76
3/26/2021 8:00:00 AM 10.12 50.216 0.112 7.1 10.61 10.79
3/26/2021 8:15:00 AM 10.16 50.288 0.111 7.1 10.21 10.83
3/26/2021 8:30:00 AM 10.22 50.396 0.111 7.14 9.54 10.86
3/26/2021 8:45:00 AM 10.27 50.486 0.111 7.16 11.47 10.87
3/26/2021 9:00:00 AM 10.31 50.558 0.111 7.16 10.17 10.85
3/26/2021 9:15:00 AM 10.35 50.63 0.111 7.16 9.87 10.9
3/26/2021 9:30:00 AM 10.46 50.828 0.111 7.21 10.11 10.95
3/26/2021 9:45:00 AM 10.6 51.08 0.111 7.25 9.94 10.99
3/26/2021 10:00:00 AM 10.75 51.35 0.111 7.3 9.69 11.02
3/26/2021 10:15:00 AM 10.85 51.53 0.111 7.3 9.99 11.01
3/26/2021 10:30:00 AM 10.92 51.656 0.111 7.31 9.59 11.01
3/26/2021 10:45:00 AM 10.95 51.71 0.111 7.32 9.89 11.01
3/26/2021 11:00:00 AM 11.08 51.944 0.111 7.35 9.21 11.04
3/26/2021 11:15:00 AM 11.34 52.412 0.111 7.41 9.03 11.05
3/26/2021 11:30:00 AM 11.57 52.826 0.111 7.45 8.99 11.01
3/26/2021 11:45:00 AM 11.61 52.898 0.11 7.43 9.08 10.96
3/26/2021 12:00:00 PM 11.63 52.934 0.11 7.43 9.07 10.96
3/26/2021 12:15:00 PM 11.7 53.06 0.11 7.45 9.38 10.97
3/26/2021 12:30:00 PM 11.82 53.276 0.11 7.47 9.08 10.98
3/26/2021 12:45:00 PM 11.95 53.51 0.11 7.5 8.86 10.95
3/26/2021 1:00:00 PM 12.07 53.726 0.11 7.53 8.98 10.93
3/26/2021 1:15:00 PM 12.13 53.834 0.11 7.52 8.56 10.92
3/26/2021 1:30:00 PM 12.13 53.834 0.109 7.49 8.9 10.86
3/26/2021 1:45:00 PM 12.09 53.762 0.11 7.46 9.15 10.85
3/26/2021 2:00:00 PM 12.09 53.762 0.109 7.47 9.04 10.83
3/26/2021 2:15:00 PM 12.11 53.798 0.109 7.47 8.9 10.83
3/26/2021 2:30:00 PM 12.14 53.852 0.11 7.48 8.76 10.82
3/26/2021 2:45:00 PM 12.15 53.87 0.109 7.46 9.08 10.81
3/26/2021 3:00:00 PM 12.18 53.924 0.109 7.48 8.37 10.82
3/26/2021 3:15:00 PM 12.22 53.996 0.109 7.5 8.9 10.84
3/26/2021 3:30:00 PM 12.24 54.032 0.109 7.49 8.92 10.82
3/26/2021 3:45:00 PM 12.29 54.122 0.109 7.52 8.36 10.84
3/26/2021 4:00:00 PM 12.31 54.158 0.109 7.52 8.37 10.83
3/26/2021 4:15:00 PM 12.32 54.176 0.109 7.52 7.98 10.82
3/26/2021 4:30:00 PM 12.32 54.176 0.109 7.51 8.69 10.8
3/26/2021 4:45:00 PM 12.29 54.122 0.109 7.48 8.7 10.76
3/26/2021 5:00:00 PM 12.26 54.068 0.109 7.46 8.39 10.76
3/26/2021 5:15:00 PM 12.23 54.014 0.109 7.46 8.46 10.77
3/26/2021 5:30:00 PM 12.2 53.96 0.109 7.45 8.84 10.76
3/26/2021 5:45:00 PM 12.17 53.906 0.109 7.43 8.75 10.74
3/26/2021 6:00:00 PM 12.13 53.834 0.109 7.4 8.74 10.72
3/26/2021 6:15:00 PM 12.07 53.726 0.109 7.36 8.61 10.68
3/26/2021 6:30:00 PM 12 53.6 0.109 7.32 8.36 10.63
3/26/2021 6:45:00 PM 11.93 53.474 0.109 7.28 8.49 10.59
3/26/2021 7:00:00 PM 11.86 53.348 0.109 7.25 8.61 10.58
3/26/2021 7:15:00 PM 11.79 53.222 0.11 7.2 8.67 10.56
3/26/2021 7:30:00 PM 11.72 53.096 0.11 7.2 8.16 10.55
3/26/2021 7:45:00 PM 11.65 52.97 0.11 7.19 8.47 10.53
3/26/2021 8:00:00 PM 11.58 52.844 0.109 7.18 9.18 10.53
3/26/2021 8:15:00 PM 11.52 52.736 0.109 7.16 8.71 10.53
3/26/2021 8:30:00 PM 11.46 52.628 0.109 7.14 9.02 10.54
3/26/2021 8:45:00 PM 11.39 52.502 0.109 7.13 8.71 10.55
3/26/2021 9:00:00 PM 11.33 52.394 0.11 7.13 8.48 10.56
3/26/2021 9:15:00 PM 11.27 52.286 0.11 7.12 8.97 10.57
3/26/2021 9:30:00 PM 11.2 52.16 0.11 7.12 8.63 10.58
3/26/2021 9:45:00 PM 11.14 52.052 0.11 7.11 8.66 10.58
3/26/2021 10:00:00 PM 11.07 51.926 0.11 7.12 8.78 10.6
3/26/2021 10:15:00 PM 11.01 51.818 0.11 7.11 8.68 10.62
3/26/2021 10:30:00 PM 10.94 51.692 0.11 7.11 8.87 10.62
3/26/2021 10:45:00 PM 10.87 51.566 0.11 7.1 8.87 10.65
3/26/2021 11:00:00 PM 10.79 51.422 0.11 7.1 8.77 10.66
3/26/2021 11:15:00 PM 10.73 51.314 0.11 7.1 8.5 10.68
3/26/2021 11:30:00 PM 10.67 51.206 0.111 7.1 8.39 10.69
3/26/2021 11:45:00 PM 10.61 51.098 0.11 7.09 8.49 10.71
3/27/2021 12:00:00 AM 10.55 50.99 0.11 7.07 8.46 10.72
3/27/2021 12:15:00 AM 10.47 50.846 0.111 7.09 8.37 10.74
3/27/2021 12:30:00 AM 10.41 50.738 0.111 7.08 8.44 10.76
3/27/2021 12:45:00 AM 10.32 50.576 0.111 7.07 7.99 10.78
3/27/2021 1:00:00 AM 10.25 50.45 0.111 7.07 8.42 10.79
3/27/2021 1:15:00 AM 10.18 50.324 0.111 7.07 8.77 10.81
3/27/2021 1:30:00 AM 10.1 50.18 0.111 7.08 8.21 10.82
3/27/2021 1:45:00 AM 10.04 50.072 0.111 7.08 8.07 10.84
3/27/2021 2:00:00 AM 9.98 49.964 0.111 7.08 8.67 10.86
3/27/2021 2:15:00 AM 9.91 49.838 0.111 7.08 8.38 10.87
3/27/2021 2:30:00 AM 9.84 49.712 0.111 7.08 8.34 10.9
3/27/2021 2:45:00 AM 9.78 49.604 0.111 7.08 8.64 10.91
3/27/2021 3:00:00 AM 9.73 49.514 0.111 7.08 8.69 10.92
3/27/2021 3:15:00 AM 9.69 49.442 0.111 7.09 8.25 10.93
3/27/2021 3:30:00 AM 9.66 49.388 0.111 7.09 8.4 10.95
3/27/2021 3:45:00 AM 9.63 49.334 0.111 7.09 8.26 10.95
3/27/2021 4:00:00 AM 9.59 49.262 0.111 7.09 8.36 10.97
3/27/2021 4:15:00 AM 9.55 49.19 0.111 7.07 8.13 10.98
3/27/2021 4:30:00 AM 9.51 49.118 0.112 7.09 8.42 10.99
3/27/2021 4:45:00 AM 9.48 49.064 0.111 7.09 8.3 11
3/27/2021 5:00:00 AM 9.44 48.992 0.111 7.09 8.18 11.01
3/27/2021 5:15:00 AM 9.41 48.938 0.112 7.1 8.09 11.03
3/27/2021 5:30:00 AM 9.38 48.884 0.112 7.09 8.01 11.03
3/27/2021 5:45:00 AM 9.35 48.83 0.112 7.09 8.4 11.04
3/27/2021 6:00:00 AM 9.32 48.776 0.112 7.1 8.4 11.06
3/27/2021 6:15:00 AM 9.29 48.722 0.112 7.1 8.04 11.06
3/27/2021 6:30:00 AM 9.26 48.668 0.112 7.1 7.95 11.07
3/27/2021 6:45:00 AM 9.23 48.614 0.112 7.1 8.15 11.09
3/27/2021 7:00:00 AM 9.2 48.56 0.112 7.1 7.96 11.1
3/27/2021 7:15:00 AM 9.17 48.506 0.112 7.09 8.04 11.11
3/27/2021 7:30:00 AM 9.15 48.47 0.112 7.1 7.99 11.15
3/27/2021 7:45:00 AM 9.14 48.452 0.112 7.14 8 11.2
3/27/2021 8:00:00 AM 9.14 48.452 0.112 7.14 7.94 11.27
3/27/2021 8:15:00 AM 9.13 48.434 0.112 7.16 7.99 11.31
3/27/2021 8:30:00 AM 9.13 48.434 0.112 7.18 7.9 11.36
3/27/2021 8:45:00 AM 9.14 48.452 0.112 7.21 7.69 11.41
3/27/2021 9:00:00 AM 9.16 48.488 0.112 7.22 7.69 11.49
3/27/2021 9:15:00 AM 9.2 48.56 0.112 7.28 7.89 11.55
3/27/2021 9:30:00 AM 9.24 48.632 0.112 7.31 8.15 11.6
3/27/2021 9:45:00 AM 9.3 48.74 0.111 7.36 7.6 11.65
3/27/2021 10:00:00 AM 9.39 48.902 0.111 7.39 9 11.67
3/27/2021 10:15:00 AM 9.46 49.028 0.111 7.4 9.59 11.69
3/27/2021 10:30:00 AM 9.47 49.046 0.111 7.42 8.16 11.68
3/27/2021 10:45:00 AM 9.56 49.208 0.111 7.45 8.07 11.71
3/27/2021 11:00:00 AM 9.72 49.496 0.111 7.49 8.04 11.71
3/27/2021 11:15:00 AM 9.87 49.766 0.111 7.52 7.55 11.71
3/27/2021 11:30:00 AM 9.99 49.982 0.111 7.54 7.78 11.7
3/27/2021 11:45:00 AM 10.12 50.216 0.111 7.58 7.43 11.7
3/27/2021 12:00:00 PM 10.31 50.558 0.11 7.6 7.47 11.69
3/27/2021 12:15:00 PM 10.4 50.72 0.11 7.61 7.38 11.66
3/27/2021 12:30:00 PM 10.6 51.08 0.11 7.65 7.32 11.63
3/27/2021 12:45:00 PM 10.75 51.35 0.11 7.67 7.67 11.59
3/27/2021 1:00:00 PM 10.84 51.512 0.11 7.68 7.44 11.58
3/27/2021 1:15:00 PM 11.04 51.872 0.11 7.7 7.53 11.54
3/27/2021 1:30:00 PM 11.22 52.196 0.11 7.71 7.34 11.49
3/27/2021 1:45:00 PM 11.35 52.43 0.11 7.72 7.37 11.45
3/27/2021 2:00:00 PM 11.47 52.646 0.11 7.73 7.62 11.43
3/27/2021 2:15:00 PM 11.6 52.88 0.11 7.75 7.18 11.39
3/27/2021 2:30:00 PM 11.76 53.168 0.11 7.77 7.06 11.37
3/27/2021 2:45:00 PM 11.89 53.402 0.11 7.78 7.26 11.33
3/27/2021 3:00:00 PM 12 53.6 0.11 7.79 7.23 11.29
3/27/2021 3:15:00 PM 12.1 53.78 0.11 7.79 7.42 11.25
3/27/2021 3:30:00 PM 12.17 53.906 0.109 7.8 7.05 11.22
3/27/2021 3:45:00 PM 12.18 53.924 0.109 7.79 7.18 11.2
3/27/2021 4:00:00 PM 12.15 53.87 0.109 7.78 6.97 11.18
3/27/2021 4:15:00 PM 12.16 53.888 0.109 7.77 7.22 11.17
3/27/2021 4:30:00 PM 12.18 53.924 0.109 7.77 7.1 11.16
3/27/2021 4:45:00 PM 12.19 53.942 0.109 7.76 6.96 11.13
3/27/2021 5:00:00 PM 12.21 53.978 0.109 7.76 7.1 11.1
3/27/2021 5:15:00 PM 12.22 53.996 0.109 7.74 7.34 11.07
3/27/2021 5:30:00 PM 12.22 53.996 0.109 7.7 7.12 11.03
3/27/2021 5:45:00 PM 12.23 54.014 0.109 7.67 6.96 10.99
3/27/2021 6:00:00 PM 12.25 54.05 0.109 7.65 6.75 10.95
3/27/2021 6:15:00 PM 12.26 54.068 0.109 7.61 6.9 10.9
3/27/2021 6:30:00 PM 12.25 54.05 0.109 7.54 7.02 10.84
3/27/2021 6:45:00 PM 12.25 54.05 0.109 7.5 6.93 10.78
3/27/2021 7:00:00 PM 12.23 54.014 0.109 7.45 6.93 10.71
3/27/2021 7:15:00 PM 12.2 53.96 0.109 7.4 6.79 10.65
3/27/2021 7:30:00 PM 12.16 53.888 0.109 7.36 7.14 10.58
3/27/2021 7:45:00 PM 12.11 53.798 0.11 7.3 6.79 10.52
3/27/2021 8:00:00 PM 12.05 53.69 0.11 7.26 6.85 10.49
3/27/2021 8:15:00 PM 11.98 53.564 0.11 7.22 7.22 10.47
3/27/2021 8:30:00 PM 11.9 53.42 0.11 7.22 7.19 10.46
3/27/2021 8:45:00 PM 11.82 53.276 0.11 7.19 6.94 10.46
3/27/2021 9:00:00 PM 11.74 53.132 0.11 7.17 7.14 10.47
3/27/2021 9:15:00 PM 11.65 52.97 0.111 7.16 6.82 10.47
3/27/2021 9:30:00 PM 11.56 52.808 0.111 7.15 6.97 10.48
3/27/2021 9:45:00 PM 11.47 52.646 0.111 7.14 6.97 10.49
3/27/2021 10:00:00 PM 11.37 52.466 0.111 7.13 6.8 10.52
3/27/2021 10:15:00 PM 11.27 52.286 0.111 7.12 6.85 10.52
3/27/2021 10:30:00 PM 11.17 52.106 0.111 7.11 7.05 10.55
3/27/2021 10:45:00 PM 11.08 51.944 0.111 7.1 6.81 10.55
3/27/2021 11:00:00 PM 11 51.8 0.111 7.09 6.85 10.56
3/27/2021 11:15:00 PM 10.93 51.674 0.111 7.1 7.04 10.58
3/27/2021 11:30:00 PM 10.87 51.566 0.111 7.1 6.83 10.6
3/27/2021 11:45:00 PM 10.8 51.44 0.111 7.1 6.83 10.63
3/28/2021 12:00:00 AM 10.73 51.314 0.112 7.1 7.03 10.63
3/28/2021 12:15:00 AM 10.67 51.206 0.112 7.09 6.59 10.64
3/28/2021 12:30:00 AM 10.6 51.08 0.112 7.1 6.91 10.65
3/28/2021 12:45:00 AM 10.53 50.954 0.112 7.1 6.88 10.67
3/28/2021 1:00:00 AM 10.47 50.846 0.112 7.1 6.72 10.68
3/28/2021 1:15:00 AM 10.41 50.738 0.112 7.1 6.96 10.69
3/28/2021 1:30:00 AM 10.34 50.612 0.113 7.1 6.94 10.71
3/28/2021 1:45:00 AM 10.27 50.486 0.112 7.1 6.77 10.72
3/28/2021 2:00:00 AM 10.2 50.36 0.112 7.1 6.76 10.74
3/28/2021 2:15:00 AM 10.12 50.216 0.113 7.09 7 10.76
3/28/2021 2:30:00 AM 10.04 50.072 0.113 7.08 6.57 10.77
3/28/2021 2:45:00 AM 9.97 49.946 0.113 7.09 7.15 10.79
3/28/2021 3:00:00 AM 9.89 49.802 0.113 7.08 7.01 10.8
3/28/2021 3:15:00 AM 9.82 49.676 0.113 7.09 6.69 10.82
3/28/2021 3:30:00 AM 9.75 49.55 0.113 7.09 6.55 10.84
3/28/2021 3:45:00 AM 9.67 49.406 0.113 7.09 6.79 10.85
3/28/2021 4:00:00 AM 9.6 49.28 0.113 7.09 6.81 10.87
3/28/2021 4:15:00 AM 9.53 49.154 0.113 7.1 6.65 10.89
3/28/2021 4:30:00 AM 9.48 49.064 0.113 7.1 6.99 10.9
3/28/2021 4:45:00 AM 9.43 48.974 0.113 7.1 7.08 10.91
3/28/2021 5:00:00 AM 9.39 48.902 0.113 7.11 6.83 10.93
3/28/2021 5:15:00 AM 9.36 48.848 0.114 7.11 6.75 10.94
3/28/2021 5:30:00 AM 9.33 48.794 0.113 7.11 6.77 10.95
3/28/2021 5:45:00 AM 9.3 48.74 0.113 7.11 6.84 10.96
3/28/2021 6:00:00 AM 9.28 48.704 0.113 7.12 6.54 10.96
3/28/2021 6:15:00 AM 9.26 48.668 0.113 7.13 6.65 10.97
3/28/2021 6:30:00 AM 9.24 48.632 0.113 7.13 6.47 10.97
3/28/2021 6:45:00 AM 9.22 48.596 0.113 7.13 7.14 10.98
3/28/2021 7:00:00 AM 9.2 48.56 0.114 7.14 6.84 10.98
3/28/2021 7:15:00 AM 9.18 48.524 0.114 7.13 6.63 10.99
3/28/2021 7:30:00 AM 9.17 48.506 0.114 7.13 6.78 11.01
3/28/2021 7:45:00 AM 9.16 48.488 0.114 7.14 6.99 11.01
3/28/2021 8:00:00 AM 9.15 48.47 0.114 7.15 6.96 11.02
3/28/2021 8:15:00 AM 9.14 48.452 0.114 7.16 6.56 11.04
3/28/2021 8:30:00 AM 9.14 48.452 0.114 7.17 6.45 11.07
3/28/2021 8:45:00 AM 9.13 48.434 0.114 7.17 6.27 11.09
3/28/2021 9:00:00 AM 9.13 48.434 0.114 7.2 6.52 11.13
3/28/2021 9:15:00 AM 9.13 48.434 0.113 7.21 6.64 11.15
3/28/2021 9:30:00 AM 9.13 48.434 0.113 7.22 6.32 11.17
3/28/2021 9:45:00 AM 9.14 48.452 0.113 7.23 6.42 11.21
3/28/2021 10:00:00 AM 9.14 48.452 0.113 7.24 6.55 11.21
3/28/2021 10:15:00 AM 9.14 48.452 0.113 7.25 6.36 11.24
3/28/2021 10:30:00 AM 9.16 48.488 0.113 7.27 6.38 11.29
3/28/2021 10:45:00 AM 9.19 48.542 0.113 7.3 6.27 11.37
3/28/2021 11:00:00 AM 9.22 48.596 0.113 7.33 6.5 11.41
3/28/2021 11:15:00 AM 9.26 48.668 0.113 7.36 6.59 11.43
3/28/2021 11:30:00 AM 9.31 48.758 0.113 7.4 6.53 11.48
3/28/2021 11:45:00 AM 9.37 48.866 0.112 7.44 6.4 11.52
3/28/2021 12:00:00 PM 9.44 48.992 0.112 7.47 6.23 11.54
3/28/2021 12:15:00 PM 9.5 49.1 0.112 7.49 6.37 11.55
3/28/2021 12:30:00 PM 9.56 49.208 0.112 7.51 6.65 11.52
3/28/2021 12:45:00 PM 9.62 49.316 0.112 7.54 6.28 11.52
3/28/2021 1:00:00 PM 9.66 49.388 0.112 7.53 6.29 11.45
3/28/2021 1:15:00 PM 9.69 49.442 0.112 7.5 6.3 11.39
3/28/2021 1:30:00 PM 9.74 49.532 0.112 7.51 6.19 11.43
3/28/2021 1:45:00 PM 9.84 49.712 0.112 7.55 6.37 11.47
3/28/2021 2:00:00 PM 9.93 49.874 0.112 7.59 6.61 11.47
3/28/2021 2:15:00 PM 10.01 50.018 0.111 7.62 6.64 11.46
3/28/2021 2:30:00 PM 10.09 50.162 0.111 7.65 6.74 11.44
3/28/2021 2:45:00 PM 10.15 50.27 0.111 7.65 6.47 11.42
3/28/2021 3:00:00 PM 10.23 50.414 0.111 7.68 6.28 11.43
3/28/2021 3:15:00 PM 10.3 50.54 0.111 7.69 6.33 11.4
3/28/2021 3:30:00 PM 10.36 50.648 0.111 7.7 6.79 11.38
3/28/2021 3:45:00 PM 10.44 50.792 0.111 7.7 6.63 11.37
3/28/2021 4:00:00 PM 10.52 50.936 0.111 7.73 6.28 11.35
3/28/2021 4:15:00 PM 10.58 51.044 0.111 7.72 6.25 11.3
3/28/2021 4:30:00 PM 10.59 51.062 0.111 7.65 6.38 11.17
3/28/2021 4:45:00 PM 10.6 51.08 0.111 7.58 6.37 11.08
3/28/2021 5:00:00 PM 10.6 51.08 0.111 7.52 6.48 11.01
3/28/2021 5:15:00 PM 10.63 51.134 0.111 7.45 6.57 10.95
3/28/2021 5:30:00 PM 10.65 51.17 0.11 7.45 6.27 11
3/28/2021 5:45:00 PM 10.66 51.188 0.111 7.45 6.59 10.98
3/28/2021 6:00:00 PM 10.65 51.17 0.11 7.42 6.3 10.91
3/28/2021 6:15:00 PM 10.64 51.152 0.11 7.39 6.19 10.89
3/28/2021 6:30:00 PM 10.61 51.098 0.11 7.36 6.27 10.83
3/28/2021 6:45:00 PM 10.57 51.026 0.11 7.32 6.55 10.83
3/28/2021 7:00:00 PM 10.52 50.936 0.11 7.31 6.52 10.81
3/28/2021 7:15:00 PM 10.48 50.864 0.11 7.28 6.58 10.78
3/28/2021 7:30:00 PM 10.43 50.774 0.111 7.27 6.68 10.75
3/28/2021 7:45:00 PM 10.38 50.684 0.111 7.24 6.62 10.72
3/28/2021 8:00:00 PM 10.32 50.576 0.111 7.22 7.09 10.71
3/28/2021 8:15:00 PM 10.27 50.486 0.112 7.2 7.65 10.7
3/28/2021 8:30:00 PM 10.22 50.396 0.112 7.2 8.26 10.69
3/28/2021 8:45:00 PM 10.18 50.324 0.112 7.2 8.06 10.7
3/28/2021 9:00:00 PM 10.13 50.234 0.113 7.19 7.72 10.71
3/28/2021 9:15:00 PM 10.07 50.126 0.113 7.19 7.89 10.71
3/28/2021 9:30:00 PM 10 50 0.113 7.18 7.15 10.72
3/28/2021 9:45:00 PM 9.93 49.874 0.113 7.18 7.13 10.73
3/28/2021 10:00:00 PM 9.86 49.748 0.113 7.18 7.33 10.75
3/28/2021 10:15:00 PM 9.78 49.604 0.113 7.17 6.95 10.76
3/28/2021 10:30:00 PM 9.69 49.442 0.113 7.16 6.9 10.78
3/28/2021 10:45:00 PM 9.61 49.298 0.113 7.17 7.05 10.79
3/28/2021 11:00:00 PM 9.53 49.154 0.113 7.17 6.68 10.82
3/28/2021 11:15:00 PM 9.45 49.01 0.114 7.15 6.86 10.85
3/28/2021 11:30:00 PM 9.39 48.902 0.114 7.15 6.75 10.86
3/28/2021 11:45:00 PM 9.3 48.74 0.114 7.15 7.13 10.88
3/29/2021 12:00:00 AM 9.2 48.56 0.114 7.14 6.97 10.91
3/29/2021 12:15:00 AM 9.12 48.416 0.114 7.15 7.19 10.93
3/29/2021 12:30:00 AM 9.05 48.29 0.114 7.15 6.78 10.95
3/29/2021 12:45:00 AM 8.97 48.146 0.114 7.14 6.96 10.98
3/29/2021 1:00:00 AM 8.87 47.966 0.114 7.14 7.17 11
3/29/2021 1:15:00 AM 8.78 47.804 0.114 7.14 6.99 11.03
3/29/2021 1:30:00 AM 8.66 47.588 0.114 7.14 7.12 11.07
3/29/2021 1:45:00 AM 8.57 47.426 0.114 7.14 7.15 11.08
3/29/2021 2:00:00 AM 8.48 47.264 0.114 7.15 6.88 11.1
3/29/2021 2:15:00 AM 8.41 47.138 0.114 7.15 7.55 11.14
3/29/2021 2:30:00 AM 8.31 46.958 0.114 7.15 7.25 11.16
3/29/2021 2:45:00 AM 8.21 46.778 0.114 7.14 7.41 11.19
3/29/2021 3:00:00 AM 8.12 46.616 0.114 7.16 7.19 11.22
3/29/2021 3:15:00 AM 8.04 46.472 0.114 7.16 7.5 11.25
3/29/2021 3:30:00 AM 7.96 46.328 0.114 7.15 7.49 11.27
3/29/2021 3:45:00 AM 7.89 46.202 0.114 7.15 7.87 11.3
3/29/2021 4:00:00 AM 7.82 46.076 0.114 7.15 7.78 11.32
3/29/2021 4:15:00 AM 7.74 45.932 0.114 7.15 7.83 11.35
3/29/2021 4:30:00 AM 7.67 45.806 0.114 7.17 7.92 11.37
3/29/2021 4:45:00 AM 7.6 45.68 0.114 7.16 8.31 11.41
3/29/2021 5:00:00 AM 7.53 45.554 0.114 7.16 8.05 11.42
3/29/2021 5:15:00 AM 7.47 45.446 0.114 7.15 7.9 11.45
3/29/2021 5:30:00 AM 7.4 45.32 0.113 7.15 7.87 11.48
3/29/2021 5:45:00 AM 7.33 45.194 0.113 7.15 7.76 11.5
3/29/2021 6:00:00 AM 7.25 45.05 0.113 7.13 7.9 11.54
3/29/2021 6:15:00 AM 7.17 44.906 0.113 7.16 7.73 11.56
3/29/2021 6:30:00 AM 7.08 44.744 0.113 7.14 7.92 11.6
3/29/2021 6:45:00 AM 7.03 44.654 0.112 7.14 7.78 11.61
3/29/2021 7:00:00 AM 6.98 44.564 0.112 7.15 7.9 11.64
3/29/2021 7:15:00 AM 6.93 44.474 0.112 7.14 8 11.67
3/29/2021 7:30:00 AM 6.89 44.402 0.112 7.16 8.11 11.7
3/29/2021 7:45:00 AM 6.85 44.33 0.112 7.16 8.03 11.73
3/29/2021 8:00:00 AM 6.81 44.258 0.112 7.16 8.04 11.77
3/29/2021 8:15:00 AM 6.77 44.186 0.111 7.18 8.43 11.81
3/29/2021 8:30:00 AM 6.74 44.132 0.111 7.19 8.3 11.87
3/29/2021 8:45:00 AM 6.72 44.096 0.111 7.2 8.39 11.89
3/29/2021 9:00:00 AM 6.69 44.042 0.111 7.21 8.29 11.92
3/29/2021 9:15:00 AM 6.67 44.006 0.111 7.23 8.73 11.96
3/29/2021 9:30:00 AM 6.66 43.988 0.111 7.24 9.07 11.99
3/29/2021 9:45:00 AM 6.66 43.988 0.111 7.26 9.36 12.04
3/29/2021 10:00:00 AM 6.66 43.988 0.11 7.26 9.72 12.1
3/29/2021 10:15:00 AM 6.7 44.06 0.11 7.3 10 12.16
3/29/2021 10:30:00 AM 6.75 44.15 0.111 7.34 9.89 12.22
3/29/2021 10:45:00 AM 6.81 44.258 0.111 7.37 10.21 12.26
3/29/2021 11:00:00 AM 6.86 44.348 0.111 7.39 10.11 12.29
3/29/2021 11:15:00 AM 6.91 44.438 0.111 7.41 9.78 12.33
3/29/2021 11:30:00 AM 6.95 44.51 0.111 7.44 9.62 12.35
3/29/2021 11:45:00 AM 7.11 44.798 0.111 7.48 9.15 12.38
3/29/2021 12:00:00 PM 7.24 45.032 0.111 7.51 8.95 12.36
3/29/2021 12:15:00 PM 7.38 45.284 0.111 7.53 8.65 12.35
3/29/2021 12:30:00 PM 7.55 45.59 0.111 7.55 8.39 12.34
3/29/2021 12:45:00 PM 7.71 45.878 0.111 7.58 8.43 12.33
3/29/2021 1:00:00 PM 7.83 46.094 0.111 7.59 8.16 12.29
3/29/2021 1:15:00 PM 7.88 46.184 0.111 7.58 8.19 12.29
3/29/2021 1:30:00 PM 8 46.4 0.11 7.59 8.48 12.25
3/29/2021 1:45:00 PM 8.21 46.778 0.11 7.63 8.18 12.23
3/29/2021 2:00:00 PM 8.39 47.102 0.11 7.64 8.4 12.18
3/29/2021 2:15:00 PM 8.56 47.408 0.11 7.65 8.71 12.13
3/29/2021 2:30:00 PM 8.72 47.696 0.11 7.66 8.63 12.09
3/29/2021 2:45:00 PM 8.82 47.876 0.11 7.66 8.65 12.06
3/29/2021 3:00:00 PM 8.93 48.074 0.11 7.67 8.72 12.03
3/29/2021 3:15:00 PM 9.04 48.272 0.11 7.68 8.75 11.99
3/29/2021 3:30:00 PM 9.12 48.416 0.11 7.67 8.69 11.96
3/29/2021 3:45:00 PM 9.19 48.542 0.11 7.67 9.24 11.94
3/29/2021 4:00:00 PM 9.24 48.632 0.111 7.66 8.9 11.91
3/29/2021 4:15:00 PM 9.29 48.722 0.111 7.65 9.19 11.88
3/29/2021 4:30:00 PM 9.32 48.776 0.111 7.65 9.13 11.85
3/29/2021 4:45:00 PM 9.32 48.776 0.111 7.62 9.28 11.83
3/29/2021 5:00:00 PM 9.32 48.776 0.111 7.6 8.96 11.8
3/29/2021 5:15:00 PM 9.3 48.74 0.111 7.59 8.86 11.77
3/29/2021 5:30:00 PM 9.27 48.686 0.111 7.56 8.72 11.74
3/29/2021 5:45:00 PM 9.24 48.632 0.111 7.53 9.09 11.7
3/29/2021 6:00:00 PM 9.2 48.56 0.112 7.5 8.87 11.66
3/29/2021 6:15:00 PM 9.15 48.47 0.112 7.47 8.71 11.62
3/29/2021 6:30:00 PM 9.12 48.416 0.111 7.44 8.77 11.58
3/29/2021 6:45:00 PM 9.09 48.362 0.112 7.41 8.64 11.54
3/29/2021 7:00:00 PM 9.06 48.308 0.111 7.39 9 11.48
3/29/2021 7:15:00 PM 9.05 48.29 0.111 7.35 8.81 11.45
3/29/2021 7:30:00 PM 9.03 48.254 0.111 7.33 8.85 11.41
3/29/2021 7:45:00 PM 9 48.2 0.111 7.29 9.65 11.37
3/29/2021 8:00:00 PM 8.95 48.11 0.111 7.27 9.13 11.35
3/29/2021 8:15:00 PM 8.89 48.002 0.111 7.25 9.17 11.34
3/29/2021 8:30:00 PM 8.82 47.876 0.111 7.23 9.47 11.35
3/29/2021 8:45:00 PM 8.73 47.714 0.111 7.22 9.63 11.36
3/29/2021 9:00:00 PM 8.64 47.552 0.111 7.2 9.08 11.36
3/29/2021 9:15:00 PM 8.53 47.354 0.111 7.19 8.97 11.38
3/29/2021 9:30:00 PM 8.42 47.156 0.111 7.18 9.05 11.39
3/29/2021 9:45:00 PM 8.3 46.94 0.111 7.17 9.06 11.42
3/29/2021 10:00:00 PM 8.17 46.706 0.112 7.15 9.14 11.45
3/29/2021 10:15:00 PM 8.05 46.49 0.112 7.16 8.88 11.48
3/29/2021 10:30:00 PM 7.92 46.256 0.112 7.14 8.85 11.51
3/29/2021 10:45:00 PM 7.79 46.022 0.112 7.15 9.03 11.54
3/29/2021 11:00:00 PM 7.66 45.788 0.112 7.13 8.93 11.59
3/29/2021 11:15:00 PM 7.54 45.572 0.112 7.13 8.54 11.61
3/29/2021 11:30:00 PM 7.42 45.356 0.112 7.13 8.71 11.65
3/29/2021 11:45:00 PM 7.3 45.14 0.112 7.13 8.69 11.68
3/30/2021 12:00:00 AM 7.19 44.942 0.112 7.12 8.97 11.72
3/30/2021 12:15:00 AM 7.08 44.744 0.112 7.13 8.76 11.74
3/30/2021 12:30:00 AM 6.98 44.564 0.112 7.12 9.17 11.77
3/30/2021 12:45:00 AM 6.89 44.402 0.113 7.13 9.08 11.8
3/30/2021 1:00:00 AM 6.79 44.222 0.112 7.13 9.14 11.83
3/30/2021 1:15:00 AM 6.71 44.078 0.113 7.13 9.1 11.85
3/30/2021 1:30:00 AM 6.62 43.916 0.113 7.13 8.83 11.87
3/30/2021 1:45:00 AM 6.55 43.79 0.113 7.14 9.03 11.89
3/30/2021 2:00:00 AM 6.47 43.646 0.113 7.13 9.09 11.91
3/30/2021 2:15:00 AM 6.4 43.52 0.113 7.12 9 11.94
3/30/2021 2:30:00 AM 6.33 43.394 0.113 7.13 9.04 11.97
3/30/2021 2:45:00 AM 6.25 43.25 0.113 7.14 9.52 11.97
3/30/2021 3:00:00 AM 6.18 43.124 0.113 7.13 9.26 12.01
3/30/2021 3:15:00 AM 6.11 42.998 0.113 7.13 9.04 12.03
3/30/2021 3:30:00 AM 6.04 42.872 0.113 7.12 8.97 12.05
3/30/2021 3:45:00 AM 5.97 42.746 0.113 7.13 9.26 12.07
3/30/2021 4:00:00 AM 5.89 42.602 0.113 7.13 9.04 12.1
3/30/2021 4:15:00 AM 5.83 42.494 0.113 7.14 8.93 12.11
3/30/2021 4:30:00 AM 5.76 42.368 0.113 7.13 9.42 12.14
3/30/2021 4:45:00 AM 5.69 42.242 0.113 7.13 9.07 12.16
3/30/2021 5:00:00 AM 5.62 42.116 0.113 7.13 9.07 12.18
3/30/2021 5:15:00 AM 5.55 41.99 0.113 7.13 9.45 12.21
3/30/2021 5:30:00 AM 5.48 41.864 0.113 7.13 9.27 12.23
3/30/2021 5:45:00 AM 5.42 41.756 0.113 7.13 8.95 12.26
3/30/2021 6:00:00 AM 5.35 41.63 0.114 7.14 9.42 12.28
3/30/2021 6:15:00 AM 5.29 41.522 0.114 7.14 9.33 12.3
3/30/2021 6:30:00 AM 5.23 41.414 0.114 7.14 9.58 12.32
3/30/2021 6:45:00 AM 5.18 41.324 0.114 7.14 8.82 12.34
3/30/2021 7:00:00 AM 5.12 41.216 0.114 7.15 8.96 12.37
3/30/2021 7:15:00 AM 5.08 41.144 0.114 7.15 9.14 12.42
3/30/2021 7:30:00 AM 5.03 41.054 0.114 7.17 8.9 12.47
3/30/2021 7:45:00 AM 5 41 0.115 7.19 9.29 12.53
3/30/2021 8:00:00 AM 4.98 40.964 0.114 7.2 8.95 12.6
3/30/2021 8:15:00 AM 4.97 40.946 0.114 7.23 9.21 12.66
3/30/2021 8:30:00 AM 4.98 40.964 0.115 7.25 9.28 12.73
3/30/2021 8:45:00 AM 5.01 41.018 0.115 7.27 9.31 12.77
3/30/2021 9:00:00 AM 5.05 41.09 0.114 7.3 9.36 12.81
3/30/2021 9:15:00 AM 5.13 41.234 0.115 7.33 9.36 12.85
3/30/2021 9:30:00 AM 5.23 41.414 0.115 7.36 9.45 12.87
3/30/2021 9:45:00 AM 5.35 41.63 0.115 7.39 9.67 12.89
3/30/2021 10:00:00 AM 5.47 41.846 0.114 7.41 9.43 12.9
3/30/2021 10:15:00 AM 5.62 42.116 0.114 7.44 9.44 12.9
3/30/2021 10:30:00 AM 5.77 42.386 0.114 7.46 9.63 12.89
3/30/2021 10:45:00 AM 5.95 42.71 0.114 7.49 9.65 12.87
3/30/2021 11:00:00 AM 6.12 43.016 0.114 7.5 11 12.87
3/30/2021 11:15:00 AM 6.34 43.412 0.114 7.53 9.79 12.83
3/30/2021 11:30:00 AM 6.56 43.808 0.114 7.55 10.22 12.8
3/30/2021 11:45:00 AM 6.8 44.24 0.114 7.57 10.29 12.75
3/30/2021 12:00:00 PM 7.05 44.69 0.113 7.59 10.68 12.71
3/30/2021 12:15:00 PM 7.3 45.14 0.113 7.61 11.37 12.65
3/30/2021 12:30:00 PM 7.55 45.59 0.113 7.63 11.39 12.6
3/30/2021 12:45:00 PM 7.79 46.022 0.113 7.64 11.64 12.55
3/30/2021 1:00:00 PM 8.04 46.472 0.113 7.66 11.02 12.49
3/30/2021 1:15:00 PM 8.27 46.886 0.113 7.67 10.91 12.42
3/30/2021 1:30:00 PM 8.51 47.318 0.113 7.69 11.18 12.36
3/30/2021 1:45:00 PM 8.73 47.714 0.113 7.71 11.61 12.31
3/30/2021 2:00:00 PM 8.94 48.092 0.113 7.72 11.7 12.24
3/30/2021 2:15:00 PM 9.14 48.452 0.112 7.73 10.69 12.19
3/30/2021 2:30:00 PM 9.33 48.794 0.112 7.75 10.7 12.14
3/30/2021 2:45:00 PM 9.49 49.082 0.112 7.75 11.61 12.09
3/30/2021 3:00:00 PM 9.65 49.37 0.112 7.76 11.67 12.04
3/30/2021 3:15:00 PM 9.77 49.586 0.112 7.76 11.13 11.98
3/30/2021 3:30:00 PM 9.88 49.784 0.112 7.76 11.11 11.93
3/30/2021 3:45:00 PM 9.97 49.946 0.112 7.75 11.6 11.88
3/30/2021 4:00:00 PM 10.04 50.072 0.112 7.75 11.29 11.84
3/30/2021 4:15:00 PM 10.1 50.18 0.112 7.74 11.29 11.81
3/30/2021 4:30:00 PM 10.13 50.234 0.112 7.73 11.05 11.77
3/30/2021 4:45:00 PM 10.16 50.288 0.112 7.72 11.15 11.73
3/30/2021 5:00:00 PM 10.18 50.324 0.112 7.7 11.57 11.69
3/30/2021 5:15:00 PM 10.19 50.342 0.111 7.67 10.24 11.64
3/30/2021 5:30:00 PM 10.18 50.324 0.111 7.63 10.46 11.56
3/30/2021 5:45:00 PM 10.17 50.306 0.111 7.59 9.89 11.55
3/30/2021 6:00:00 PM 10.2 50.36 0.111 7.6 9.91 11.52
3/30/2021 6:15:00 PM 10.21 50.378 0.112 7.55 9.98 11.43
3/30/2021 6:30:00 PM 10.21 50.378 0.112 7.51 9.7 11.38
3/30/2021 6:45:00 PM 10.23 50.414 0.112 7.48 10.39 11.3
3/30/2021 7:00:00 PM 10.23 50.414 0.112 7.43 9.76 11.22
3/30/2021 7:15:00 PM 10.24 50.432 0.112 7.38 9.74 11.13
3/30/2021 7:30:00 PM 10.25 50.45 0.112 7.34 9.43 11.06
3/30/2021 7:45:00 PM 10.25 50.45 0.112 7.35 9.13 10.99
3/30/2021 8:00:00 PM 10.25 50.45 0.112 7.28 9.28 10.94
3/30/2021 8:15:00 PM 10.24 50.432 0.112 7.25 9.25 10.92
3/30/2021 8:30:00 PM 10.22 50.396 0.112 7.24 9.04 10.9
3/30/2021 8:45:00 PM 10.19 50.342 0.113 7.22 8.79 10.88
3/30/2021 9:00:00 PM 10.15 50.27 0.113 7.2 9.57 10.88
3/30/2021 9:15:00 PM 10.11 50.198 0.113 7.19 9.45 10.88
3/30/2021 9:30:00 PM 10.06 50.108 0.113 7.18 9.34 10.88
3/30/2021 9:45:00 PM 10 50 0.113 7.17 9.28 10.88
3/30/2021 10:00:00 PM 9.94 49.892 0.113 7.17 22.35 10.89
3/30/2021 10:15:00 PM 9.88 49.784 0.113 7.15 9.67 10.91
3/30/2021 10:30:00 PM 9.82 49.676 0.114 7.14 9.51 10.91
3/30/2021 10:45:00 PM 9.75 49.55 0.114 7.14 9.5 10.93
3/30/2021 11:00:00 PM 9.68 49.424 0.113 7.14 9.02 10.95
3/30/2021 11:15:00 PM 9.61 49.298 0.114 7.14 8.88 10.96
3/30/2021 11:30:00 PM 9.54 49.172 0.114 7.13 8.97 10.97
3/30/2021 11:45:00 PM 9.47 49.046 0.114 7.14 8.85 10.99
3/31/2021 12:00:00 AM 9.4 48.92 0.114 7.14 8.66 11.01
3/31/2021 12:15:00 AM 9.33 48.794 0.114 7.13 8.77 11.03
3/31/2021 12:30:00 AM 9.27 48.686 0.114 7.11 8.79 11.04
3/31/2021 12:45:00 AM 9.2 48.56 0.114 7.12 8.53 11.06
3/31/2021 1:00:00 AM 9.13 48.434 0.114 7.11 9.34 11.07
3/31/2021 1:15:00 AM 9.06 48.308 0.114 7.11 8.84 11.09
3/31/2021 1:30:00 AM 8.99 48.182 0.114 7.11 8.85 11.11
3/31/2021 1:45:00 AM 8.92 48.056 0.114 7.11 8.67 11.12
3/31/2021 2:00:00 AM 8.86 47.948 0.115 7.11 9 11.15
3/31/2021 2:15:00 AM 8.8 47.84 0.115 7.1 8.44 11.16
3/31/2021 2:30:00 AM 8.74 47.732 0.115 7.11 8.63 11.16
3/31/2021 2:45:00 AM 8.68 47.624 0.115 7.11 8.28 11.18
3/31/2021 3:00:00 AM 8.62 47.516 0.115 7.1 8.41 11.19
3/31/2021 3:15:00 AM 8.57 47.426 0.115 7.11 8.64 11.21
3/31/2021 3:30:00 AM 8.51 47.318 0.115 7.11 8.68 11.23
3/31/2021 3:45:00 AM 8.46 47.228 0.115 7.11 9.01 11.24
3/31/2021 4:00:00 AM 8.41 47.138 0.115 7.11 8.75 11.25
3/31/2021 4:15:00 AM 8.36 47.048 0.115 7.11 8.67 11.27
3/31/2021 4:30:00 AM 8.31 46.958 0.115 7.11 8.39 11.27
3/31/2021 4:45:00 AM 8.26 46.868 0.115 7.11 8.25 11.28
3/31/2021 5:00:00 AM 8.22 46.796 0.115 7.11 8.5 11.31
3/31/2021 5:15:00 AM 8.17 46.706 0.115 7.12 7.97 11.31
3/31/2021 5:30:00 AM 8.13 46.634 0.115 7.15 8.38 11.33
3/31/2021 5:45:00 AM 8.09 46.562 0.115 7.15 8.3 11.33
3/31/2021 6:00:00 AM 8.06 46.508 0.115 7.14 8.42 11.34
3/31/2021 6:15:00 AM 8.02 46.436 0.115 7.14 8.54 11.36
3/31/2021 6:30:00 AM 7.99 46.382 0.115 7.15 9.11 11.37
3/31/2021 6:45:00 AM 7.97 46.346 0.115 7.15 8.84 11.37
3/31/2021 7:00:00 AM 7.95 46.31 0.115 7.15 8.48 11.39
3/31/2021 7:15:00 AM 7.94 46.292 0.115 7.16 8.44 11.42
3/31/2021 7:30:00 AM 7.92 46.256 0.115 7.17 8.45 11.46
3/31/2021 7:45:00 AM 7.92 46.256 0.115 7.19 8.44 11.51
3/31/2021 8:00:00 AM 7.92 46.256 0.115 7.21 8.21 11.57
3/31/2021 8:15:00 AM 7.93 46.274 0.115 7.24 8.32 11.63
3/31/2021 8:30:00 AM 7.95 46.31 0.115 7.26 8.19 11.71
3/31/2021 8:45:00 AM 7.98 46.364 0.115 7.3 8.28 11.81
3/31/2021 9:00:00 AM 8.01 46.418 0.114 7.33 8.25 11.87
3/31/2021 9:15:00 AM 8.05 46.49 0.114 7.37 8.41 11.93
3/31/2021 9:30:00 AM 8.1 46.58 0.114 7.41 8.73 12
3/31/2021 9:45:00 AM 8.16 46.688 0.114 7.45 8.53 12.01
3/31/2021 10:00:00 AM 8.22 46.796 0.114 7.49 8.2 12.06
3/31/2021 10:15:00 AM 8.31 46.958 0.114 7.53 8.86 12.1
3/31/2021 10:30:00 AM 8.41 47.138 0.114 7.57 8.6 12.13
3/31/2021 10:45:00 AM 8.49 47.282 0.114 7.61 8.86 12.13
3/31/2021 11:00:00 AM 8.57 47.426 0.113 7.64 8.93 12.12
3/31/2021 11:15:00 AM 8.63 47.534 0.113 7.65 8.88 12.1
3/31/2021 11:30:00 AM 8.68 47.624 0.113 7.66 9.61 12.06
3/31/2021 11:45:00 AM 8.72 47.696 0.113 7.67 9.6 12.05
3/31/2021 12:00:00 PM 8.77 47.786 0.113 7.68 9.42 12.01
3/31/2021 12:15:00 PM 8.82 47.876 0.113 7.68 9.73 11.99
3/31/2021 12:30:00 PM 8.87 47.966 0.113 7.67 8.89 11.96
3/31/2021 12:45:00 PM 8.9 48.02 0.113 7.65 8.76 11.89
3/31/2021 1:00:00 PM 8.95 48.11 0.113 7.64 9.11 11.88
3/31/2021 1:15:00 PM 9.01 48.218 0.113 7.66 9.99 11.91
3/31/2021 1:30:00 PM 9.06 48.308 0.113 7.68 10.19 11.89
3/31/2021 1:45:00 PM 9.11 48.398 0.113 7.7 9.55 11.88
3/31/2021 2:00:00 PM 9.17 48.506 0.113 7.72 10.39 11.89
3/31/2021 2:15:00 PM 9.21 48.578 0.113 7.7 10.66 11.81
3/31/2021 2:30:00 PM 9.23 48.614 0.113 7.66 9.91 11.74
3/31/2021 2:45:00 PM 9.23 48.614 0.113 7.62 10.22 11.66
3/31/2021 3:00:00 PM 9.23 48.614 0.113 7.56 9.73 11.6
3/31/2021 3:15:00 PM 9.24 48.632 0.113 7.54 9.71 11.59
3/31/2021 3:30:00 PM 9.27 48.686 0.113 7.53 9.41 11.58
3/31/2021 3:45:00 PM 9.31 48.758 0.113 7.54 8.84 11.62
3/31/2021 4:00:00 PM 9.34 48.812 0.113 7.56 8.58 11.6
3/31/2021 4:15:00 PM 9.38 48.884 0.112 7.55 8.38 11.58
3/31/2021 4:30:00 PM 9.4 48.92 0.112 7.53 9.33 11.51
3/31/2021 4:45:00 PM 9.42 48.956 0.113 7.5 8.92 11.45
3/31/2021 5:00:00 PM 9.43 48.974 0.113 7.46 8.82 11.39
3/31/2021 5:15:00 PM 9.44 48.992 0.112 7.43 8.24 11.34
3/31/2021 5:30:00 PM 9.45 49.01 0.112 7.4 8.03 11.3
3/31/2021 5:45:00 PM 9.46 49.028 0.112 7.38 8.5 11.26
3/31/2021 6:00:00 PM 9.47 49.046 0.112 7.36 8.95 11.22
3/31/2021 6:15:00 PM 9.48 49.064 0.112 7.34 8.3 11.18
3/31/2021 6:30:00 PM 9.48 49.064 0.112 7.31 8.53 11.15
3/31/2021 6:45:00 PM 9.49 49.082 0.112 7.29 8.29 11.11
3/31/2021 7:00:00 PM 9.49 49.082 0.112 7.28 8.51 11.09
3/31/2021 7:15:00 PM 9.5 49.1 0.112 7.26 8.33 11.05
3/31/2021 7:30:00 PM 9.51 49.118 0.112 7.24 8.09 11.02
3/31/2021 7:45:00 PM 9.51 49.118 0.113 7.23 8.34 11
3/31/2021 8:00:00 PM 9.51 49.118 0.113 7.21 7.88 10.97
3/31/2021 8:15:00 PM 9.52 49.136 0.113 7.2 8.16 10.95
3/31/2021 8:30:00 PM 9.5 49.1 0.113 7.2 8.29 10.95
3/31/2021 8:45:00 PM 9.48 49.064 0.113 7.2 8.4 10.95
3/31/2021 9:00:00 PM 9.45 49.01 0.113 7.2 8.62 10.96
3/31/2021 9:15:00 PM 9.42 48.956 0.113 7.2 8.23 10.96
3/31/2021 9:30:00 PM 9.39 48.902 0.113 7.2 8 10.96
3/31/2021 9:45:00 PM 9.35 48.83 0.113 7.19 8.34 10.96
3/31/2021 10:00:00 PM 9.32 48.776 0.113 7.19 8.93 10.97
3/31/2021 10:15:00 PM 9.28 48.704 0.113 7.19 8.07 10.98
3/31/2021 10:30:00 PM 9.25 48.65 0.113 7.19 8.3 10.98
3/31/2021 10:45:00 PM 9.21 48.578 0.113 7.19 7.95 10.99
3/31/2021 11:00:00 PM 9.17 48.506 0.113 7.18 8.08 11
3/31/2021 11:15:00 PM 9.13 48.434 0.113 7.19 8.04 11.01
3/31/2021 11:30:00 PM 9.09 48.362 0.114 7.18 7.84 11.02
3/31/2021 11:45:00 PM 9.05 48.29 0.114 7.18 7.65 11.03
4/1/2021 12:00:00 AM 9.01 48.218 0.114 7.18 8.72 11.04
4/1/2021 12:15:00 AM 8.97 48.146 0.114 7.18 8.19 11.04
4/1/2021 12:30:00 AM 8.92 48.056 0.114 7.18 8.1 11.06
4/1/2021 12:45:00 AM 8.88 47.984 0.114 7.18 7.93 11.07
4/1/2021 1:00:00 AM 8.83 47.894 0.114 7.18 8.07 11.08
4/1/2021 1:15:00 AM 8.79 47.822 0.114 7.18 8.16 11.09
4/1/2021 1:30:00 AM 8.74 47.732 0.114 7.17 8.09 11.09
4/1/2021 1:45:00 AM 8.69 47.642 0.114 7.18 8.17 11.12
4/1/2021 2:00:00 AM 8.64 47.552 0.114 7.18 8.2 11.12
4/1/2021 2:15:00 AM 8.6 47.48 0.114 7.17 8.2 11.13
4/1/2021 2:30:00 AM 8.55 47.39 0.114 7.18 8.94 11.14
4/1/2021 2:45:00 AM 8.49 47.282 0.114 7.17 8.9 11.15
4/1/2021 3:00:00 AM 8.44 47.192 0.114 7.18 8.67 11.19
4/1/2021 3:15:00 AM 8.38 47.084 0.114 7.18 8.65 11.18
4/1/2021 3:30:00 AM 8.31 46.958 0.114 7.17 8.85 11.21
4/1/2021 3:45:00 AM 8.24 46.832 0.115 7.17 8.64 11.23
4/1/2021 4:00:00 AM 8.17 46.706 0.114 7.17 8.26 11.24
4/1/2021 4:15:00 AM 8.08 46.544 0.114 7.16 8.72 11.27
4/1/2021 4:30:00 AM 8 46.4 0.114 7.16 8.68 11.29
4/1/2021 4:45:00 AM 7.9 46.22 0.114 7.16 8.28 11.31
4/1/2021 5:00:00 AM 7.74 45.932 0.114 7.16 8.2 11.33
4/1/2021 5:15:00 AM 7.6 45.68 0.114 7.15 8.27 11.37
4/1/2021 5:30:00 AM 7.5 45.5 0.114 7.16 8.19 11.42
4/1/2021 5:45:00 AM 7.43 45.374 0.114 7.17 8.15 11.44
4/1/2021 6:00:00 AM 7.34 45.212 0.114 7.16 8.15 11.46
4/1/2021 6:15:00 AM 7.22 44.996 0.114 7.17 8.15 11.48
4/1/2021 6:30:00 AM 7.1 44.78 0.114 7.17 8.03 11.51
4/1/2021 6:45:00 AM 6.98 44.564 0.114 7.17 8.44 11.55
4/1/2021 7:00:00 AM 6.85 44.33 0.114 7.16 8.27 11.59
4/1/2021 7:15:00 AM 6.81 44.258 0.114 7.18 7.95 11.63
4/1/2021 7:30:00 AM 6.76 44.168 0.114 7.19 8.11 11.67
4/1/2021 7:45:00 AM 6.74 44.132 0.114 7.21 8.29 11.73
4/1/2021 8:00:00 AM 6.73 44.114 0.114 7.23 8.09 11.8
4/1/2021 8:15:00 AM 6.71 44.078 0.114 7.25 8.37 11.88
4/1/2021 8:30:00 AM 6.7 44.06 0.114 7.28 8.54 11.96
4/1/2021 8:45:00 AM 6.7 44.06 0.114 7.31 8.87 12.06
4/1/2021 9:00:00 AM 6.69 44.042 0.114 7.34 8.41 12.12
4/1/2021 9:15:00 AM 6.69 44.042 0.114 7.37 8.09 12.19
4/1/2021 9:30:00 AM 6.69 44.042 0.114 7.39 7.7 12.24
4/1/2021 9:45:00 AM 6.72 44.096 0.113 7.44 7.92 12.33
4/1/2021 10:00:00 AM 6.76 44.168 0.113 7.48 8.49 12.38
4/1/2021 10:15:00 AM 6.84 44.312 0.113 7.52 8.21 12.44
4/1/2021 10:30:00 AM 6.96 44.528 0.113 7.58 8.35 12.46
4/1/2021 10:45:00 AM 7.11 44.798 0.113 7.62 9.35 12.45
4/1/2021 11:00:00 AM 7.23 45.014 0.113 7.64 9.85 12.46
4/1/2021 11:15:00 AM 7.35 45.23 0.113 7.66 9.75 12.46
4/1/2021 11:30:00 AM 7.4 45.32 0.113 7.66 11.4 12.44
4/1/2021 11:45:00 AM 7.57 45.626 0.113 7.69 10.42 12.45
4/1/2021 12:00:00 PM 7.62 45.716 0.113 7.7 10.42 12.41
4/1/2021 12:15:00 PM 7.69 45.842 0.113 7.71 10.46 12.37
4/1/2021 12:30:00 PM 7.78 46.004 0.113 7.73 9.46 12.37
4/1/2021 12:45:00 PM 7.87 46.166 0.113 7.75 9.32 12.35
4/1/2021 1:00:00 PM 7.94 46.292 0.112 7.77 9.97 12.35
4/1/2021 1:15:00 PM 8.09 46.562 0.112 7.8 9.79 12.34
4/1/2021 1:30:00 PM 8.3 46.94 0.112 7.82 10.94 12.3
4/1/2021 1:45:00 PM 8.55 47.39 0.112 7.86 10.43 12.25
4/1/2021 2:00:00 PM 8.63 47.534 0.112 7.86 11.2 12.18
4/1/2021 2:15:00 PM 8.6 47.48 0.112 7.85 12.04 12.14
4/1/2021 2:30:00 PM 8.49 47.282 0.112 7.81 11.5 12.12
4/1/2021 2:45:00 PM 8.35 47.03 0.112 7.8 11.14 12.15
4/1/2021 3:00:00 PM 8.24 46.832 0.112 7.79 10.25 12.19
4/1/2021 3:15:00 PM 8.16 46.688 0.112 7.78 10.08 12.17
4/1/2021 3:30:00 PM 8.16 46.688 0.112 7.81 9.45 12.21
4/1/2021 3:45:00 PM 8.16 46.688 0.112 7.82 9.49 12.2
4/1/2021 4:00:00 PM 8.19 46.742 0.112 7.86 10.14 12.21
4/1/2021 4:15:00 PM 8.25 46.85 0.112 7.88 9.9 12.2
4/1/2021 4:30:00 PM 8.28 46.904 0.112 7.88 9.74 12.16
4/1/2021 4:45:00 PM 8.3 46.94 0.112 7.9 9.41 12.17
4/1/2021 5:00:00 PM 8.27 46.886 0.112 7.9 9.57 12.15
4/1/2021 5:15:00 PM 8.27 46.886 0.112 7.9 9.3 12.14
4/1/2021 5:30:00 PM 8.2 46.76 0.112 7.85 9 12.07
4/1/2021 5:45:00 PM 8.11 46.598 0.112 7.77 9.06 12.05
4/1/2021 6:00:00 PM 8.06 46.508 0.112 7.73 9.07 12.03
4/1/2021 6:15:00 PM 8.01 46.418 0.113 7.69 9.03 11.99
4/1/2021 6:30:00 PM 7.96 46.328 0.113 7.65 8.66 11.96
4/1/2021 6:45:00 PM 7.95 46.31 0.112 7.62 8.89 11.92
4/1/2021 7:00:00 PM 7.92 46.256 0.113 7.57 8.93 11.84
4/1/2021 7:15:00 PM 7.88 46.184 0.113 7.51 9.26 11.75
4/1/2021 7:30:00 PM 7.84 46.112 0.113 7.46 8.96 11.7
4/1/2021 7:45:00 PM 7.79 46.022 0.113 7.42 8.67 11.66
4/1/2021 8:00:00 PM 7.74 45.932 0.113 7.39 8.56 11.63
4/1/2021 8:15:00 PM 7.66 45.788 0.113 7.36 8.83 11.61
4/1/2021 8:30:00 PM 7.59 45.662 0.113 7.33 9.88 11.62
4/1/2021 8:45:00 PM 7.51 45.518 0.113 7.32 8.5 11.63
4/1/2021 9:00:00 PM 7.43 45.374 0.113 7.3 8.06 11.64
4/1/2021 9:15:00 PM 7.32 45.176 0.114 7.28 8.8 11.66
4/1/2021 9:30:00 PM 7.2 44.96 0.113 7.28 8.25 11.67
4/1/2021 9:45:00 PM 7.12 44.816 0.113 7.27 9.78 11.69
4/1/2021 10:00:00 PM 7.01 44.618 0.113 7.26 8.15 11.7
4/1/2021 10:15:00 PM 6.87 44.366 0.114 7.26 7.57 11.73
4/1/2021 10:30:00 PM 6.78 44.204 0.113 7.25 7.51 11.76
4/1/2021 10:45:00 PM 6.7 44.06 0.114 7.24 7.61 11.78
4/1/2021 11:00:00 PM 6.63 43.934 0.114 7.24 7.76 11.8
4/1/2021 11:15:00 PM 6.55 43.79 0.114 7.24 7.78 11.82
4/1/2021 11:30:00 PM 6.46 43.628 0.114 7.23 7.74 11.84
4/1/2021 11:45:00 PM 6.37 43.466 0.114 7.24 8.7 11.87
4/2/2021 12:00:00 AM 6.28 43.304 0.114 7.23 8.68 11.91
4/2/2021 12:15:00 AM 6.19 43.142 0.115 7.23 8.1 11.92
4/2/2021 12:30:00 AM 6.09 42.962 0.115 7.22 8.17 11.96
4/2/2021 12:45:00 AM 6.01 42.818 0.115 7.22 8.06 11.98
4/2/2021 1:00:00 AM 5.92 42.656 0.115 7.22 7.72 12
4/2/2021 1:15:00 AM 5.83 42.494 0.116 7.23 7.7 12.03
4/2/2021 1:30:00 AM 5.73 42.314 0.116 7.22 8.2 12.06
4/2/2021 1:45:00 AM 5.61 42.098 0.116 7.22 7.95 12.1
4/2/2021 2:00:00 AM 5.51 41.918 0.116 7.22 7.93 12.13
4/2/2021 2:15:00 AM 5.41 41.738 0.116 7.22 7.79 12.17
4/2/2021 2:30:00 AM 5.3 41.54 0.116 7.23 7.67 12.21
4/2/2021 2:45:00 AM 5.21 41.378 0.116 7.22 8.2 12.23
4/2/2021 3:00:00 AM 5.12 41.216 0.116 7.22 8.23 12.26
4/2/2021 3:15:00 AM 5.02 41.036 0.116 7.22 8.23 12.3
4/2/2021 3:30:00 AM 4.92 40.856 0.116 7.22 8.82 12.34
4/2/2021 3:45:00 AM 4.83 40.694 0.116 7.21 8.98 12.37
4/2/2021 4:00:00 AM 4.77 40.586 0.116 7.21 8.65 12.39
4/2/2021 4:15:00 AM 4.71 40.478 0.116 7.22 8.6 12.42
4/2/2021 4:30:00 AM 4.65 40.37 0.116 7.21 8.55 12.44
4/2/2021 4:45:00 AM 4.58 40.244 0.116 7.22 8.35 12.46
4/2/2021 5:00:00 AM 4.51 40.118 0.116 7.21 7.97 12.48
4/2/2021 5:15:00 AM 4.44 39.992 0.116 7.23 8.14 12.51
4/2/2021 5:30:00 AM 4.38 39.884 0.116 7.23 8.01 12.53
4/2/2021 5:45:00 AM 4.33 39.794 0.116 7.22 8.31 12.55
4/2/2021 6:00:00 AM 4.28 39.704 0.116 7.22 8.7 12.58
4/2/2021 6:15:00 AM 4.23 39.614 0.116 7.22 8.24 12.59
4/2/2021 6:30:00 AM 4.18 39.524 0.116 7.22 8.94 12.61
4/2/2021 6:45:00 AM 4.13 39.434 0.116 7.23 8.32 12.63
4/2/2021 7:00:00 AM 4.08 39.344 0.116 7.23 8.46 12.67
4/2/2021 7:15:00 AM 4.04 39.272 0.116 7.24 8.42 12.73
4/2/2021 7:30:00 AM 4.01 39.218 0.115 7.26 8.38 12.82
4/2/2021 7:45:00 AM 3.99 39.182 0.116 7.29 8.84 12.9
4/2/2021 8:00:00 AM 3.97 39.146 0.115 7.32 8.75 12.96
4/2/2021 8:15:00 AM 3.97 39.146 0.115 7.33 8.23 13.03
4/2/2021 8:30:00 AM 3.96 39.128 0.115 7.36 9.05 13.08
4/2/2021 8:45:00 AM 3.93 39.074 0.115 7.37 9.79 13.12
4/2/2021 9:00:00 AM 3.9 39.02 0.115 7.38 9.06 13.17
4/2/2021 9:15:00 AM 3.87 38.966 0.115 7.41 9.42 13.22
4/2/2021 9:30:00 AM 3.92 39.056 0.115 7.43 9.02 13.28
4/2/2021 9:45:00 AM 4.02 39.236 0.115 7.46 9.23 13.31
4/2/2021 10:00:00 AM 4.13 39.434 0.115 7.49 8.71 13.33
4/2/2021 10:15:00 AM 4.23 39.614 0.115 7.5 8.87 13.33
4/2/2021 10:30:00 AM 4.32 39.776 0.115 7.52 8.47 13.34
4/2/2021 10:45:00 AM 4.42 39.956 0.115 7.54 8.53 13.34
4/2/2021 11:00:00 AM 4.5 40.1 0.115 7.55 8.16 13.35
4/2/2021 11:15:00 AM 4.57 40.226 0.115 7.56 8.51 13.34
4/2/2021 11:30:00 AM 4.75 40.55 0.115 7.58 8.45 13.33
4/2/2021 11:45:00 AM 4.91 40.838 0.115 7.6 8.23 13.3
4/2/2021 12:00:00 PM 5.09 41.162 0.115 7.61 8.73 13.25
4/2/2021 12:15:00 PM 5.28 41.504 0.115 7.63 8.84 13.22
4/2/2021 12:30:00 PM 5.45 41.81 0.115 7.64 8.95 13.16
4/2/2021 12:45:00 PM 5.63 42.134 0.115 7.65 9.32 13.12
4/2/2021 1:00:00 PM 5.82 42.476 0.115 7.67 9.51 13.08
4/2/2021 1:15:00 PM 6.03 42.854 0.115 7.68 9.94 13.02
4/2/2021 1:30:00 PM 6.22 43.196 0.114 7.69 9.77 12.96
4/2/2021 1:45:00 PM 6.38 43.484 0.114 7.69 11.6 12.91
4/2/2021 2:00:00 PM 6.55 43.79 0.114 7.69 9.8 12.86
4/2/2021 2:15:00 PM 6.73 44.114 0.114 7.71 9.71 12.8
4/2/2021 2:30:00 PM 6.88 44.384 0.114 7.72 10.31 12.76
4/2/2021 2:45:00 PM 7 44.6 0.114 7.72 10.05 12.72
4/2/2021 3:00:00 PM 7.06 44.708 0.114 7.72 9.64 12.68
4/2/2021 3:15:00 PM 7.13 44.834 0.114 7.72 9.62 12.65
4/2/2021 3:30:00 PM 7.15 44.87 0.114 7.71 9.71 12.63
4/2/2021 3:45:00 PM 7.16 44.888 0.113 7.71 9.31 12.6
4/2/2021 4:00:00 PM 7.15 44.87 0.113 7.7 9.46 12.58
4/2/2021 4:15:00 PM 7.11 44.798 0.113 7.69 9.41 12.58
4/2/2021 4:30:00 PM 7.06 44.708 0.113 7.68 9.3 12.56
4/2/2021 4:45:00 PM 7.01 44.618 0.113 7.66 9.64 12.55
4/2/2021 5:00:00 PM 6.95 44.51 0.113 7.65 9.25 12.53
4/2/2021 5:15:00 PM 6.9 44.42 0.113 7.64 9.29 12.51
4/2/2021 5:30:00 PM 6.86 44.348 0.113 7.61 10.12 12.48
4/2/2021 5:45:00 PM 6.79 44.222 0.113 7.6 8.92 12.45
4/2/2021 6:00:00 PM 6.74 44.132 0.113 7.57 9 12.42
4/2/2021 6:15:00 PM 6.68 44.024 0.113 7.55 8.93 12.38
4/2/2021 6:30:00 PM 6.63 43.934 0.113 7.51 8.69 12.34
4/2/2021 6:45:00 PM 6.56 43.808 0.114 7.48 8.88 12.3
4/2/2021 7:00:00 PM 6.51 43.718 0.114 7.45 9.06 12.25
4/2/2021 7:15:00 PM 6.47 43.646 0.114 7.42 9.1 12.19
4/2/2021 7:30:00 PM 6.44 43.592 0.114 7.4 9.9 12.15
4/2/2021 7:45:00 PM 6.41 43.538 0.114 7.36 13.72 12.1
4/2/2021 8:00:00 PM 6.38 43.484 0.114 7.34 8.39 12.07
4/2/2021 8:15:00 PM 6.35 43.43 0.114 7.32 8.11 12.05
4/2/2021 8:30:00 PM 6.32 43.376 0.114 7.3 8.41 12.03
4/2/2021 8:45:00 PM 6.27 43.286 0.114 7.29 8.39 12.03
4/2/2021 9:00:00 PM 6.21 43.178 0.115 7.28 7.71 12.03
4/2/2021 9:15:00 PM 6.14 43.052 0.115 7.27 7.42 12.05
4/2/2021 9:30:00 PM 6.05 42.89 0.115 7.25 7.06 12.07
4/2/2021 9:45:00 PM 5.96 42.728 0.115 7.24 7 12.09
4/2/2021 10:00:00 PM 5.86 42.548 0.116 7.23 7.01 12.11
4/2/2021 10:15:00 PM 5.76 42.368 0.116 7.22 7.02 12.14
4/2/2021 10:30:00 PM 5.64 42.152 0.116 7.21 7.36 12.17
4/2/2021 10:45:00 PM 5.53 41.954 0.116 7.22 7.54 12.2
4/2/2021 11:00:00 PM 5.42 41.756 0.116 7.2 7.11 12.23
4/2/2021 11:15:00 PM 5.31 41.558 0.116 7.19 7.18 12.26
4/2/2021 11:30:00 PM 5.19 41.342 0.116 7.19 7.06 12.3
4/2/2021 11:45:00 PM 5.07 41.126 0.116 7.19 7.5 12.34
4/3/2021 12:00:00 AM 4.96 40.928 0.116 7.19 7.22 12.38
4/3/2021 12:15:00 AM 4.85 40.73 0.116 7.19 7.29 12.41
4/3/2021 12:30:00 AM 4.73 40.514 0.117 7.19 7.09 12.45
4/3/2021 12:45:00 AM 4.62 40.316 0.117 7.19 7.36 12.48
4/3/2021 1:00:00 AM 4.51 40.118 0.117 7.19 6.96 12.52
4/3/2021 1:15:00 AM 4.4 39.92 0.117 7.19 7.22 12.55
4/3/2021 1:30:00 AM 4.29 39.722 0.117 7.19 7.29 12.59
4/3/2021 1:45:00 AM 4.18 39.524 0.117 7.19 7.25 12.63
4/3/2021 2:00:00 AM 4.08 39.344 0.117 7.19 7.31 12.65
4/3/2021 2:15:00 AM 3.98 39.164 0.117 7.18 7.19 12.7
4/3/2021 2:30:00 AM 3.88 38.984 0.118 7.18 7.04 12.73
4/3/2021 2:45:00 AM 3.78 38.804 0.118 7.18 7.1 12.77
4/3/2021 3:00:00 AM 3.69 38.642 0.118 7.19 7.08 12.8
4/3/2021 3:15:00 AM 3.6 38.48 0.118 7.18 7 12.83
4/3/2021 3:30:00 AM 3.51 38.318 0.118 7.19 7.01 12.86
4/3/2021 3:45:00 AM 3.42 38.156 0.118 7.18 7.27 12.89
4/3/2021 4:00:00 AM 3.34 38.012 0.118 7.19 7.43 12.93
4/3/2021 4:15:00 AM 3.26 37.868 0.118 7.19 7.56 12.96
4/3/2021 4:30:00 AM 3.18 37.724 0.118 7.19 7.53 12.99
4/3/2021 4:45:00 AM 3.1 37.58 0.118 7.19 7.2 13.01
4/3/2021 5:00:00 AM 3.03 37.454 0.118 7.19 7.23 13.05
4/3/2021 5:15:00 AM 2.95 37.31 0.118 7.19 7.48 13.08
4/3/2021 5:30:00 AM 2.88 37.184 0.118 7.19 7.36 13.1
4/3/2021 5:45:00 AM 2.81 37.058 0.118 7.19 7.38 13.13
4/3/2021 6:00:00 AM 2.74 36.932 0.118 7.19 7.27 13.17
4/3/2021 6:15:00 AM 2.67 36.806 0.118 7.19 7.31 13.19
4/3/2021 6:30:00 AM 2.6 36.68 0.119 7.19 7.06 13.22
4/3/2021 6:45:00 AM 2.53 36.554 0.118 7.19 7.22 13.26
4/3/2021 7:00:00 AM 2.46 36.428 0.118 7.2 7.08 13.31
4/3/2021 7:15:00 AM 2.41 36.338 0.118 7.2 6.96 13.38
4/3/2021 7:30:00 AM 2.35 36.23 0.118 7.22 7.23 13.46
4/3/2021 7:45:00 AM 2.32 36.176 0.118 7.24 7.34 13.55
4/3/2021 8:00:00 AM 2.29 36.122 0.118 7.25 7.94 13.63
4/3/2021 8:15:00 AM 2.29 36.122 0.118 7.29 7.72 13.7
4/3/2021 8:30:00 AM 2.29 36.122 0.118 7.31 7.65 13.76
4/3/2021 8:45:00 AM 2.32 36.176 0.118 7.34 7.83 13.81
4/3/2021 9:00:00 AM 2.36 36.248 0.118 7.37 7.8 13.85
4/3/2021 9:15:00 AM 2.43 36.374 0.118 7.39 7.59 13.89
4/3/2021 9:30:00 AM 2.53 36.554 0.118 7.41 7.29 13.9
4/3/2021 9:45:00 AM 2.65 36.77 0.118 7.44 8.21 13.92
4/3/2021 10:00:00 AM 2.78 37.004 0.118 7.47 8.72 13.91
4/3/2021 10:15:00 AM 2.93 37.274 0.118 7.49 8.49 13.91
4/3/2021 10:30:00 AM 3.1 37.58 0.118 7.51 8.8 13.88
4/3/2021 10:45:00 AM 3.28 37.904 0.118 7.53 8.98 13.86
4/3/2021 11:00:00 AM 3.46 38.228 0.117 7.55 8.91 13.83
4/3/2021 11:15:00 AM 3.66 38.588 0.118 7.56 9.25 13.79
4/3/2021 11:30:00 AM 3.88 38.984 0.117 7.58 9.93 13.75
4/3/2021 11:45:00 AM 4.11 39.398 0.117 7.59 9.46 13.69
4/3/2021 12:00:00 PM 4.36 39.848 0.117 7.61 9.92 13.63
4/3/2021 12:15:00 PM 4.62 40.316 0.117 7.63 10.09 13.55
4/3/2021 12:30:00 PM 4.86 40.748 0.117 7.64 12.11 13.48
4/3/2021 12:45:00 PM 5.12 41.216 0.117 7.65 12.07 13.4
4/3/2021 1:00:00 PM 5.36 41.648 0.117 7.67 11.14 13.33
4/3/2021 1:15:00 PM 5.61 42.098 0.116 7.67 10.65 13.25
4/3/2021 1:30:00 PM 5.84 42.512 0.117 7.68 10.93 13.19
4/3/2021 1:45:00 PM 6.06 42.908 0.116 7.69 11.27 13.09
4/3/2021 2:00:00 PM 6.3 43.34 0.116 7.7 11.54 13.04
4/3/2021 2:15:00 PM 6.51 43.718 0.116 7.7 11.7 12.96
4/3/2021 2:30:00 PM 6.71 44.078 0.116 7.71 12.44 12.9
4/3/2021 2:45:00 PM 6.89 44.402 0.116 7.72 12.48 12.84
4/3/2021 3:00:00 PM 7.04 44.672 0.116 7.73 12.92 12.78
4/3/2021 3:15:00 PM 7.16 44.888 0.116 7.73 13.99 12.72
4/3/2021 3:30:00 PM 7.24 45.032 0.116 7.73 13.46 12.69
4/3/2021 3:45:00 PM 7.24 45.032 0.116 7.72 13.36 12.66
4/3/2021 4:00:00 PM 7.22 44.996 0.116 7.72 14.24 12.67
4/3/2021 4:15:00 PM 7.17 44.906 0.116 7.72 13.93 12.66
4/3/2021 4:30:00 PM 7.09 44.762 0.116 7.7 12.55 12.63
4/3/2021 4:45:00 PM 7.08 44.744 0.116 7.72 11.23 12.66
4/3/2021 5:00:00 PM 7.08 44.744 0.116 7.73 10.62 12.63
4/3/2021 5:15:00 PM 7.06 44.708 0.115 7.72 9.98 12.59
4/3/2021 5:30:00 PM 7.01 44.618 0.115 7.7 9.7 12.57
4/3/2021 5:45:00 PM 6.99 44.582 0.116 7.69 9.22 12.53
4/3/2021 6:00:00 PM 6.97 44.546 0.116 7.65 8.66 12.48
4/3/2021 6:15:00 PM 6.98 44.564 0.116 7.63 8.24 12.44
4/3/2021 6:30:00 PM 7.02 44.636 0.115 7.64 8.36 12.42
4/3/2021 6:45:00 PM 7.05 44.69 0.116 7.62 8.09 12.35
4/3/2021 7:00:00 PM 7.07 44.726 0.116 7.57 8.05 12.28
4/3/2021 7:15:00 PM 7.06 44.708 0.116 7.53 7.69 12.19
4/3/2021 7:30:00 PM 7.04 44.672 0.116 7.47 7.71 12.09
4/3/2021 7:45:00 PM 7.01 44.618 0.116 7.42 7.79 12
4/3/2021 8:00:00 PM 6.99 44.582 0.116 7.37 7.57 11.93
4/3/2021 8:15:00 PM 6.96 44.528 0.117 7.34 7.69 11.89
4/3/2021 8:30:00 PM 6.93 44.474 0.117 7.32 7.8 11.85
4/3/2021 8:45:00 PM 6.9 44.42 0.117 7.3 7.67 11.83
4/3/2021 9:00:00 PM 6.87 44.366 0.117 7.28 7.92 11.82
4/3/2021 9:15:00 PM 6.85 44.33 0.117 7.27 7.31 11.81
4/3/2021 9:30:00 PM 6.82 44.276 0.117 7.26 7.61 11.8
4/3/2021 9:45:00 PM 6.79 44.222 0.118 7.25 7.78 11.81
4/3/2021 10:00:00 PM 6.76 44.168 0.118 7.25 7.47 11.81
4/3/2021 10:15:00 PM 6.73 44.114 0.118 7.23 7.65 11.8
4/3/2021 10:30:00 PM 6.71 44.078 0.118 7.22 7.81 11.81
4/3/2021 10:45:00 PM 6.68 44.024 0.118 7.23 7.58 11.81
4/3/2021 11:00:00 PM 6.65 43.97 0.118 7.22 7.85 11.82
4/3/2021 11:15:00 PM 6.62 43.916 0.118 7.23 7.62 11.84
4/3/2021 11:30:00 PM 6.59 43.862 0.118 7.22 7.62 11.85
4/3/2021 11:45:00 PM 6.56 43.808 0.118 7.22 7.58 11.85
4/4/2021 12:00:00 AM 6.53 43.754 0.118 7.22 7.64 11.86
4/4/2021 12:15:00 AM 6.5 43.7 0.118 7.21 7.49 11.86
4/4/2021 12:30:00 AM 6.47 43.646 0.119 7.2 7.23 11.87
4/4/2021 12:45:00 AM 6.44 43.592 0.119 7.21 7.34 11.88
4/4/2021 1:00:00 AM 6.4 43.52 0.119 7.2 7.6 11.89
4/4/2021 1:15:00 AM 6.36 43.448 0.119 7.2 8.13 11.89
4/4/2021 1:30:00 AM 6.32 43.376 0.119 7.2 8.37 11.9
4/4/2021 1:45:00 AM 6.28 43.304 0.119 7.19 7.53 11.92
4/4/2021 2:00:00 AM 6.24 43.232 0.119 7.19 7.29 11.93
4/4/2021 2:15:00 AM 6.19 43.142 0.119 7.19 7.32 11.93
4/4/2021 2:30:00 AM 6.15 43.07 0.119 7.19 7.52 11.94
4/4/2021 2:45:00 AM 6.1 42.98 0.119 7.19 7.37 11.96
4/4/2021 3:00:00 AM 6.05 42.89 0.119 7.19 7.43 11.98
4/4/2021 3:15:00 AM 6.01 42.818 0.119 7.19 7.58 11.98
4/4/2021 3:30:00 AM 5.95 42.71 0.119 7.19 7.4 12
4/4/2021 3:45:00 AM 5.9 42.62 0.12 7.19 8.12 12.01
4/4/2021 4:00:00 AM 5.85 42.53 0.12 7.18 7.54 12.03
4/4/2021 4:15:00 AM 5.81 42.458 0.12 7.19 8.06 12.03
4/4/2021 4:30:00 AM 5.76 42.368 0.12 7.18 8.27 12.04
4/4/2021 4:45:00 AM 5.71 42.278 0.12 7.18 7.67 12.06
4/4/2021 5:00:00 AM 5.67 42.206 0.12 7.19 7.52 12.08
4/4/2021 5:15:00 AM 5.62 42.116 0.12 7.18 7.72 12.09
4/4/2021 5:30:00 AM 5.58 42.044 0.12 7.18 7.59 12.11
4/4/2021 5:45:00 AM 5.54 41.972 0.12 7.18 7.73 12.12
4/4/2021 6:00:00 AM 5.49 41.882 0.12 7.19 8.01 12.13
4/4/2021 6:15:00 AM 5.45 41.81 0.12 7.19 7.62 12.14
4/4/2021 6:30:00 AM 5.41 41.738 0.12 7.19 7.44 12.16
4/4/2021 6:45:00 AM 5.37 41.666 0.12 7.19 7.93 12.17
4/4/2021 7:00:00 AM 5.33 41.594 0.12 7.19 7.54 12.2
4/4/2021 7:15:00 AM 5.3 41.54 0.12 7.21 7.59 12.24
4/4/2021 7:30:00 AM 5.28 41.504 0.12 7.23 7.2 12.31
4/4/2021 7:45:00 AM 5.25 41.45 0.12 7.23 7.38 12.4
4/4/2021 8:00:00 AM 5.24 41.432 0.12 7.28 7.63 12.52
4/4/2021 8:15:00 AM 5.23 41.414 0.12 7.3 7.56 12.61
4/4/2021 8:30:00 AM 5.24 41.432 0.12 7.33 7.7 12.69
4/4/2021 8:45:00 AM 5.26 41.468 0.12 7.38 7.67 12.77
4/4/2021 9:00:00 AM 5.3 41.54 0.119 7.41 7.83 12.82
4/4/2021 9:15:00 AM 5.37 41.666 0.119 7.44 7.97 12.87
4/4/2021 9:30:00 AM 5.46 41.828 0.119 7.48 7.88 12.9
4/4/2021 9:45:00 AM 5.57 42.026 0.119 7.51 8.27 12.91
4/4/2021 10:00:00 AM 5.69 42.242 0.119 7.55 8.34 12.93
4/4/2021 10:15:00 AM 5.83 42.494 0.119 7.58 8.77 12.93
4/4/2021 10:30:00 AM 5.99 42.782 0.119 7.61 8.45 12.93
4/4/2021 10:45:00 AM 6.15 43.07 0.118 7.64 8.3 12.91
4/4/2021 11:00:00 AM 6.34 43.412 0.118 7.66 8.7 12.9
4/4/2021 11:15:00 AM 6.54 43.772 0.118 7.69 8.99 12.87
4/4/2021 11:30:00 AM 6.76 44.168 0.118 7.73 9.09 12.83
4/4/2021 11:45:00 AM 6.98 44.564 0.118 7.74 9.83 12.79
4/4/2021 12:00:00 PM 7.24 45.032 0.118 7.78 9.99 12.73
4/4/2021 12:15:00 PM 7.5 45.5 0.118 7.8 9.4 12.66
4/4/2021 12:30:00 PM 7.75 45.95 0.118 7.82 10.15 12.6
4/4/2021 12:45:00 PM 8.01 46.418 0.117 7.85 10.56 12.54
4/4/2021 1:00:00 PM 8.26 46.868 0.117 7.88 10.97 12.46
4/4/2021 1:15:00 PM 8.41 47.138 0.117 7.88 11.42 12.38
4/4/2021 1:30:00 PM 8.63 47.534 0.117 7.88 11.52 12.34
4/4/2021 1:45:00 PM 8.85 47.93 0.117 7.92 13.46 12.29
4/4/2021 2:00:00 PM 9.12 48.416 0.117 7.95 10.04 12.23
4/4/2021 2:15:00 PM 9.33 48.794 0.117 7.97 10.15 12.17
4/4/2021 2:30:00 PM 9.58 49.244 0.116 8.02 10.26 12.11
4/4/2021 2:45:00 PM 9.74 49.532 0.116 8.02 12.07 12.03
4/4/2021 3:00:00 PM 9.92 49.856 0.116 8.04 12.03 11.97
4/4/2021 3:15:00 PM 10.05 50.09 0.116 8.05 12.43 11.91
4/4/2021 3:30:00 PM 10.16 50.288 0.116 8.05 12.47 11.87
4/4/2021 3:45:00 PM 10.22 50.396 0.116 8.05 12.48 11.84
4/4/2021 4:00:00 PM 10.26 50.468 0.116 8.05 12.03 11.81
4/4/2021 4:15:00 PM 10.28 50.504 0.116 8.04 12.09 11.79
4/4/2021 4:30:00 PM 10.26 50.468 0.116 8.02 12.15 11.76
4/4/2021 4:45:00 PM 10.21 50.378 0.116 8 11.95 11.74
4/4/2021 5:00:00 PM 10.15 50.27 0.116 7.97 12.86 11.72
4/4/2021 5:15:00 PM 10.08 50.144 0.116 7.93 11.5 11.7
4/4/2021 5:30:00 PM 9.99 49.982 0.116 7.88 11.53 11.66
4/4/2021 5:45:00 PM 9.91 49.838 0.116 7.84 10.66 11.63
4/4/2021 6:00:00 PM 9.81 49.658 0.116 7.77 10.53 11.59
4/4/2021 6:15:00 PM 9.71 49.478 0.116 7.71 9.82 11.56
4/4/2021 6:30:00 PM 9.62 49.316 0.116 7.65 9.99 11.51
4/4/2021 6:45:00 PM 9.54 49.172 0.116 7.59 8.87 11.45
4/4/2021 7:00:00 PM 9.46 49.028 0.116 7.52 8.82 11.39
4/4/2021 7:15:00 PM 9.4 48.92 0.116 7.47 8.53 11.31
4/4/2021 7:30:00 PM 9.36 48.848 0.116 7.42 8.85 11.24
4/4/2021 7:45:00 PM 9.35 48.83 0.116 7.39 8.53 11.16
4/4/2021 8:00:00 PM 9.33 48.794 0.117 7.35 7.94 11.1
4/4/2021 8:15:00 PM 9.31 48.758 0.117 7.33 7.85 11.06
4/4/2021 8:30:00 PM 9.31 48.758 0.117 7.3 7.87 11.03
4/4/2021 8:45:00 PM 9.29 48.722 0.117 7.29 8.88 11.01
4/4/2021 9:00:00 PM 9.28 48.704 0.117 7.28 7.59 11.01
4/4/2021 9:15:00 PM 9.26 48.668 0.117 7.27 7.32 10.99
4/4/2021 9:30:00 PM 9.22 48.596 0.117 7.26 7.73 10.99
4/4/2021 9:45:00 PM 9.18 48.524 0.117 7.24 7.3 11
4/4/2021 10:00:00 PM 9.13 48.434 0.117 7.23 7.69 11
4/4/2021 10:15:00 PM 9.07 48.326 0.117 7.22 7.58 11.01
4/4/2021 10:30:00 PM 8.99 48.182 0.117 7.21 9.03 11.02
4/4/2021 10:45:00 PM 8.91 48.038 0.117 7.2 8.44 11.04
4/4/2021 11:00:00 PM 8.82 47.876 0.118 7.2 8.03 11.06
4/4/2021 11:15:00 PM 8.74 47.732 0.118 7.19 8.48 11.07
4/4/2021 11:30:00 PM 8.64 47.552 0.118 7.18 7.91 11.11
4/4/2021 11:45:00 PM 8.55 47.39 0.118 7.18 7.8 11.13
4/5/2021 12:00:00 AM 8.45 47.21 0.118 7.17 7.7 11.16
4/5/2021 12:15:00 AM 8.36 47.048 0.118 7.17 7.73 11.17
4/5/2021 12:30:00 AM 8.26 46.868 0.118 7.16 7.79 11.19
4/5/2021 12:45:00 AM 8.16 46.688 0.119 7.16 8.12 11.23
4/5/2021 1:00:00 AM 8.06 46.508 0.118 7.16 7.69 11.25
4/5/2021 1:15:00 AM 7.96 46.328 0.119 7.16 7.71 11.28
4/5/2021 1:30:00 AM 7.86 46.148 0.119 7.16 8.2 11.32
4/5/2021 1:45:00 AM 7.75 45.95 0.119 7.15 7.9 11.35
4/5/2021 2:00:00 AM 7.65 45.77 0.119 7.15 7.86 11.37
4/5/2021 2:15:00 AM 7.55 45.59 0.119 7.15 7.91 11.41
4/5/2021 2:30:00 AM 7.44 45.392 0.119 7.16 7.66 11.43
4/5/2021 2:45:00 AM 7.33 45.194 0.119 7.15 7.8 11.47
4/5/2021 3:00:00 AM 7.23 45.014 0.119 7.15 8.22 11.5
4/5/2021 3:15:00 AM 7.13 44.834 0.119 7.15 7.75 11.52
4/5/2021 3:30:00 AM 7.02 44.636 0.119 7.15 7.44 11.56
4/5/2021 3:45:00 AM 6.92 44.456 0.12 7.15 7.55 11.59
4/5/2021 4:00:00 AM 6.82 44.276 0.12 7.16 7.86 11.63
4/5/2021 4:15:00 AM 6.72 44.096 0.12 7.16 7.92 11.67
4/5/2021 4:30:00 AM 6.62 43.916 0.12 7.15 8.47 11.69
4/5/2021 4:45:00 AM 6.52 43.736 0.12 7.16 8.7 11.72
4/5/2021 5:00:00 AM 6.42 43.556 0.12 7.15 8.35 11.75
4/5/2021 5:15:00 AM 6.33 43.394 0.12 7.16 8.03 11.78
4/5/2021 5:30:00 AM 6.24 43.232 0.12 7.15 8.1 11.81
4/5/2021 5:45:00 AM 6.15 43.07 0.12 7.16 8.24 11.84
4/5/2021 6:00:00 AM 6.06 42.908 0.12 7.16 8.11 11.88
4/5/2021 6:15:00 AM 5.97 42.746 0.12 7.16 8.05 11.9
4/5/2021 6:30:00 AM 5.89 42.602 0.12 7.16 8.2 11.95
4/5/2021 6:45:00 AM 5.81 42.458 0.12 7.17 8.05 11.97
4/5/2021 7:00:00 AM 5.73 42.314 0.12 7.18 8.06 12.03
4/5/2021 7:15:00 AM 5.67 42.206 0.12 7.2 8.5 12.12
4/5/2021 7:30:00 AM 5.61 42.098 0.12 7.21 8.26 12.21
4/5/2021 7:45:00 AM 5.57 42.026 0.12 7.24 8.19 12.32
4/5/2021 8:00:00 AM 5.54 41.972 0.12 7.27 8.74 12.42
4/5/2021 8:15:00 AM 5.54 41.972 0.12 7.3 8.78 12.51
4/5/2021 8:30:00 AM 5.55 41.99 0.119 7.34 8.56 12.59
4/5/2021 8:45:00 AM 5.59 42.062 0.12 7.37 8.56 12.65
4/5/2021 9:00:00 AM 5.64 42.152 0.119 7.42 9 12.71
4/5/2021 9:15:00 AM 5.72 42.296 0.119 7.46 9.85 12.75
4/5/2021 9:30:00 AM 5.82 42.476 0.119 7.49 10.3 12.77
4/5/2021 9:45:00 AM 5.95 42.71 0.119 7.53 10.55 12.8
4/5/2021 10:00:00 AM 6.09 42.962 0.119 7.57 10.69 12.8
4/5/2021 10:15:00 AM 6.25 43.25 0.119 7.6 9.8 12.81
4/5/2021 10:30:00 AM 6.43 43.574 0.119 7.63 9.06 12.81
4/5/2021 10:45:00 AM 6.61 43.898 0.118 7.66 9.59 12.79
4/5/2021 11:00:00 AM 6.8 44.24 0.118 7.69 9.84 12.76
4/5/2021 11:15:00 AM 7.01 44.618 0.118 7.72 10.88 12.73
4/5/2021 11:30:00 AM 7.23 45.014 0.118 7.75 11.06 12.7
4/5/2021 11:45:00 AM 7.47 45.446 0.118 7.77 11.43 12.64
4/5/2021 12:00:00 PM 7.73 45.914 0.118 7.8 12.89 12.59
4/5/2021 12:15:00 PM 7.98 46.364 0.118 7.83 11.8 12.52
4/5/2021 12:30:00 PM 8.25 46.85 0.118 7.85 11.79 12.46
4/5/2021 12:45:00 PM 8.51 47.318 0.117 7.88 11.79 12.39
4/5/2021 1:00:00 PM 8.78 47.804 0.118 7.91 12.13 12.32
4/5/2021 1:15:00 PM 9.04 48.272 0.118 7.95 11.94 12.25
4/5/2021 1:30:00 PM 9.29 48.722 0.118 7.97 11.58 12.19
4/5/2021 1:45:00 PM 9.53 49.154 0.117 7.99 13.56 12.12
4/5/2021 2:00:00 PM 9.75 49.55 0.117 8.02 13.4 12.05
4/5/2021 2:15:00 PM 9.97 49.946 0.117 8.04 11.58 11.98
4/5/2021 2:30:00 PM 10.16 50.288 0.117 8.06 13.05 11.92
4/5/2021 2:45:00 PM 10.32 50.576 0.117 8.08 11.84 11.87
4/5/2021 3:00:00 PM 10.48 50.864 0.117 8.1 13.01 11.82
4/5/2021 3:15:00 PM 10.6 51.08 0.117 8.12 12.27 11.77
4/5/2021 3:30:00 PM 10.68 51.224 0.117 8.14 13.44 11.74
4/5/2021 3:45:00 PM 10.75 51.35 0.117 8.14 14.54 11.7
4/5/2021 4:00:00 PM 10.79 51.422 0.117 8.14 13.62 11.68
4/5/2021 4:15:00 PM 10.81 51.458 0.117 8.14 11.99 11.65
4/5/2021 4:30:00 PM 10.8 51.44 0.117 8.13 13.07 11.62
4/5/2021 4:45:00 PM 10.76 51.368 0.117 8.12 12.72 11.6
4/5/2021 5:00:00 PM 10.7 51.26 0.117 8.09 12.5 11.58
4/5/2021 5:15:00 PM 10.6 51.08 0.117 8.06 11.98 11.56
4/5/2021 5:30:00 PM 10.47 50.846 0.117 8.01 11.55 11.53
4/5/2021 5:45:00 PM 10.36 50.648 0.117 7.94 11.38 11.5
4/5/2021 6:00:00 PM 10.26 50.468 0.117 7.88 10.15 11.48
4/5/2021 6:15:00 PM 10.19 50.342 0.117 7.82 10.05 11.44
4/5/2021 6:30:00 PM 10.1 50.18 0.117 7.75 9.77 11.37
4/5/2021 6:45:00 PM 10.03 50.054 0.117 7.67 8.56 11.31
4/5/2021 7:00:00 PM 9.97 49.946 0.117 7.6 8.96 11.23
4/5/2021 7:15:00 PM 9.92 49.856 0.117 7.53 8.87 11.17
4/5/2021 7:30:00 PM 9.88 49.784 0.117 7.47 8.54 11.09
4/5/2021 7:45:00 PM 9.86 49.748 0.117 7.42 8.88 11.02
4/5/2021 8:00:00 PM 9.85 49.73 0.117 7.39 8.82 10.95
4/5/2021 8:15:00 PM 9.84 49.712 0.117 7.35 8.92 10.9
4/5/2021 8:30:00 PM 9.83 49.694 0.118 7.33 8.85 10.87
4/5/2021 8:45:00 PM 9.82 49.676 0.117 7.3 8.56 10.84
4/5/2021 9:00:00 PM 9.81 49.658 0.118 7.29 8.52 10.83
4/5/2021 9:15:00 PM 9.8 49.64 0.117 7.28 8.32 10.81
4/5/2021 9:30:00 PM 9.78 49.604 0.118 7.27 8.31 10.81
4/5/2021 9:45:00 PM 9.76 49.568 0.118 7.26 8.42 10.82
4/5/2021 10:00:00 PM 9.72 49.496 0.118 7.25 8.72 10.81
4/5/2021 10:15:00 PM 9.67 49.406 0.118 7.23 9.21 10.81
4/5/2021 10:30:00 PM 9.62 49.316 0.118 7.23 9.15 10.81
4/5/2021 10:45:00 PM 9.55 49.19 0.118 7.22 10 10.84
4/5/2021 11:00:00 PM 9.47 49.046 0.119 7.21 8.71 10.84
4/5/2021 11:15:00 PM 9.39 48.902 0.119 7.2 8.43 10.85
4/5/2021 11:30:00 PM 9.3 48.74 0.119 7.2 8.97 10.88
4/5/2021 11:45:00 PM 9.21 48.578 0.119 7.19 8.49 10.9
4/6/2021 12:00:00 AM 9.11 48.398 0.119 7.18 8.77 10.93
4/6/2021 12:15:00 AM 9.02 48.236 0.119 7.19 8.58 10.94
4/6/2021 12:30:00 AM 8.93 48.074 0.12 7.19 8.68 10.97
4/6/2021 12:45:00 AM 8.83 47.894 0.12 7.19 8.38 11
4/6/2021 1:00:00 AM 8.74 47.732 0.12 7.19 8.75 11.03
4/6/2021 1:15:00 AM 8.64 47.552 0.12 7.18 8.45 11.06
4/6/2021 1:30:00 AM 8.54 47.372 0.12 7.18 8.5 11.09
4/6/2021 1:45:00 AM 8.43 47.174 0.12 7.19 9.1 11.12
4/6/2021 2:00:00 AM 8.33 46.994 0.12 7.18 9.07 11.14
4/6/2021 2:15:00 AM 8.22 46.796 0.12 7.19 8.69 11.17
4/6/2021 2:30:00 AM 8.11 46.598 0.12 7.18 8.52 11.2
4/6/2021 2:45:00 AM 8 46.4 0.121 7.18 8.44 11.23
4/6/2021 3:00:00 AM 7.89 46.202 0.121 7.18 8.96 11.26
4/6/2021 3:15:00 AM 7.79 46.022 0.121 7.18 8.7 11.29
4/6/2021 3:30:00 AM 7.68 45.824 0.121 7.17 8.6 11.32
4/6/2021 3:45:00 AM 7.57 45.626 0.121 7.18 8.56 11.35
4/6/2021 4:00:00 AM 7.47 45.446 0.121 7.18 8.49 11.39
4/6/2021 4:15:00 AM 7.36 45.248 0.121 7.18 8.76 11.42
4/6/2021 4:30:00 AM 7.26 45.068 0.121 7.19 8.67 11.46
4/6/2021 4:45:00 AM 7.16 44.888 0.122 7.18 8.46 11.49
4/6/2021 5:00:00 AM 7.06 44.708 0.121 7.18 8.95 11.51
4/6/2021 5:15:00 AM 6.96 44.528 0.122 7.19 8.89 11.55
4/6/2021 5:30:00 AM 6.87 44.366 0.122 7.18 8.42 11.58
4/6/2021 5:45:00 AM 6.77 44.186 0.122 7.19 8.38 11.61
4/6/2021 6:00:00 AM 6.68 44.024 0.122 7.19 8.6 11.64
4/6/2021 6:15:00 AM 6.58 43.844 0.122 7.19 8.49 11.67
4/6/2021 6:30:00 AM 6.49 43.682 0.122 7.19 8.6 11.71
4/6/2021 6:45:00 AM 6.4 43.52 0.122 7.19 8.86 11.75
4/6/2021 7:00:00 AM 6.32 43.376 0.122 7.2 8.99 11.81
4/6/2021 7:15:00 AM 6.24 43.232 0.122 7.21 8.7 11.9
4/6/2021 7:30:00 AM 6.17 43.106 0.122 7.24 9.56 11.99
4/6/2021 7:45:00 AM 6.12 43.016 0.122 7.26 8.79 12.1
4/6/2021 8:00:00 AM 6.08 42.944 0.122 7.29 9.13 12.2
4/6/2021 8:15:00 AM 6.07 42.926 0.122 7.33 9.07 12.3
4/6/2021 8:30:00 AM 6.07 42.926 0.121 7.37 9.79 12.38
4/6/2021 8:45:00 AM 6.09 42.962 0.122 7.4 8.87 12.45
4/6/2021 9:00:00 AM 6.14 43.052 0.121 7.44 9.06 12.52
4/6/2021 9:15:00 AM 6.22 43.196 0.121 7.47 8.91 12.55
4/6/2021 9:30:00 AM 6.32 43.376 0.121 7.51 8.88 12.59
4/6/2021 9:45:00 AM 6.45 43.61 0.121 7.55 8.77 12.61
4/6/2021 10:00:00 AM 6.59 43.862 0.121 7.59 9.36 12.62
4/6/2021 10:15:00 AM 6.76 44.168 0.121 7.62 9.57 12.62
4/6/2021 10:30:00 AM 6.93 44.474 0.12 7.66 9.26 12.62
4/6/2021 10:45:00 AM 7.11 44.798 0.12 7.69 9.36 12.6
4/6/2021 11:00:00 AM 7.31 45.158 0.12 7.72 9.51 12.59
4/6/2021 11:15:00 AM 7.53 45.554 0.12 7.75 10.62 12.55
4/6/2021 11:30:00 AM 7.77 45.986 0.12 7.78 11.23 12.52
4/6/2021 11:45:00 AM 8.02 46.436 0.119 7.81 11.5 12.47
4/6/2021 12:00:00 PM 8.28 46.904 0.119 7.84 10.98 12.41
4/6/2021 12:15:00 PM 8.55 47.39 0.119 7.87 10.17 12.34
4/6/2021 12:30:00 PM 8.83 47.894 0.119 7.91 11.09 12.27
4/6/2021 12:45:00 PM 9.12 48.416 0.119 7.93 12.03 12.2
4/6/2021 1:00:00 PM 9.42 48.956 0.119 7.97 11.6 12.13
4/6/2021 1:15:00 PM 9.71 49.478 0.119 8 13.68 12.07
4/6/2021 1:30:00 PM 9.99 49.982 0.119 8.04 12.63 11.99
4/6/2021 1:45:00 PM 10.23 50.414 0.119 8.07 13.55 11.94
4/6/2021 2:00:00 PM 10.42 50.756 0.119 8.12 14.29 11.87
4/6/2021 2:15:00 PM 10.57 51.026 0.119 8.15 13.32 11.84
4/6/2021 2:30:00 PM 10.62 51.116 0.118 8.17 13.77 11.79
4/6/2021 2:45:00 PM 10.69 51.242 0.119 8.21 13.51 11.78
4/6/2021 3:00:00 PM 10.7 51.26 0.118 8.24 13.11 11.75
4/6/2021 3:15:00 PM 10.75 51.35 0.118 8.27 11.67 11.72
4/6/2021 3:30:00 PM 10.84 51.512 0.118 8.3 12.7 11.71
4/6/2021 3:45:00 PM 10.94 51.692 0.118 8.32 13.51 11.67
4/6/2021 4:00:00 PM 11.04 51.872 0.118 8.34 13.33 11.59
4/6/2021 4:15:00 PM 11.09 51.962 0.118 8.34 16.47 11.56
4/6/2021 4:30:00 PM 11.1 51.98 0.118 8.32 14.28 11.52
4/6/2021 4:45:00 PM 11.09 51.962 0.118 8.31 12.78 11.52
4/6/2021 5:00:00 PM 11.04 51.872 0.117 8.28 12.99 11.49
4/6/2021 5:15:00 PM 10.94 51.692 0.118 8.23 12.37 11.47
4/6/2021 5:30:00 PM 10.84 51.512 0.118 8.18 12.4 11.45
4/6/2021 5:45:00 PM 10.74 51.332 0.118 8.11 11.57 11.42
4/6/2021 6:00:00 PM 10.64 51.152 0.118 8.03 11.13 11.37
4/6/2021 6:15:00 PM 10.52 50.936 0.118 7.93 10.8 11.33
4/6/2021 6:30:00 PM 10.42 50.756 0.118 7.83 9.95 11.29
4/6/2021 6:45:00 PM 10.3 50.54 0.118 7.73 9.52 11.23
4/6/2021 7:00:00 PM 10.19 50.342 0.118 7.65 9.97 11.17
4/6/2021 7:15:00 PM 10.1 50.18 0.118 7.56 9.36 11.11
4/6/2021 7:30:00 PM 10.05 50.09 0.118 7.5 9.21 11.04
4/6/2021 7:45:00 PM 10.01 50.018 0.119 7.44 9.03 10.96
4/6/2021 8:00:00 PM 10 50 0.119 7.4 9.08 10.9
4/6/2021 8:15:00 PM 9.98 49.964 0.119 7.36 9.48 10.85
4/6/2021 8:30:00 PM 9.98 49.964 0.119 7.34 10 10.81
4/6/2021 8:45:00 PM 9.99 49.982 0.119 7.32 9.47 10.78
4/6/2021 9:00:00 PM 10 50 0.119 7.31 9.63 10.76
4/6/2021 9:15:00 PM 10.01 50.018 0.119 7.29 9.72 10.74
4/6/2021 9:30:00 PM 10.01 50.018 0.119 7.28 9.09 10.73
4/6/2021 9:45:00 PM 10 50 0.119 7.27 8.89 10.72
4/6/2021 10:00:00 PM 9.98 49.964 0.119 7.26 8.96 10.72
4/6/2021 10:15:00 PM 9.95 49.91 0.119 7.26 9.3 10.72
4/6/2021 10:30:00 PM 9.92 49.856 0.119 7.25 9.16 10.72
4/6/2021 10:45:00 PM 9.89 49.802 0.119 7.24 9.3 10.72
4/6/2021 11:00:00 PM 9.85 49.73 0.12 7.23 9.31 10.74
4/6/2021 11:15:00 PM 9.8 49.64 0.12 7.23 9.45 10.74
4/6/2021 11:30:00 PM 9.76 49.568 0.12 7.22 9.64 10.76
4/6/2021 11:45:00 PM 9.72 49.496 0.12 7.22 9.9 10.77
4/7/2021 12:00:00 AM 9.67 49.406 0.12 7.22 9.5 10.79
4/7/2021 12:15:00 AM 9.61 49.298 0.12 7.21 9.33 10.8
4/7/2021 12:30:00 AM 9.56 49.208 0.12 7.21 9.26 10.82
4/7/2021 12:45:00 AM 9.51 49.118 0.12 7.2 9.33 10.82
4/7/2021 1:00:00 AM 9.45 49.01 0.121 7.21 9.3 10.84
4/7/2021 1:15:00 AM 9.39 48.902 0.121 7.2 9.65 10.85
4/7/2021 1:30:00 AM 9.33 48.794 0.121 7.2 8.9 10.88
4/7/2021 1:45:00 AM 9.27 48.686 0.121 7.2 8.97 10.88
4/7/2021 2:00:00 AM 9.23 48.614 0.121 7.21 9.51 10.9
4/7/2021 2:15:00 AM 9.18 48.524 0.121 7.2 9.06 10.91
4/7/2021 2:30:00 AM 9.14 48.452 0.121 7.2 9.53 10.91
4/7/2021 2:45:00 AM 9.09 48.362 0.121 7.19 9.62 10.93
4/7/2021 3:00:00 AM 9.05 48.29 0.122 7.19 8.99 10.94
4/7/2021 3:15:00 AM 9 48.2 0.122 7.19 9.25 10.96
4/7/2021 3:30:00 AM 8.95 48.11 0.122 7.2 9.58 10.98
4/7/2021 3:45:00 AM 8.91 48.038 0.122 7.2 9.54 10.99
4/7/2021 4:00:00 AM 8.86 47.948 0.122 7.2 9.91 11
4/7/2021 4:15:00 AM 8.81 47.858 0.122 7.2 9.84 11.02
4/7/2021 4:30:00 AM 8.77 47.786 0.122 7.19 10.01 11.03
4/7/2021 4:45:00 AM 8.72 47.696 0.123 7.2 9.83 11.06
4/7/2021 5:00:00 AM 8.68 47.624 0.123 7.21 9.7 11.06
4/7/2021 5:15:00 AM 8.64 47.552 0.123 7.2 9.24 11.09
4/7/2021 5:30:00 AM 8.59 47.462 0.123 7.2 9.58 11.11
4/7/2021 5:45:00 AM 8.55 47.39 0.123 7.21 9.69 11.12
4/7/2021 6:00:00 AM 8.5 47.3 0.123 7.21 9.91 11.12
4/7/2021 6:15:00 AM 8.46 47.228 0.123 7.21 9.84 11.15
4/7/2021 6:30:00 AM 8.42 47.156 0.123 7.21 9.83 11.15
4/7/2021 6:45:00 AM 8.38 47.084 0.123 7.22 10.24 11.16
4/7/2021 7:00:00 AM 8.35 47.03 0.123 7.22 10.36 11.21
4/7/2021 7:15:00 AM 8.32 46.976 0.123 7.22 10.93 11.22
4/7/2021 7:30:00 AM 8.29 46.922 0.124 7.24 10.63 11.28
4/7/2021 7:45:00 AM 8.27 46.886 0.123 7.25 10.19 11.35
4/7/2021 8:00:00 AM 8.25 46.85 0.123 7.28 9.28 11.43
4/7/2021 8:15:00 AM 8.25 46.85 0.123 7.31 9.76 11.53
4/7/2021 8:30:00 AM 8.25 46.85 0.122 7.33 10.49 11.61
4/7/2021 8:45:00 AM 8.28 46.904 0.122 7.38 11.27 11.73
4/7/2021 9:00:00 AM 8.31 46.958 0.122 7.42 9.89 11.84
4/7/2021 9:15:00 AM 8.36 47.048 0.122 7.47 11.3 11.91
4/7/2021 9:30:00 AM 8.43 47.174 0.122 7.52 12.34 11.98
4/7/2021 9:45:00 AM 8.51 47.318 0.122 7.58 10.79 12.03
4/7/2021 10:00:00 AM 8.59 47.462 0.122 7.63 11.71 12.07
4/7/2021 10:15:00 AM 8.66 47.588 0.121 7.68 11.91 12.1
4/7/2021 10:30:00 AM 8.75 47.75 0.121 7.74 11.81 12.14
4/7/2021 10:45:00 AM 8.84 47.912 0.121 7.79 13.11 12.14
4/7/2021 11:00:00 AM 8.91 48.038 0.121 7.83 18.21 12.13
4/7/2021 11:15:00 AM 9.01 48.218 0.121 7.88 14.15 12.15
4/7/2021 11:30:00 AM 9.13 48.434 0.121 7.94 14.13 12.16
4/7/2021 11:45:00 AM 9.29 48.722 0.12 8 14.46 12.16
4/7/2021 12:00:00 PM 9.5 49.1 0.12 8.08 16.24 12.14
4/7/2021 12:15:00 PM 9.78 49.604 0.12 8.15 17.66 12.09
4/7/2021 12:30:00 PM 10.06 50.108 0.12 8.2 13.48 12.02
4/7/2021 12:45:00 PM 10.36 50.648 0.12 8.25 11.85 11.96
4/7/2021 1:00:00 PM 10.66 51.188 0.12 8.3 12.18 11.88
4/7/2021 1:15:00 PM 10.94 51.692 0.12 8.34 12.28 11.81
4/7/2021 1:30:00 PM 11.21 52.178 0.12 8.38 12.14 11.73
4/7/2021 1:45:00 PM 11.47 52.646 0.12 8.41 14 11.67
4/7/2021 2:00:00 PM 11.7 53.06 0.12 8.44 13.21 11.59
4/7/2021 2:15:00 PM 11.93 53.474 0.12 8.47 12.83 11.53
4/7/2021 2:30:00 PM 12.14 53.852 0.12 8.49 13.35 11.46
4/7/2021 2:45:00 PM 12.35 54.23 0.12 8.52 14.06 11.41
4/7/2021 3:00:00 PM 12.55 54.59 0.12 8.54 15.04 11.33
4/7/2021 3:15:00 PM 12.75 54.95 0.12 8.56 16.97 11.27
4/7/2021 3:30:00 PM 12.93 55.274 0.12 8.58 18.72 11.21
4/7/2021 3:45:00 PM 13.09 55.562 0.119 8.6 16.6 11.16
4/7/2021 4:00:00 PM 13.23 55.814 0.119 8.61 20.04 11.12
4/7/2021 4:15:00 PM 13.25 55.85 0.119 8.6 15.7 11.07
4/7/2021 4:30:00 PM 13.2 55.76 0.119 8.57 16.47 11.02
4/7/2021 4:45:00 PM 13.14 55.652 0.119 8.51 18.5 11.01
4/7/2021 5:00:00 PM 13.11 55.598 0.119 8.49 18.66 11
4/7/2021 5:15:00 PM 13.11 55.598 0.119 8.49 19.25 10.97
4/7/2021 5:30:00 PM 13.06 55.508 0.119 8.45 16.51 10.93
4/7/2021 5:45:00 PM 12.99 55.382 0.119 8.4 15.98 10.89
4/7/2021 6:00:00 PM 12.9 55.22 0.119 8.33 15.59 10.83
4/7/2021 6:15:00 PM 12.8 55.04 0.119 8.22 16.51 10.78
4/7/2021 6:30:00 PM 12.69 54.842 0.12 8.09 13.26 10.73
4/7/2021 6:45:00 PM 12.57 54.626 0.12 7.93 13.59 10.66
4/7/2021 7:00:00 PM 12.46 54.428 0.12 7.79 11.77 10.59
4/7/2021 7:15:00 PM 12.36 54.248 0.12 7.65 11.84 10.5
4/7/2021 7:30:00 PM 12.26 54.068 0.12 7.53 11.53 10.44
4/7/2021 7:45:00 PM 12.17 53.906 0.12 7.45 10.1 10.37
4/7/2021 8:00:00 PM 12.08 53.744 0.12 7.38 9.51 10.33
4/7/2021 8:15:00 PM 12 53.6 0.121 7.33 9.27 10.29
4/7/2021 8:30:00 PM 11.93 53.474 0.121 7.27 9.11 10.28
4/7/2021 8:45:00 PM 11.86 53.348 0.121 7.24 9.62 10.26
4/7/2021 9:00:00 PM 11.8 53.24 0.121 7.24 8.66 10.26
4/7/2021 9:15:00 PM 11.75 53.15 0.121 7.22 7.82 10.25
4/7/2021 9:30:00 PM 11.69 53.042 0.122 7.2 7.68 10.26
4/7/2021 9:45:00 PM 11.64 52.952 0.122 7.2 8.04 10.26
4/7/2021 10:00:00 PM 11.59 52.862 0.122 7.19 8.42 10.26
4/7/2021 10:15:00 PM 11.54 52.772 0.122 7.18 8.74 10.27
4/7/2021 10:30:00 PM 11.48 52.664 0.122 7.18 8.07 10.29
4/7/2021 10:45:00 PM 11.43 52.574 0.122 7.17 9.54 10.29
4/7/2021 11:00:00 PM 11.37 52.466 0.122 7.17 7.66 10.3
4/7/2021 11:15:00 PM 11.31 52.358 0.122 7.15 8.2 10.31
4/7/2021 11:30:00 PM 11.24 52.232 0.122 7.15 10.58 10.33
4/7/2021 11:45:00 PM 11.18 52.124 0.122 7.15 8.33 10.35
4/8/2021 12:00:00 AM 11.11 51.998 0.122 7.14 11.39 10.36
4/8/2021 12:15:00 AM 11.04 51.872 0.122 7.15 10.33 10.37
4/8/2021 12:30:00 AM 10.97 51.746 0.122 7.14 10.69 10.4
4/8/2021 12:45:00 AM 10.89 51.602 0.122 7.13 10.4 10.43
4/8/2021 1:00:00 AM 10.82 51.476 0.122 7.14 9.63 10.45
4/8/2021 1:15:00 AM 10.74 51.332 0.122 7.13 9.72 10.46
4/8/2021 1:30:00 AM 10.67 51.206 0.122 7.13 11.45 10.48
4/8/2021 1:45:00 AM 10.59 51.062 0.123 7.13 10.44 10.5
4/8/2021 2:00:00 AM 10.51 50.918 0.123 7.14 8.64 10.52
4/8/2021 2:15:00 AM 10.43 50.774 0.123 7.13 8.13 10.53
4/8/2021 2:30:00 AM 10.35 50.63 0.123 7.14 8.32 10.56
4/8/2021 2:45:00 AM 10.27 50.486 0.123 7.13 7.97 10.59
4/8/2021 3:00:00 AM 10.19 50.342 0.123 7.14 9.11 10.61
4/8/2021 3:15:00 AM 10.11 50.198 0.124 7.14 8.83 10.64
4/8/2021 3:30:00 AM 10.03 50.054 0.123 7.14 8.12 10.66
4/8/2021 3:45:00 AM 9.95 49.91 0.124 7.14 7.85 10.67
4/8/2021 4:00:00 AM 9.87 49.766 0.124 7.14 7.62 10.7
4/8/2021 4:15:00 AM 9.79 49.622 0.124 7.14 8.04 10.72
4/8/2021 4:30:00 AM 9.71 49.478 0.124 7.14 9.6 10.75
4/8/2021 4:45:00 AM 9.63 49.334 0.125 7.14 7.8 10.77
4/8/2021 5:00:00 AM 9.55 49.19 0.125 7.15 7.39 10.8
4/8/2021 5:15:00 AM 9.46 49.028 0.125 7.15 7.26 10.83
4/8/2021 5:30:00 AM 9.38 48.884 0.125 7.16 8.01 10.84
4/8/2021 5:45:00 AM 9.3 48.74 0.125 7.15 8.14 10.87
4/8/2021 6:00:00 AM 9.21 48.578 0.125 7.15 8.28 10.9
4/8/2021 6:15:00 AM 9.13 48.434 0.126 7.15 8.06 10.92
4/8/2021 6:30:00 AM 9.05 48.29 0.126 7.16 8.36 10.95
4/8/2021 6:45:00 AM 8.97 48.146 0.126 7.16 7.79 10.99
4/8/2021 7:00:00 AM 8.9 48.02 0.126 7.18 7.36 11.06
4/8/2021 7:15:00 AM 8.83 47.894 0.126 7.19 7.21 11.14
4/8/2021 7:30:00 AM 8.77 47.786 0.126 7.22 7.71 11.23
4/8/2021 7:45:00 AM 8.73 47.714 0.126 7.24 7.55 11.36
4/8/2021 8:00:00 AM 8.71 47.678 0.126 7.28 7.71 11.46
4/8/2021 8:15:00 AM 8.71 47.678 0.125 7.32 8.26 11.57
4/8/2021 8:30:00 AM 8.73 47.714 0.125 7.36 9.98 11.63
4/8/2021 8:45:00 AM 8.78 47.804 0.125 7.41 8.91 11.72
4/8/2021 9:00:00 AM 8.85 47.93 0.125 7.46 8.64 11.77
4/8/2021 9:15:00 AM 8.94 48.092 0.125 7.52 8.93 11.81
4/8/2021 9:30:00 AM 9.06 48.308 0.124 7.56 9.16 11.85
4/8/2021 9:45:00 AM 9.19 48.542 0.124 7.62 10.34 11.87
4/8/2021 10:00:00 AM 9.35 48.83 0.124 7.66 11.48 11.89
4/8/2021 10:15:00 AM 9.52 49.136 0.124 7.7 11.51 11.89
4/8/2021 10:30:00 AM 9.7 49.46 0.124 7.75 11.43 11.89
4/8/2021 10:45:00 AM 9.9 49.82 0.124 7.79 11.44 11.88
4/8/2021 11:00:00 AM 10.11 50.198 0.123 7.85 12.18 11.87
4/8/2021 11:15:00 AM 10.34 50.612 0.123 7.89 14.02 11.83
4/8/2021 11:30:00 AM 10.58 51.044 0.123 7.93 15.02 11.81
4/8/2021 11:45:00 AM 10.84 51.512 0.122 7.98 17.95 11.76
4/8/2021 12:00:00 PM 11.12 52.016 0.122 8.03 19.1 11.71
4/8/2021 12:15:00 PM 11.4 52.52 0.122 8.08 21.08 11.65
4/8/2021 12:30:00 PM 11.69 53.042 0.122 8.12 22.19 11.58
4/8/2021 12:45:00 PM 11.98 53.564 0.122 8.18 14.73 11.52
4/8/2021 1:00:00 PM 12.29 54.122 0.122 8.23 16.67 11.45
4/8/2021 1:15:00 PM 12.58 54.644 0.121 8.28 14.85 11.38
4/8/2021 1:30:00 PM 12.87 55.166 0.121 8.34 19.56 11.3
4/8/2021 1:45:00 PM 13.14 55.652 0.121 8.38 23.88 11.24
4/8/2021 2:00:00 PM 13.41 56.138 0.121 8.43 20.58 11.17
4/8/2021 2:15:00 PM 13.66 56.588 0.121 8.47 15.47 11.09
4/8/2021 2:30:00 PM 13.89 57.002 0.121 8.5 20.35 11.02
4/8/2021 2:45:00 PM 14.1 57.38 0.121 8.54 17.33 10.96
4/8/2021 3:00:00 PM 14.29 57.722 0.121 8.56 18.98 10.9
4/8/2021 3:15:00 PM 14.44 57.992 0.121 8.57 16.57 10.83
4/8/2021 3:30:00 PM 14.57 58.226 0.121 8.59 14.69 10.79
4/8/2021 3:45:00 PM 14.67 58.406 0.121 8.6 15.39 10.75
4/8/2021 4:00:00 PM 14.74 58.532 0.121 8.6 15.13 10.71
4/8/2021 4:15:00 PM 14.77 58.586 0.121 8.59 17.5 10.67
4/8/2021 4:30:00 PM 14.78 58.604 0.122 8.59 16.05 10.65
4/8/2021 4:45:00 PM 14.75 58.55 0.122 8.57 14.21 10.62
4/8/2021 5:00:00 PM 14.7 58.46 0.123 8.53 11.47 10.59
4/8/2021 5:15:00 PM 14.62 58.316 0.123 8.49 10.28 10.58
4/8/2021 5:30:00 PM 14.5 58.1 0.123 8.45 15.19 10.55
4/8/2021 5:45:00 PM 14.38 57.884 0.124 8.37 13.56 10.53
4/8/2021 6:00:00 PM 14.26 57.668 0.124 8.29 14.43 10.49
4/8/2021 6:15:00 PM 14.13 57.434 0.124 8.18 14.12 10.46
4/8/2021 6:30:00 PM 14 57.2 0.124 8.08 12.43 10.4
4/8/2021 6:45:00 PM 13.88 56.984 0.124 7.95 10.45 10.36
4/8/2021 7:00:00 PM 13.75 56.75 0.124 7.82 9.45 10.29
4/8/2021 7:15:00 PM 13.64 56.552 0.124 7.67 9.25 10.21
4/8/2021 7:30:00 PM 13.54 56.372 0.124 7.56 9.74 10.15
4/8/2021 7:45:00 PM 13.45 56.21 0.124 7.47 9.49 10.08
4/8/2021 8:00:00 PM 13.38 56.084 0.124 7.41 9.7 10.03
4/8/2021 8:15:00 PM 13.33 55.994 0.124 7.34 9.49 9.98
4/8/2021 8:30:00 PM 13.29 55.922 0.124 7.33 9.16 9.95
4/8/2021 8:45:00 PM 13.27 55.886 0.124 7.32 9.2 9.92
4/8/2021 9:00:00 PM 13.25 55.85 0.124 7.31 8.94 9.9
4/8/2021 9:15:00 PM 13.23 55.814 0.124 7.29 9.86 9.9
4/8/2021 9:30:00 PM 13.21 55.778 0.124 7.27 9.73 9.89
4/8/2021 9:45:00 PM 13.2 55.76 0.123 7.27 9.32 9.87
4/8/2021 10:00:00 PM 13.17 55.706 0.123 7.26 9.65 9.87
4/8/2021 10:15:00 PM 13.15 55.67 0.123 7.25 8.44 9.87
4/8/2021 10:30:00 PM 13.12 55.616 0.123 7.24 8.43 9.87
4/8/2021 10:45:00 PM 13.09 55.562 0.123 7.23 9.37 9.88
4/8/2021 11:00:00 PM 13.07 55.526 0.123 7.23 8.77 9.88
4/8/2021 11:15:00 PM 13.05 55.49 0.123 7.22 8.11 9.89
4/8/2021 11:30:00 PM 13.01 55.418 0.123 7.23 8.29 9.89
4/8/2021 11:45:00 PM 12.98 55.364 0.123 7.22 8 9.9
4/9/2021 12:00:00 AM 12.94 55.292 0.123 7.22 7.92 9.9
4/9/2021 12:15:00 AM 12.89 55.202 0.123 7.21 8.13 9.91
4/9/2021 12:30:00 AM 12.84 55.112 0.123 7.21 8.45 9.92
4/9/2021 12:45:00 AM 12.79 55.022 0.124 7.2 8.57 9.94
4/9/2021 1:00:00 AM 12.73 54.914 0.124 7.21 8.83 9.96
4/9/2021 1:15:00 AM 12.67 54.806 0.124 7.2 9.79 9.97
4/9/2021 1:30:00 AM 12.61 54.698 0.124 7.2 9.92 9.98
4/9/2021 1:45:00 AM 12.56 54.608 0.124 7.2 9.76 9.99
4/9/2021 2:00:00 AM 12.5 54.5 0.124 7.2 10.79 10.01
4/9/2021 2:15:00 AM 12.45 54.41 0.124 7.2 11.9 10.03
4/9/2021 2:30:00 AM 12.39 54.302 0.125 7.19 10.79 10.04
4/9/2021 2:45:00 AM 12.32 54.176 0.125 7.19 10.15 10.05
4/9/2021 3:00:00 AM 12.26 54.068 0.125 7.18 9.26 10.08
4/9/2021 3:15:00 AM 12.2 53.96 0.125 7.19 7.39 10.09
4/9/2021 3:30:00 AM 12.13 53.834 0.125 7.2 7.52 10.12
4/9/2021 3:45:00 AM 12.07 53.726 0.125 7.19 7.68 10.13
4/9/2021 4:00:00 AM 12 53.6 0.125 7.2 7.35 10.15
4/9/2021 4:15:00 AM 11.94 53.492 0.126 7.19 7.38 10.16
4/9/2021 4:30:00 AM 11.88 53.384 0.126 7.2 7.32 10.18
4/9/2021 4:45:00 AM 11.81 53.258 0.126 7.2 7.54 10.2
4/9/2021 5:00:00 AM 11.75 53.15 0.126 7.22 8.11 10.22
4/9/2021 5:15:00 AM 11.68 53.024 0.126 7.22 9.29 10.24
4/9/2021 5:30:00 AM 11.62 52.916 0.127 7.22 8.51 10.26
4/9/2021 5:45:00 AM 11.56 52.808 0.127 7.23 8.7 10.28
4/9/2021 6:00:00 AM 11.5 52.7 0.127 7.24 9.91 10.29
4/9/2021 6:15:00 AM 11.44 52.592 0.127 7.24 9.2 10.32
4/9/2021 6:30:00 AM 11.38 52.484 0.128 7.22 9.89 10.32
4/9/2021 6:45:00 AM 11.32 52.376 0.128 7.22 9.36 10.37
4/9/2021 7:00:00 AM 11.26 52.268 0.128 7.22 8.57 10.41
4/9/2021 7:15:00 AM 11.2 52.16 0.128 7.23 8.68 10.49
4/9/2021 7:30:00 AM 11.17 52.106 0.128 7.27 8.22 10.59
4/9/2021 7:45:00 AM 11.14 52.052 0.128 7.3 8.77 10.7
4/9/2021 8:00:00 AM 11.14 52.052 0.128 7.36 8.34 10.85
4/9/2021 8:15:00 AM 11.16 52.088 0.127 7.41 9.16 10.98
4/9/2021 8:30:00 AM 11.23 52.214 0.127 7.5 8.18 11.13
4/9/2021 8:45:00 AM 11.27 52.286 0.127 7.55 9.28 11.18
4/9/2021 9:00:00 AM 11.28 52.304 0.127 7.58 9.51 11.16
4/9/2021 9:15:00 AM 11.26 52.268 0.127 7.57 10 11.1
4/9/2021 9:30:00 AM 11.22 52.196 0.127 7.57 8.62 11.09
4/9/2021 9:45:00 AM 11.18 52.124 0.127 7.56 11.33 11.07
4/9/2021 10:00:00 AM 11.16 52.088 0.127 7.57 12.13 11.1
4/9/2021 10:15:00 AM 11.16 52.088 0.127 7.59 12.69 11.16
4/9/2021 10:30:00 AM 11.2 52.16 0.127 7.66 12.6 11.27
4/9/2021 10:45:00 AM 11.23 52.214 0.127 7.71 13.74 11.32
4/9/2021 11:00:00 AM 11.27 52.286 0.126 7.74 13.9 11.32
4/9/2021 11:15:00 AM 11.29 52.322 0.126 7.78 11.47 11.29
4/9/2021 11:30:00 AM 11.31 52.358 0.126 7.78 12.65 11.28
4/9/2021 11:45:00 AM 11.36 52.448 0.126 7.82 10.51 11.35
4/9/2021 12:00:00 PM 11.42 52.556 0.126 7.89 12.21 11.41
4/9/2021 12:15:00 PM 11.55 52.79 0.126 7.98 12.52 11.46
4/9/2021 12:30:00 PM 11.61 52.898 0.125 8.05 11.24 11.47
4/9/2021 12:45:00 PM 11.68 53.024 0.125 8.12 13.42 11.46
4/9/2021 1:00:00 PM 11.78 53.204 0.125 8.2 11.23 11.49
4/9/2021 1:15:00 PM 11.86 53.348 0.125 8.28 12.76 11.5
4/9/2021 1:30:00 PM 11.89 53.402 0.125 8.32 10.84 11.43
4/9/2021 1:45:00 PM 11.9 53.42 0.125 8.32 10.31 11.36
4/9/2021 2:00:00 PM 11.89 53.402 0.124 8.31 11.34 11.36
4/9/2021 2:15:00 PM 11.93 53.474 0.124 8.36 9.72 11.41
4/9/2021 2:30:00 PM 11.92 53.456 0.124 8.39 10.82 11.4
4/9/2021 2:45:00 PM 11.92 53.456 0.124 8.39 11.37 11.37
4/9/2021 3:00:00 PM 11.9 53.42 0.124 8.38 10.91 11.33
4/9/2021 3:15:00 PM 11.91 53.438 0.124 8.38 11.44 11.33
4/9/2021 3:30:00 PM 11.9 53.42 0.124 8.38 11.65 11.3
4/9/2021 3:45:00 PM 11.92 53.456 0.124 8.38 12.42 11.27
4/9/2021 4:00:00 PM 11.93 53.474 0.123 8.39 13.46 11.29
4/9/2021 4:15:00 PM 11.93 53.474 0.124 8.38 12.44 11.25
4/9/2021 4:30:00 PM 11.93 53.474 0.124 8.37 12.67 11.22
4/9/2021 4:45:00 PM 11.93 53.474 0.123 8.34 12.03 11.19
4/9/2021 5:00:00 PM 11.93 53.474 0.123 8.33 11.62 11.17
4/9/2021 5:15:00 PM 11.97 53.546 0.123 8.33 13.66 11.21
4/9/2021 5:30:00 PM 12 53.6 0.123 8.33 14.33 11.22
4/9/2021 5:45:00 PM 12.02 53.636 0.123 8.34 13.59 11.18
4/9/2021 6:00:00 PM 12.02 53.636 0.123 8.3 12.8 11.08
4/9/2021 6:15:00 PM 12.01 53.618 0.123 8.21 13.68 10.96
4/9/2021 6:30:00 PM 11.98 53.564 0.123 8.08 11.63 10.93
4/9/2021 6:45:00 PM 11.95 53.51 0.123 7.98 11.03 10.88
4/9/2021 7:00:00 PM 11.91 53.438 0.123 7.86 11 10.81
4/9/2021 7:15:00 PM 11.87 53.366 0.124 7.75 9.8 10.72
4/9/2021 7:30:00 PM 11.82 53.276 0.124 7.64 9.76 10.63
4/9/2021 7:45:00 PM 11.78 53.204 0.124 7.56 9.45 10.56
4/9/2021 8:00:00 PM 11.74 53.132 0.125 7.49 9.3 10.49
4/9/2021 8:15:00 PM 11.71 53.078 0.124 7.45 9.63 10.44
4/9/2021 8:30:00 PM 11.68 53.024 0.124 7.41 9.69 10.41
4/9/2021 8:45:00 PM 11.65 52.97 0.125 7.38 9.27 10.38
4/9/2021 9:00:00 PM 11.62 52.916 0.125 7.35 9.03 10.36
4/9/2021 9:15:00 PM 11.59 52.862 0.125 7.34 9.72 10.36
4/9/2021 9:30:00 PM 11.57 52.826 0.125 7.33 8.92 10.34
4/9/2021 9:45:00 PM 11.54 52.772 0.125 7.31 9.22 10.34
4/9/2021 10:00:00 PM 11.52 52.736 0.125 7.3 9.26 10.34
4/9/2021 10:15:00 PM 11.5 52.7 0.125 7.29 9.22 10.34
4/9/2021 10:30:00 PM 11.48 52.664 0.125 7.29 11.11 10.33
4/9/2021 10:45:00 PM 11.46 52.628 0.125 7.27 10.31 10.33
4/9/2021 11:00:00 PM 11.45 52.61 0.125 7.26 11.12 10.33
4/9/2021 11:15:00 PM 11.44 52.592 0.125 7.26 10.1 10.32
4/9/2021 11:30:00 PM 11.43 52.574 0.125 7.26 10.68 10.31
4/9/2021 11:45:00 PM 11.43 52.574 0.125 7.26 10.54 10.31
4/10/2021 12:00:00 AM 11.42 52.556 0.125 7.26 9.9 10.31
4/10/2021 12:15:00 AM 11.41 52.538 0.125 7.26 9.95 10.32
4/10/2021 12:30:00 AM 11.4 52.52 0.125 7.25 8.95 10.32
4/10/2021 12:45:00 AM 11.4 52.52 0.125 7.24 13.6 10.32
4/10/2021 1:00:00 AM 11.39 52.502 0.124 7.24 8.39 10.33
4/10/2021 1:15:00 AM 11.38 52.484 0.125 7.24 8.3 10.32
4/10/2021 1:30:00 AM 11.38 52.484 0.125 7.24 8.11 10.34
4/10/2021 1:45:00 AM 11.37 52.466 0.125 7.24 8.21 10.33
4/10/2021 2:00:00 AM 11.36 52.448 0.125 7.24 9.05 10.33
4/10/2021 2:15:00 AM 11.36 52.448 0.125 7.24 8.61 10.33
4/10/2021 2:30:00 AM 11.35 52.43 0.124 7.24 9.64 10.34
4/10/2021 2:45:00 AM 11.34 52.412 0.125 7.23 13.13 10.34
4/10/2021 3:00:00 AM 11.33 52.394 0.125 7.23 15.05 10.34
4/10/2021 3:15:00 AM 11.33 52.394 0.125 7.24 11.83 10.34
4/10/2021 3:30:00 AM 11.32 52.376 0.125 7.24 160.73 10.34
4/10/2021 3:45:00 AM 11.31 52.358 0.125 7.23 321.81 10.34
4/10/2021 4:00:00 AM 11.31 52.358 0.126 7.22 76.25 10.36
4/10/2021 4:15:00 AM 11.3 52.34 0.126 7.23 9.78 10.35
4/10/2021 4:30:00 AM 11.29 52.322 0.126 7.23 8.2 10.35
4/10/2021 4:45:00 AM 11.28 52.304 0.126 7.22 9.02 10.35
4/10/2021 5:00:00 AM 11.27 52.286 0.127 7.24 10.49 10.35
4/10/2021 5:15:00 AM 11.25 52.25 0.127 7.24 9.49 10.35
4/10/2021 5:30:00 AM 11.24 52.232 0.127 7.25 9.02 10.36
4/10/2021 5:45:00 AM 11.23 52.214 0.127 7.25 8.85 10.36
4/10/2021 6:00:00 AM 11.21 52.178 0.127 7.25 10.34 10.38
4/10/2021 6:15:00 AM 11.2 52.16 0.127 7.25 9.52 10.37
4/10/2021 6:30:00 AM 11.19 52.142 0.128 7.23 8.51 10.38
4/10/2021 6:45:00 AM 11.18 52.124 0.128 7.25 8.03 10.38
4/10/2021 7:00:00 AM 11.17 52.106 0.128 7.26 10.09 10.41
4/10/2021 7:15:00 AM 11.16 52.088 0.128 7.26 8.93 10.45
4/10/2021 7:30:00 AM 11.16 52.088 0.128 7.28 10.17 10.54
4/10/2021 7:45:00 AM 11.17 52.106 0.128 7.32 8.12 10.64
4/10/2021 8:00:00 AM 11.2 52.16 0.128 7.35 8.93 10.77
4/10/2021 8:15:00 AM 11.23 52.214 0.128 7.39 8.84 10.86
4/10/2021 8:30:00 AM 11.26 52.268 0.127 7.44 9.24 10.93
4/10/2021 8:45:00 AM 11.29 52.322 0.128 7.49 11.55 11.01
4/10/2021 9:00:00 AM 11.33 52.394 0.127 7.55 11.07 11.09
4/10/2021 9:15:00 AM 11.38 52.484 0.127 7.61 10.11 11.17
4/10/2021 9:30:00 AM 11.45 52.61 0.127 7.69 9.05 11.25
4/10/2021 9:45:00 AM 11.51 52.718 0.127 7.75 8.71 11.28
4/10/2021 10:00:00 AM 11.57 52.826 0.127 7.81 9.16 11.3
4/10/2021 10:15:00 AM 11.66 52.988 0.127 7.89 8.42 11.36
4/10/2021 10:30:00 AM 11.76 53.168 0.127 7.97 8.3 11.39
4/10/2021 10:45:00 AM 11.89 53.402 0.126 8.06 8.72 11.42
4/10/2021 11:00:00 AM 12 53.6 0.126 8.16 9.72 11.43
4/10/2021 11:15:00 AM 12.15 53.87 0.126 8.26 10.2 11.44
4/10/2021 11:30:00 AM 12.3 54.14 0.126 8.35 9.54 11.43
4/10/2021 11:45:00 AM 12.46 54.428 0.126 8.43 9.28 11.42
4/10/2021 12:00:00 PM 12.71 54.878 0.126 8.51 9.37 11.4
4/10/2021 12:15:00 PM 12.98 55.364 0.126 8.6 9.79 11.35
4/10/2021 12:30:00 PM 13.27 55.886 0.125 8.67 9.51 11.27
4/10/2021 12:45:00 PM 13.57 56.426 0.125 8.73 10.19 11.23
4/10/2021 1:00:00 PM 13.87 56.966 0.125 8.78 10.2 11.17
4/10/2021 1:15:00 PM 14.14 57.452 0.125 8.83 12.63 11.11
4/10/2021 1:30:00 PM 14.35 57.83 0.125 8.87 10.06 11.05
4/10/2021 1:45:00 PM 14.55 58.19 0.124 8.92 10.37 11
4/10/2021 2:00:00 PM 14.73 58.514 0.124 8.95 12.37 10.97
4/10/2021 2:15:00 PM 14.9 58.82 0.124 8.98 12.11 10.93
4/10/2021 2:30:00 PM 15.05 59.09 0.124 9.01 13.17 10.89
4/10/2021 2:45:00 PM 15.18 59.324 0.124 9.04 14.31 10.84
4/10/2021 3:00:00 PM 15.3 59.54 0.124 9.06 13.14 10.81
4/10/2021 3:15:00 PM 15.44 59.792 0.124 9.09 15.13 10.76
4/10/2021 3:30:00 PM 15.57 60.026 0.124 9.1 15.18 10.73
4/10/2021 3:45:00 PM 15.68 60.224 0.124 9.13 13.08 10.69
4/10/2021 4:00:00 PM 15.77 60.386 0.124 9.14 12.17 10.65
4/10/2021 4:15:00 PM 15.85 60.53 0.124 9.15 13.33 10.61
4/10/2021 4:30:00 PM 15.9 60.62 0.124 9.14 13.02 10.56
4/10/2021 4:45:00 PM 15.92 60.656 0.123 9.12 12.52 10.53
4/10/2021 5:00:00 PM 15.92 60.656 0.124 9.12 14.58 10.49
4/10/2021 5:15:00 PM 15.89 60.602 0.124 9.11 13.7 10.45
4/10/2021 5:30:00 PM 15.85 60.53 0.124 9.09 13.8 10.4
4/10/2021 5:45:00 PM 15.79 60.422 0.124 9.06 13.09 10.35
4/10/2021 6:00:00 PM 15.71 60.278 0.124 9.01 13.82 10.29
4/10/2021 6:15:00 PM 15.61 60.098 0.124 8.97 14.58 10.22
4/10/2021 6:30:00 PM 15.52 59.936 0.124 8.91 14.91 10.13
4/10/2021 6:45:00 PM 15.42 59.756 0.124 8.86 11.36 10.04
4/10/2021 7:00:00 PM 15.33 59.594 0.119 8.78 12.51 9.96
4/10/2021 7:15:00 PM 15.23 59.414 0.119 8.66 11.74 9.86
4/10/2021 7:30:00 PM 15.14 59.252 0.12 8.5 11.46 9.76
4/10/2021 7:45:00 PM 15.05 59.09 0.119 8.29 10.56 9.66
4/10/2021 8:00:00 PM 14.96 58.928 0.119 8.06 9.28 9.59
4/10/2021 8:15:00 PM 14.87 58.766 0.12 7.84 9.24 9.54
4/10/2021 8:30:00 PM 14.79 58.622 0.12 7.67 10.69 9.5
4/10/2021 8:45:00 PM 14.71 58.478 0.12 7.55 10.78 9.49
4/10/2021 9:00:00 PM 14.64 58.352 0.12 7.48 11.68 9.47
4/10/2021 9:15:00 PM 14.58 58.244 0.12 7.42 11.66 9.47
4/10/2021 9:30:00 PM 14.52 58.136 0.121 7.38 11.96 9.46
4/10/2021 9:45:00 PM 14.46 58.028 0.121 7.34 9.9 9.46
4/10/2021 10:00:00 PM 14.4 57.92 0.121 7.33 10.12 9.46
4/10/2021 10:15:00 PM 14.35 57.83 0.121 7.31 11.09 9.47
4/10/2021 10:30:00 PM 14.29 57.722 0.122 7.31 11.24 9.47
4/10/2021 10:45:00 PM 14.23 57.614 0.121 7.31 10.64 9.47
4/10/2021 11:00:00 PM 14.17 57.506 0.121 7.29 11.23 9.49
4/10/2021 11:15:00 PM 14.1 57.38 0.122 7.27 10.48 9.5
4/10/2021 11:30:00 PM 14.03 57.254 0.121 7.25 10.43 9.51
4/10/2021 11:45:00 PM 13.97 57.146 0.122 7.24 10.08 9.53
4/11/2021 12:00:00 AM 13.9 57.02 0.122 7.24 112.36 9.55
4/11/2021 12:15:00 AM 13.83 56.894 0.122 7.24 10.78 9.55
4/11/2021 12:30:00 AM 13.77 56.786 0.121 7.21 11.24 9.57
4/11/2021 12:45:00 AM 13.71 56.678 0.122 7.22 11.96 9.58
4/11/2021 1:00:00 AM 13.66 56.588 0.122 7.22 11.57 9.58
4/11/2021 1:15:00 AM 13.6 56.48 0.122 7.21 15.14 9.61
4/11/2021 1:30:00 AM 13.55 56.39 0.122 7.2 12.65 9.61
4/11/2021 1:45:00 AM 13.5 56.3 0.122 7.2 148.63 9.63
4/11/2021 2:00:00 AM 13.44 56.192 0.122 7.2 12.95 9.65
4/11/2021 2:15:00 AM 13.39 56.102 0.122 7.2 12.48 9.65
4/11/2021 2:30:00 AM 13.34 56.012 0.122 7.2 10.74 9.65
4/11/2021 2:45:00 AM 13.28 55.904 0.123 7.2 9.18 9.67
4/11/2021 3:00:00 AM 13.23 55.814 0.123 7.19 10.47 9.69
4/11/2021 3:15:00 AM 13.18 55.724 0.123 7.22 8.87 9.69
4/11/2021 3:30:00 AM 13.13 55.634 0.123 7.22 9.55 9.71
4/11/2021 3:45:00 AM 13.09 55.562 0.123 7.2 9.3 9.73
4/11/2021 4:00:00 AM 13.05 55.49 0.124 7.2 9.05 9.74
4/11/2021 4:15:00 AM 13 55.4 0.124 7.21 9.53 9.75
4/11/2021 4:30:00 AM 12.97 55.346 0.124 7.19 9.04 9.75
4/11/2021 4:45:00 AM 12.92 55.256 0.124 7.21 8.9 9.76
4/11/2021 5:00:00 AM 12.88 55.184 0.124 7.2 8.82 9.76
4/11/2021 5:15:00 AM 12.85 55.13 0.124 7.2 9.92 9.78
4/11/2021 5:30:00 AM 12.81 55.058 0.125 7.2 9.03 9.78
4/11/2021 5:45:00 AM 12.77 54.986 0.125 7.2 9.36 9.81
4/11/2021 6:00:00 AM 12.73 54.914 0.126 7.2 9.76 9.81
4/11/2021 6:15:00 AM 12.7 54.86 0.125 7.22 9.14 9.81
4/11/2021 6:30:00 AM 12.66 54.788 0.126 7.21 8.77 9.82
4/11/2021 6:45:00 AM 12.63 54.734 0.126 7.23 9.56 9.83
4/11/2021 7:00:00 AM 12.6 54.68 0.127 7.23 9.02 9.86
4/11/2021 7:15:00 AM 12.57 54.626 0.127 7.25 9.9 9.89
4/11/2021 7:30:00 AM 12.56 54.608 0.126 7.28 8.68 9.97
4/11/2021 7:45:00 AM 12.54 54.572 0.127 7.29 9.5 10.01
4/11/2021 8:00:00 AM 12.52 54.536 0.126 7.31 10.07 10.05
4/11/2021 8:15:00 AM 12.51 54.518 0.127 7.34 8.62 10.12
4/11/2021 8:30:00 AM 12.51 54.518 0.126 7.35 9.23 10.18
4/11/2021 8:45:00 AM 12.5 54.5 0.126 7.37 9.51 10.21
4/11/2021 9:00:00 AM 12.49 54.482 0.126 7.37 9.07 10.23
4/11/2021 9:15:00 AM 12.48 54.464 0.126 7.38 9.24 10.27
4/11/2021 9:30:00 AM 12.48 54.464 0.126 7.4 9.69 10.32
4/11/2021 9:45:00 AM 12.48 54.464 0.126 7.42 9.59 10.35
4/11/2021 10:00:00 AM 12.48 54.464 0.126 7.44 9.01 10.39
4/11/2021 10:15:00 AM 12.49 54.482 0.126 7.47 9.02 10.45
4/11/2021 10:30:00 AM 12.49 54.482 0.125 7.51 9.77 10.51
4/11/2021 10:45:00 AM 12.52 54.536 0.125 7.56 9.14 10.61
4/11/2021 11:00:00 AM 12.54 54.572 0.125 7.61 10.16 10.66
4/11/2021 11:15:00 AM 12.56 54.608 0.125 7.65 9.43 10.66
4/11/2021 11:30:00 AM 12.6 54.68 0.124 7.69 9.77 10.72
4/11/2021 11:45:00 AM 12.68 54.824 0.124 7.78 9.62 10.84
4/11/2021 12:00:00 PM 12.78 55.004 0.124 7.89 9.67 10.93
4/11/2021 12:15:00 PM 12.87 55.166 0.124 7.99 11.21 10.96
4/11/2021 12:30:00 PM 12.96 55.328 0.123 8.09 10.23 10.98
4/11/2021 12:45:00 PM 13.07 55.526 0.123 8.2 10.73 11.03
4/11/2021 1:00:00 PM 13.17 55.706 0.122 8.3 11.11 11.03
4/11/2021 1:15:00 PM 13.25 55.85 0.123 8.39 10.83 11.04
4/11/2021 1:30:00 PM 13.34 56.012 0.123 8.46 12.41 11.04
4/11/2021 1:45:00 PM 13.41 56.138 0.122 8.52 12.53 11.03
4/11/2021 2:00:00 PM 13.45 56.21 0.122 8.56 12.39 10.98
4/11/2021 2:15:00 PM 13.48 56.264 0.122 8.59 11.8 10.94
4/11/2021 2:30:00 PM 13.5 56.3 0.122 8.59 11.97 10.89
4/11/2021 2:45:00 PM 13.49 56.282 0.122 8.6 11.21 10.83
4/11/2021 3:00:00 PM 13.52 56.336 0.121 8.62 12 10.87
4/11/2021 3:15:00 PM 13.52 56.336 0.122 8.61 9.65 10.81
4/11/2021 3:30:00 PM 13.53 56.354 0.121 8.6 11.6 10.76
4/11/2021 3:45:00 PM 13.53 56.354 0.122 8.58 11.16 10.73
4/11/2021 4:00:00 PM 13.54 56.372 0.122 8.57 11.82 10.72
4/11/2021 4:15:00 PM 13.52 56.336 0.122 8.53 12.73 10.65
4/11/2021 4:30:00 PM 13.51 56.318 0.123 8.47 14.88 10.56
4/11/2021 4:45:00 PM 13.5 56.3 0.123 8.41 12.93 10.54
4/11/2021 5:00:00 PM 13.49 56.282 0.123 8.36 11.93 10.5
4/11/2021 5:15:00 PM 13.47 56.246 0.123 8.28 15.84 10.42
4/11/2021 5:30:00 PM 13.45 56.21 0.123 8.17 13.59 10.38
4/11/2021 5:45:00 PM 13.43 56.174 0.124 8.08 12.23 10.35
4/11/2021 6:00:00 PM 13.4 56.12 0.124 7.96 12.09 10.27
4/11/2021 6:15:00 PM 13.39 56.102 0.123 7.87 10.65 10.26
4/11/2021 6:30:00 PM 13.35 56.03 0.123 7.79 13.78 10.19
4/11/2021 6:45:00 PM 13.32 55.976 0.124 7.7 10.67 10.14
4/11/2021 7:00:00 PM 13.29 55.922 0.124 7.6 10.59 10.06
4/11/2021 7:15:00 PM 13.25 55.85 0.124 7.55 10.88 9.99
4/11/2021 7:30:00 PM 13.21 55.778 0.125 7.48 10.88 9.92
4/11/2021 7:45:00 PM 13.17 55.706 0.125 7.45 9.31 9.88
4/11/2021 8:00:00 PM 13.14 55.652 0.125 7.41 9.76 9.85
4/11/2021 8:15:00 PM 13.1 55.58 0.125 7.39 12.08 9.82
4/11/2021 8:30:00 PM 13.07 55.526 0.125 7.37 8.26 9.82
4/11/2021 8:45:00 PM 13.04 55.472 0.126 7.33 10.35 9.8
4/11/2021 9:00:00 PM 13.01 55.418 0.125 7.32 10.7 9.8
4/11/2021 9:15:00 PM 12.99 55.382 0.125 7.31 10.77 9.8
4/11/2021 9:30:00 PM 12.96 55.328 0.125 7.29 9.85 9.8
4/11/2021 9:45:00 PM 12.93 55.274 0.125 7.29 10.93 9.8
4/11/2021 10:00:00 PM 12.9 55.22 0.125 7.29 11.72 9.81
4/11/2021 10:15:00 PM 12.86 55.148 0.125 7.28 49.41 9.78
4/11/2021 10:30:00 PM 12.82 55.076 0.125 7.28 9.88 9.81
4/11/2021 10:45:00 PM 12.79 55.022 0.125 7.27 24.62 9.82
4/11/2021 11:00:00 PM 12.76 54.968 0.125 7.26 7.58 9.82
4/11/2021 11:15:00 PM 12.72 54.896 0.125 7.25 7.48 9.83
4/11/2021 11:30:00 PM 12.69 54.842 0.126 7.25 8.34 9.83
4/11/2021 11:45:00 PM 12.66 54.788 0.126 7.25 8.42 9.84
4/12/2021 12:00:00 AM 12.62 54.716 0.126 7.25 9.82 9.85
4/12/2021 12:15:00 AM 12.59 54.662 0.126 7.25 7.81 9.85
4/12/2021 12:30:00 AM 12.57 54.626 0.125 7.26 7.78 9.86
4/12/2021 12:45:00 AM 12.55 54.59 0.126 7.25 7.9 9.87
4/12/2021 1:00:00 AM 12.51 54.518 0.126 7.25 7.71 9.88
4/12/2021 1:15:00 AM 12.49 54.482 0.126 7.25 7.96 9.88
4/12/2021 1:30:00 AM 12.46 54.428 0.126 7.25 8.4 9.89
4/12/2021 1:45:00 AM 12.42 54.356 0.127 7.25 9.06 9.9
4/12/2021 2:00:00 AM 12.39 54.302 0.127 7.26 9.35 9.91
4/12/2021 2:15:00 AM 12.37 54.266 0.128 7.27 9.74 9.93
4/12/2021 2:30:00 AM 12.34 54.212 0.128 7.26 8.95 9.93
4/12/2021 2:45:00 AM 12.31 54.158 0.129 7.26 7.96 9.93
4/12/2021 3:00:00 AM 12.29 54.122 0.128 7.26 8.22 9.92
4/12/2021 3:15:00 AM 12.26 54.068 0.129 7.26 9.31 9.92
4/12/2021 3:30:00 AM 12.24 54.032 0.129 7.27 8.42 9.94
4/12/2021 3:45:00 AM 12.22 53.996 0.129 7.27 9.22 9.94
4/12/2021 4:00:00 AM 12.19 53.942 0.129 7.27 8.32 9.96
4/12/2021 4:15:00 AM 12.16 53.888 0.129 7.27 8.06 9.97
4/12/2021 4:30:00 AM 12.13 53.834 0.13 7.27 8.7 9.97
4/12/2021 4:45:00 AM 12.1 53.78 0.129 7.27 9.45 9.98
4/12/2021 5:00:00 AM 12.06 53.708 0.129 7.27 9.61 10
4/12/2021 5:15:00 AM 12.03 53.654 0.129 7.27 9.21 9.99
4/12/2021 5:30:00 AM 12 53.6 0.129 7.27 9.06 10.01
4/12/2021 5:45:00 AM 11.97 53.546 0.13 7.28 10.73 10.02
4/12/2021 6:00:00 AM 11.93 53.474 0.129 7.28 9.45 10.03
4/12/2021 6:15:00 AM 11.89 53.402 0.129 7.28 8.9 10.04
4/12/2021 6:30:00 AM 11.85 53.33 0.13 7.29 9.19 10.06
4/12/2021 6:45:00 AM 11.81 53.258 0.128 7.29 8.8 10.07
4/12/2021 7:00:00 AM 11.77 53.186 0.128 7.3 9.14 10.09
4/12/2021 7:15:00 AM 11.73 53.114 0.127 7.3 8.49 10.13
4/12/2021 7:30:00 AM 11.69 53.042 0.127 7.33 8.18 10.18
4/12/2021 7:45:00 AM 11.65 52.97 0.128 7.32 8.85 10.23
4/12/2021 8:00:00 AM 11.61 52.898 0.127 7.3 9.2 10.28
4/12/2021 8:15:00 AM 11.56 52.808 0.127 7.32 8.94 10.31
4/12/2021 8:30:00 AM 11.52 52.736 0.127 7.32 8.83 10.34
4/12/2021 8:45:00 AM 11.47 52.646 0.127 7.33 8.88 10.37
4/12/2021 9:00:00 AM 11.42 52.556 0.126 7.33 8.77 10.4
4/12/2021 9:15:00 AM 11.37 52.466 0.126 7.34 9.07 10.44
4/12/2021 9:30:00 AM 11.32 52.376 0.126 7.36 9.32 10.5
4/12/2021 9:45:00 AM 11.29 52.322 0.125 7.37 8.96 10.58
4/12/2021 10:00:00 AM 11.27 52.286 0.125 7.41 9.17 10.68
4/12/2021 10:15:00 AM 11.25 52.25 0.125 7.45 9.77 10.74
4/12/2021 10:30:00 AM 11.23 52.214 0.125 7.48 9.85 10.81
4/12/2021 10:45:00 AM 11.2 52.16 0.125 7.52 9.7 10.87
4/12/2021 11:00:00 AM 11.18 52.124 0.125 7.55 10.5 10.93
4/12/2021 11:15:00 AM 11.15 52.07 0.125 7.58 11.71 10.99
4/12/2021 11:30:00 AM 11.13 52.034 0.124 7.61 11.92 11.03
4/12/2021 11:45:00 AM 11.12 52.016 0.124 7.65 10.85 11.07
4/12/2021 12:00:00 PM 11.11 51.998 0.124 7.66 11.41 11.09
4/12/2021 12:15:00 PM 11.08 51.944 0.124 7.68 12.62 11.09
4/12/2021 12:30:00 PM 11.07 51.926 0.124 7.7 11.87 11.11
4/12/2021 12:45:00 PM 11.07 51.926 0.124 7.72 11.54 11.13
4/12/2021 1:00:00 PM 11.1 51.98 0.123 7.76 11.64 11.2
4/12/2021 1:15:00 PM 11.15 52.07 0.123 7.82 12.17 11.24
4/12/2021 1:30:00 PM 11.17 52.106 0.123 7.86 11.05 11.26
4/12/2021 1:45:00 PM 11.18 52.124 0.122 7.89 10.32 11.24
4/12/2021 2:00:00 PM 11.19 52.142 0.122 7.92 12.53 11.25
4/12/2021 2:15:00 PM 11.18 52.124 0.122 7.92 11.8 11.24
4/12/2021 2:30:00 PM 11.18 52.124 0.122 7.93 12.65 11.23
4/12/2021 2:45:00 PM 11.19 52.142 0.122 7.96 13.65 11.23
4/12/2021 3:00:00 PM 11.19 52.142 0.122 7.97 14.88 11.21
4/12/2021 3:15:00 PM 11.18 52.124 0.122 7.94 14.28 11.19
4/12/2021 3:30:00 PM 11.18 52.124 0.122 7.93 13.18 11.17
4/12/2021 3:45:00 PM 11.18 52.124 0.122 7.93 12.15 11.18
4/12/2021 4:00:00 PM 11.18 52.124 0.123 7.94 11.95 11.17
4/12/2021 4:15:00 PM 11.18 52.124 0.123 7.93 12.18 11.14
4/12/2021 4:30:00 PM 11.16 52.088 0.123 7.88 11.86 11.08
4/12/2021 4:45:00 PM 11.14 52.052 0.123 7.83 11.49 11.03
4/12/2021 5:00:00 PM 11.11 51.998 0.123 7.78 13.35 10.97
4/12/2021 5:15:00 PM 11.09 51.962 0.123 7.71 12.18 10.92
4/12/2021 5:30:00 PM 11.07 51.926 0.124 7.66 12.3 10.86
4/12/2021 5:45:00 PM 11.05 51.89 0.123 7.62 11.1 10.83
4/12/2021 6:00:00 PM 11.03 51.854 0.123 7.59 11.31 10.81
4/12/2021 6:15:00 PM 11.01 51.818 0.123 7.57 11.61 10.79
4/12/2021 6:30:00 PM 10.99 51.782 0.124 7.54 11.24 10.76
4/12/2021 6:45:00 PM 10.96 51.728 0.123 7.51 11.52 10.72
4/12/2021 7:00:00 PM 10.93 51.674 0.124 7.47 11.24 10.66
4/12/2021 7:15:00 PM 10.91 51.638 0.124 7.45 11.05 10.63
4/12/2021 7:30:00 PM 10.88 51.584 0.124 7.42 10.44 10.6
4/12/2021 7:45:00 PM 10.86 51.548 0.124 7.4 10.55 10.57
4/12/2021 8:00:00 PM 10.83 51.494 0.124 7.36 11.03 10.55
4/12/2021 8:15:00 PM 10.81 51.458 0.124 7.36 11.3 10.54
4/12/2021 8:30:00 PM 10.78 51.404 0.124 7.35 10.97 10.52
4/12/2021 8:45:00 PM 10.76 51.368 0.125 7.34 10.6 10.53
4/12/2021 9:00:00 PM 10.73 51.314 0.125 7.33 10.34 10.53
4/12/2021 9:15:00 PM 10.71 51.278 0.125 7.31 10.36 10.52
4/12/2021 9:30:00 PM 10.69 51.242 0.124 7.31 10.84 10.51
4/12/2021 9:45:00 PM 10.66 51.188 0.125 7.3 11.11 10.51
4/12/2021 10:00:00 PM 10.63 51.134 0.125 7.3 12.92 10.52
4/12/2021 10:15:00 PM 10.61 51.098 0.125 7.29 11.29 10.52
4/12/2021 10:30:00 PM 10.58 51.044 0.125 7.28 10.77 10.53
4/12/2021 10:45:00 PM 10.56 51.008 0.125 7.29 11.83 10.53
4/12/2021 11:00:00 PM 10.53 50.954 0.125 7.28 10.67 10.53
4/12/2021 11:15:00 PM 10.5 50.9 0.125 7.27 10.5 10.54
4/12/2021 11:30:00 PM 10.47 50.846 0.126 7.27 11.03 10.54
4/12/2021 11:45:00 PM 10.45 50.81 0.126 7.28 10.82 10.55
4/13/2021 12:00:00 AM 10.42 50.756 0.126 7.27 10.77 10.56
4/13/2021 12:15:00 AM 10.39 50.702 0.126 7.26 11.96 10.56
4/13/2021 12:30:00 AM 10.36 50.648 0.126 7.26 12.68 10.57
4/13/2021 12:45:00 AM 10.33 50.594 0.126 7.26 14.53 10.57
4/13/2021 1:00:00 AM 10.3 50.54 0.127 7.26 16.13 10.58
4/13/2021 1:15:00 AM 10.27 50.486 0.126 7.26 12.13 10.59
4/13/2021 1:30:00 AM 10.24 50.432 0.126 7.25 10.98 10.6
4/13/2021 1:45:00 AM 10.22 50.396 0.127 7.26 11.54 10.61
4/13/2021 2:00:00 AM 10.19 50.342 0.127 7.26 12.53 10.62
4/13/2021 2:15:00 AM 10.16 50.288 0.127 7.25 10.99 10.63
4/13/2021 2:30:00 AM 10.13 50.234 0.127 7.25 10.79 10.64
4/13/2021 2:45:00 AM 10.1 50.18 0.127 7.25 12.4 10.65
4/13/2021 3:00:00 AM 10.06 50.108 0.127 7.25 12.14 10.64
4/13/2021 3:15:00 AM 10.03 50.054 0.127 7.25 11.98 10.66
4/13/2021 3:30:00 AM 10 50 0.126 7.24 13.56 10.67
4/13/2021 3:45:00 AM 9.96 49.928 0.127 7.25 13.19 10.68
4/13/2021 4:00:00 AM 9.93 49.874 0.127 7.25 12.02 10.69
4/13/2021 4:15:00 AM 9.9 49.82 0.127 7.24 11.52 10.71
4/13/2021 4:30:00 AM 9.86 49.748 0.126 7.24 11.58 10.71
4/13/2021 4:45:00 AM 9.82 49.676 0.127 7.24 12.03 10.71
4/13/2021 5:00:00 AM 9.78 49.604 0.126 7.24 11.65 10.73
4/13/2021 5:15:00 AM 9.74 49.532 0.127 7.24 11.54 10.74
4/13/2021 5:30:00 AM 9.7 49.46 0.126 7.23 12.55 10.76
4/13/2021 5:45:00 AM 9.66 49.388 0.126 7.24 11.08 10.77
4/13/2021 6:00:00 AM 9.63 49.334 0.126 7.24 11.36 10.78
4/13/2021 6:15:00 AM 9.59 49.262 0.126 7.24 11.22 10.78
4/13/2021 6:30:00 AM 9.54 49.172 0.126 7.23 11.08 10.81
4/13/2021 6:45:00 AM 9.48 49.064 0.126 7.23 11.24 10.84
4/13/2021 7:00:00 AM 9.45 49.01 0.126 7.26 11.64 10.91
4/13/2021 7:15:00 AM 9.4 48.92 0.126 7.28 10.65 11.01
4/13/2021 7:30:00 AM 9.37 48.866 0.126 7.31 11.01 11.09
4/13/2021 7:45:00 AM 9.35 48.83 0.125 7.35 12.64 11.19
4/13/2021 8:00:00 AM 9.35 48.83 0.125 7.4 12.89 11.25
4/13/2021 8:15:00 AM 9.36 48.848 0.125 7.42 13.55 11.34
4/13/2021 8:30:00 AM 9.38 48.884 0.125 7.46 13.11 11.4
4/13/2021 8:45:00 AM 9.42 48.956 0.125 7.48 12.37 11.46
4/13/2021 9:00:00 AM 9.47 49.046 0.125 7.52 13.1 11.52
4/13/2021 9:15:00 AM 9.54 49.172 0.125 7.56 12.22 11.57
4/13/2021 9:30:00 AM 9.63 49.334 0.124 7.6 12.32 11.61
4/13/2021 9:45:00 AM 9.75 49.55 0.124 7.65 12.3 11.64
4/13/2021 10:00:00 AM 9.89 49.802 0.124 7.69 12.63 11.67
4/13/2021 10:15:00 AM 10.04 50.072 0.124 7.73 12.74 11.69
4/13/2021 10:30:00 AM 10.2 50.36 0.124 7.79 14.3 11.69
4/13/2021 10:45:00 AM 10.39 50.702 0.124 7.83 13.86 11.71
4/13/2021 11:00:00 AM 10.58 51.044 0.124 7.88 16.04 11.7
4/13/2021 11:15:00 AM 10.75 51.35 0.122 7.95 15.28 11.7
4/13/2021 11:30:00 AM 10.8 51.44 0.122 7.95 17.01 11.68
4/13/2021 11:45:00 AM 11.09 51.962 0.122 8.01 17.36 11.66
4/13/2021 12:00:00 PM 11.46 52.628 0.123 8.1 17.69 11.59
4/13/2021 12:15:00 PM 11.77 53.186 0.123 8.15 18.82 11.54
4/13/2021 12:30:00 PM 12.04 53.672 0.122 8.22 18.14 11.49
4/13/2021 12:45:00 PM 12.33 54.194 0.123 8.28 16.31 11.43
4/13/2021 1:00:00 PM 12.61 54.698 0.123 8.34 16.97 11.38
4/13/2021 1:15:00 PM 12.87 55.166 0.123 8.39 112.02 11.31
4/13/2021 1:30:00 PM 13.11 55.598 0.123 8.44 15.04 11.26
4/13/2021 1:45:00 PM 13.34 56.012 0.123 8.48 16.18 11.18
4/13/2021 2:00:00 PM 13.56 56.408 0.122 8.52 15.75 11.14
4/13/2021 2:15:00 PM 13.77 56.786 0.122 8.56 16.84 11.09
4/13/2021 2:30:00 PM 13.95 57.11 0.122 8.6 15.79 11.04
4/13/2021 2:45:00 PM 14.12 57.416 0.122 8.63 16.2 10.98
4/13/2021 3:00:00 PM 14.26 57.668 0.122 8.66 83.33 10.93
4/13/2021 3:15:00 PM 14.38 57.884 0.122 8.68 14.8 10.89
4/13/2021 3:30:00 PM 14.46 58.028 0.122 8.68 15.01 10.85
4/13/2021 3:45:00 PM 14.51 58.118 0.122 8.69 15.5 10.82
4/13/2021 4:00:00 PM 14.55 58.19 0.122 8.68 15.99 10.79
4/13/2021 4:15:00 PM 14.55 58.19 0.122 8.67 14.89 10.76
4/13/2021 4:30:00 PM 14.53 58.154 0.121 8.66 14.1 10.73
4/13/2021 4:45:00 PM 14.48 58.064 0.121 8.63 14.95 10.71
4/13/2021 5:00:00 PM 14.41 57.938 0.121 8.6 12.93 10.68
4/13/2021 5:15:00 PM 14.33 57.794 0.122 8.55 12.67 10.65
4/13/2021 5:30:00 PM 14.24 57.632 0.121 8.51 14.89 10.61
4/13/2021 5:45:00 PM 14.14 57.452 0.121 8.44 11.28 10.57
4/13/2021 6:00:00 PM 14.05 57.29 0.121 8.36 12.18 10.51
4/13/2021 6:15:00 PM 13.96 57.128 0.121 8.26 12.25 10.47
4/13/2021 6:30:00 PM 13.89 57.002 0.121 8.16 12.74 10.42
4/13/2021 6:45:00 PM 13.82 56.876 0.121 8.05 15.64 10.36
4/13/2021 7:00:00 PM 13.77 56.786 0.121 7.93 13.62 10.28
4/13/2021 7:15:00 PM 13.72 56.696 0.122 7.8 11.4 10.17
4/13/2021 7:30:00 PM 13.69 56.642 0.121 7.67 12.47 10.09
4/13/2021 7:45:00 PM 13.66 56.588 0.122 7.58 13.11 10
4/13/2021 8:00:00 PM 13.65 56.57 0.121 7.51 13.2 9.93
4/13/2021 8:15:00 PM 13.65 56.57 0.122 7.45 13.75 9.85
4/13/2021 8:30:00 PM 13.63 56.534 0.122 7.42 14 9.82
4/13/2021 8:45:00 PM 13.63 56.534 0.122 7.39 12.27 9.8
4/13/2021 9:00:00 PM 13.61 56.498 0.122 7.36 12.04 9.78
4/13/2021 9:15:00 PM 13.58 56.444 0.122 7.33 11.43 9.76
4/13/2021 9:30:00 PM 13.53 56.354 0.122 7.31 10.08 9.75
4/13/2021 9:45:00 PM 13.47 56.246 0.123 7.28 10.2 9.75
4/13/2021 10:00:00 PM 13.4 56.12 0.123 7.27 10.51 9.75
4/13/2021 10:15:00 PM 13.32 55.976 0.124 7.25 13.16 9.77
4/13/2021 10:30:00 PM 13.24 55.832 0.124 7.23 13.16 9.79
4/13/2021 10:45:00 PM 13.16 55.688 0.124 7.22 10.2 9.8
4/13/2021 11:00:00 PM 13.07 55.526 0.124 7.22 11.83 9.82
4/13/2021 11:15:00 PM 12.96 55.328 0.125 7.21 13.3 9.85
4/13/2021 11:30:00 PM 12.87 55.166 0.125 7.2 10.84 9.86
4/13/2021 11:45:00 PM 12.76 54.968 0.125 7.19 10.3 9.88
4/14/2021 12:00:00 AM 12.66 54.788 0.126 7.19 13.12 9.91
4/14/2021 12:15:00 AM 12.55 54.59 0.126 7.18 11.4 9.94
4/14/2021 12:30:00 AM 12.44 54.392 0.126 7.18 10.82 9.96
4/14/2021 12:45:00 AM 12.33 54.194 0.126 7.18 11.61 9.99
4/14/2021 1:00:00 AM 12.22 53.996 0.127 7.18 11.53 10.03
4/14/2021 1:15:00 AM 12.11 53.798 0.127 7.17 11.08 10.06
4/14/2021 1:30:00 AM 11.99 53.582 0.127 7.17 10.96 10.08
4/14/2021 1:45:00 AM 11.88 53.384 0.127 7.17 13.79 10.1
4/14/2021 2:00:00 AM 11.77 53.186 0.128 7.17 10.5 10.14
4/14/2021 2:15:00 AM 11.65 52.97 0.128 7.17 10.38 10.17
4/14/2021 2:30:00 AM 11.54 52.772 0.128 7.18 12.49 10.2
4/14/2021 2:45:00 AM 11.43 52.574 0.128 7.17 10.99 10.23
4/14/2021 3:00:00 AM 11.32 52.376 0.128 7.17 11.86 10.26
4/14/2021 3:15:00 AM 11.23 52.214 0.128 7.18 11.52 10.3
4/14/2021 3:30:00 AM 11.14 52.052 0.129 7.19 11.45 10.32
4/14/2021 3:45:00 AM 11.05 51.89 0.129 7.18 12.28 10.34
4/14/2021 4:00:00 AM 10.96 51.728 0.129 7.18 11.61 10.36
4/14/2021 4:15:00 AM 10.86 51.548 0.129 7.19 12.01 10.39
4/14/2021 4:30:00 AM 10.76 51.368 0.129 7.19 12.07 10.41
4/14/2021 4:45:00 AM 10.66 51.188 0.129 7.19 10.54 10.44
4/14/2021 5:00:00 AM 10.56 51.008 0.129 7.18 11.7 10.48
4/14/2021 5:15:00 AM 10.46 50.828 0.129 7.18 10.99 10.5
4/14/2021 5:30:00 AM 10.37 50.666 0.129 7.19 11.67 10.52
4/14/2021 5:45:00 AM 10.27 50.486 0.129 7.19 11.15 10.56
4/14/2021 6:00:00 AM 10.18 50.324 0.129 7.19 10.41 10.57
4/14/2021 6:15:00 AM 10.08 50.144 0.13 7.19 10.68 10.6
4/14/2021 6:30:00 AM 9.99 49.982 0.129 7.19 13.51 10.65
4/14/2021 6:45:00 AM 9.92 49.856 0.129 7.2 12.16 10.7
4/14/2021 7:00:00 AM 9.86 49.748 0.129 7.21 10.96 10.76
4/14/2021 7:15:00 AM 9.8 49.64 0.129 7.24 12.91 10.87
4/14/2021 7:30:00 AM 9.75 49.55 0.129 7.27 10.56 10.98
4/14/2021 7:45:00 AM 9.71 49.478 0.129 7.3 10.37 11.11
4/14/2021 8:00:00 AM 9.69 49.442 0.129 7.34 10.7 11.19
4/14/2021 8:15:00 AM 9.7 49.46 0.129 7.39 10.99 11.32
4/14/2021 8:30:00 AM 9.72 49.496 0.128 7.44 11.88 11.41
4/14/2021 8:45:00 AM 9.76 49.568 0.128 7.49 11.26 11.49
4/14/2021 9:00:00 AM 9.83 49.694 0.128 7.55 12.14 11.57
4/14/2021 9:15:00 AM 9.94 49.892 0.128 7.62 12.4 11.65
4/14/2021 9:30:00 AM 10.01 50.018 0.127 7.68 12.8 11.69
4/14/2021 9:45:00 AM 10.08 50.144 0.127 7.74 12.15 11.74
4/14/2021 10:00:00 AM 10.21 50.378 0.127 7.81 14.04 11.79
4/14/2021 10:15:00 AM 10.29 50.522 0.127 7.89 11.61 11.8
4/14/2021 10:30:00 AM 10.4 50.72 0.127 7.96 11.56 11.8
4/14/2021 10:45:00 AM 10.57 51.026 0.126 8.06 11.39 11.84
4/14/2021 11:00:00 AM 10.73 51.314 0.126 8.14 12.76 11.84
4/14/2021 11:15:00 AM 10.88 51.584 0.126 8.24 12.54 11.83
4/14/2021 11:30:00 AM 11.02 51.836 0.125 8.33 13.29 11.79
4/14/2021 11:45:00 AM 11.23 52.214 0.125 8.41 13.04 11.78
4/14/2021 12:00:00 PM 11.38 52.484 0.125 8.5 15.46 11.76
4/14/2021 12:15:00 PM 11.49 52.682 0.125 8.53 14.19 11.66
4/14/2021 12:30:00 PM 11.57 52.826 0.124 8.58 13.07 11.63
4/14/2021 12:45:00 PM 11.56 52.808 0.125 8.58 12.94 11.54
4/14/2021 1:00:00 PM 11.55 52.79 0.125 8.53 15.08 11.39
4/14/2021 1:15:00 PM 11.53 52.754 0.124 8.44 13.59 11.26
4/14/2021 1:30:00 PM 11.53 52.754 0.125 8.4 12.66 11.28
4/14/2021 1:45:00 PM 11.52 52.736 0.124 8.34 12.33 11.19
4/14/2021 2:00:00 PM 11.52 52.736 0.123 8.26 12.57 11.12
4/14/2021 2:15:00 PM 11.65 52.97 0.123 8.29 13.34 11.26
4/14/2021 2:30:00 PM 11.71 53.078 0.124 8.32 11.9 11.27
4/14/2021 2:45:00 PM 11.77 53.186 0.124 8.32 11.97 11.18
4/14/2021 3:00:00 PM 11.79 53.222 0.123 8.32 14.14 11.1
4/14/2021 3:15:00 PM 11.79 53.222 0.123 8.24 12.83 10.99
4/14/2021 3:30:00 PM 11.75 53.15 0.124 8.1 11.9 10.9
4/14/2021 3:45:00 PM 11.71 53.078 0.124 7.96 11.48 10.82
4/14/2021 4:00:00 PM 11.65 52.97 0.125 7.82 11.8 10.75
4/14/2021 4:15:00 PM 11.61 52.898 0.124 7.71 11.13 10.68
4/14/2021 4:30:00 PM 11.58 52.844 0.125 7.65 10.59 10.64
4/14/2021 4:45:00 PM 11.56 52.808 0.126 7.59 11 10.64
4/14/2021 5:00:00 PM 11.55 52.79 0.125 7.57 11.66 10.67
4/14/2021 5:15:00 PM 11.56 52.808 0.125 7.58 10.98 10.75
4/14/2021 5:30:00 PM 11.57 52.826 0.125 7.61 12.5 10.79
4/14/2021 5:45:00 PM 11.58 52.844 0.125 7.62 13.94 10.74
4/14/2021 6:00:00 PM 11.57 52.826 0.125 7.59 13.17 10.68
4/14/2021 6:15:00 PM 11.57 52.826 0.124 7.55 13.26 10.64
4/14/2021 6:30:00 PM 11.57 52.826 0.125 7.53 13.6 10.64
4/14/2021 6:45:00 PM 11.57 52.826 0.124 7.51 15.19 10.62
4/14/2021 7:00:00 PM 11.57 52.826 0.125 7.51 13.23 10.62
4/14/2021 7:15:00 PM 11.57 52.826 0.125 7.48 13.03 10.6
4/14/2021 7:30:00 PM 11.55 52.79 0.125 7.46 11.68 10.54
4/14/2021 7:45:00 PM 11.52 52.736 0.125 7.42 11.48 10.48
4/14/2021 8:00:00 PM 11.49 52.682 0.125 7.4 13.99 10.42
4/14/2021 8:15:00 PM 11.45 52.61 0.125 7.36 11.95 10.37
4/14/2021 8:30:00 PM 11.42 52.556 0.125 7.33 10.82 10.35
4/14/2021 8:45:00 PM 11.39 52.502 0.126 7.32 11.29 10.33
4/14/2021 9:00:00 PM 11.36 52.448 0.125 7.31 10.96 10.32
4/14/2021 9:15:00 PM 11.32 52.376 0.125 7.3 12.16 10.3
4/14/2021 9:30:00 PM 11.28 52.304 0.125 7.28 10.32 10.29
4/14/2021 9:45:00 PM 11.25 52.25 0.125 7.27 10.34 10.3
4/14/2021 10:00:00 PM 11.21 52.178 0.126 7.26 10.76 10.29
4/14/2021 10:15:00 PM 11.18 52.124 0.126 7.26 12.09 10.29
4/14/2021 10:30:00 PM 11.13 52.034 0.126 7.26 11.58 10.29
4/14/2021 10:45:00 PM 11.09 51.962 0.126 7.26 11.08 10.3
4/14/2021 11:00:00 PM 11.04 51.872 0.126 7.26 11.24 10.3
4/14/2021 11:15:00 PM 10.99 51.782 0.126 7.25 11.29 10.33
4/14/2021 11:30:00 PM 10.94 51.692 0.127 7.24 10.81 10.32
4/14/2021 11:45:00 PM 10.89 51.602 0.127 7.24 10.39 10.34
4/15/2021 12:00:00 AM 10.85 51.53 0.127 7.22 12.84 10.34
4/15/2021 12:15:00 AM 10.82 51.476 0.127 7.23 11 10.35
4/15/2021 12:30:00 AM 10.79 51.422 0.127 7.24 11.01 10.37
4/15/2021 12:45:00 AM 10.74 51.332 0.127 7.24 11 10.38
4/15/2021 1:00:00 AM 10.7 51.26 0.128 7.23 11 10.39
4/15/2021 1:15:00 AM 10.65 51.17 0.128 7.24 11.01 10.39
4/15/2021 1:30:00 AM 10.6 51.08 0.128 7.24 11.44 10.41
4/15/2021 1:45:00 AM 10.54 50.972 0.128 7.23 11.44 10.43
4/15/2021 2:00:00 AM 10.48 50.864 0.128 7.23 11.17 10.45
4/15/2021 2:15:00 AM 10.42 50.756 0.128 7.23 11.04 10.45
4/15/2021 2:30:00 AM 10.37 50.666 0.128 7.23 10.67 10.47
4/15/2021 2:45:00 AM 10.32 50.576 0.128 7.23 10.83 10.48
4/15/2021 3:00:00 AM 10.26 50.468 0.128 7.23 12.03 10.5
4/15/2021 3:15:00 AM 10.2 50.36 0.128 7.23 12 10.5
4/15/2021 3:30:00 AM 10.14 50.252 0.128 7.24 11.82 10.53
4/15/2021 3:45:00 AM 10.08 50.144 0.129 7.23 11.6 10.54
4/15/2021 4:00:00 AM 10.02 50.036 0.129 7.23 12.38 10.56
4/15/2021 4:15:00 AM 9.96 49.928 0.128 7.24 12.44 10.57
4/15/2021 4:30:00 AM 9.9 49.82 0.129 7.24 10.89 10.59
4/15/2021 4:45:00 AM 9.85 49.73 0.129 7.24 10.99 10.6
4/15/2021 5:00:00 AM 9.81 49.658 0.128 7.25 11.19 10.6
4/15/2021 5:15:00 AM 9.76 49.568 0.129 7.26 11.09 10.62
4/15/2021 5:30:00 AM 9.72 49.496 0.129 7.25 17.54 10.62
4/15/2021 5:45:00 AM 9.68 49.424 0.128 7.25 14.56 10.64
4/15/2021 6:00:00 AM 9.64 49.352 0.129 7.26 15.39 10.65
4/15/2021 6:15:00 AM 9.6 49.28 0.128 7.25 16.8 10.66
4/15/2021 6:30:00 AM 9.57 49.226 0.128 7.25 11.97 10.67
4/15/2021 6:45:00 AM 9.53 49.154 0.128 7.25 11.19 10.7
4/15/2021 7:00:00 AM 9.5 49.1 0.128 7.27 11.02 10.76
4/15/2021 7:15:00 AM 9.48 49.064 0.128 7.3 10.7 10.86
4/15/2021 7:30:00 AM 9.47 49.046 0.128 7.32 11.33 10.96
4/15/2021 7:45:00 AM 9.47 49.046 0.128 7.36 11.81 11.09
4/15/2021 8:00:00 AM 9.48 49.064 0.128 7.41 11.83 11.21
4/15/2021 8:15:00 AM 9.49 49.082 0.128 7.46 12.12 11.3
4/15/2021 8:30:00 AM 9.53 49.154 0.128 7.51 11.63 11.41
4/15/2021 8:45:00 AM 9.55 49.19 0.128 7.56 11.77 11.46
4/15/2021 9:00:00 AM 9.58 49.244 0.127 7.6 12.02 11.48
4/15/2021 9:15:00 AM 9.59 49.262 0.127 7.63 13.43 11.52
4/15/2021 9:30:00 AM 9.6 49.28 0.127 7.66 13.49 11.53
4/15/2021 9:45:00 AM 9.6 49.28 0.127 7.68 12.98 11.52
4/15/2021 10:00:00 AM 9.61 49.298 0.126 7.7 13.92 11.52
4/15/2021 10:15:00 AM 9.63 49.334 0.127 7.72 12.99 11.55
4/15/2021 10:30:00 AM 9.65 49.37 0.127 7.75 13.47 11.6
4/15/2021 10:45:00 AM 9.71 49.478 0.127 7.82 14.5 11.68
4/15/2021 11:00:00 AM 9.75 49.55 0.126 7.89 15.05 11.68
4/15/2021 11:15:00 AM 9.79 49.622 0.126 7.93 14.51 11.69
4/15/2021 11:30:00 AM 9.83 49.694 0.126 7.99 14.74 11.71
4/15/2021 11:45:00 AM 9.86 49.748 0.126 8.04 14.06 11.72
4/15/2021 12:00:00 PM 9.88 49.784 0.126 8.08 13.21 11.72
4/15/2021 12:15:00 PM 9.96 49.928 0.125 8.14 14.81 11.76
4/15/2021 12:30:00 PM 10.05 50.09 0.126 8.23 14.45 11.8
4/15/2021 12:45:00 PM 10.13 50.234 0.125 8.32 15.91 11.8
4/15/2021 1:00:00 PM 10.15 50.27 0.125 8.36 15.98 11.77
4/15/2021 1:15:00 PM 10.19 50.342 0.125 8.42 18.2 11.78
4/15/2021 1:30:00 PM 10.22 50.396 0.124 8.48 17.38 11.78
4/15/2021 1:45:00 PM 10.24 50.432 0.124 8.52 15.49 11.77
4/15/2021 2:00:00 PM 10.28 50.504 0.124 8.58 17.24 11.79
4/15/2021 2:15:00 PM 10.33 50.594 0.124 8.64 17.13 11.81
4/15/2021 2:30:00 PM 10.41 50.738 0.124 8.69 17.95 11.8
4/15/2021 2:45:00 PM 10.54 50.972 0.124 8.75 19.18 11.81
4/15/2021 3:00:00 PM 10.76 51.368 0.124 8.81 19.04 11.78
4/15/2021 3:15:00 PM 11 51.8 0.123 8.89 17.54 11.74
4/15/2021 3:30:00 PM 11.2 52.16 0.124 8.92 17.26 11.7
4/15/2021 3:45:00 PM 11.26 52.268 0.123 8.96 17.49 11.65
4/15/2021 4:00:00 PM 11.17 52.106 0.123 8.93 16.85 11.44
4/15/2021 4:15:00 PM 11.06 51.908 0.123 8.87 16.2 11.32
4/15/2021 4:30:00 PM 10.93 51.674 0.123 8.77 14.85 11.22
4/15/2021 4:45:00 PM 10.81 51.458 0.123 8.65 15.11 11.14
4/15/2021 5:00:00 PM 10.69 51.242 0.123 8.54 12.85 11.1
4/15/2021 5:15:00 PM 10.59 51.062 0.123 8.41 12.32 11.05
4/15/2021 5:30:00 PM 10.52 50.936 0.123 8.28 12.53 11.01
4/15/2021 5:45:00 PM 10.45 50.81 0.124 8.13 11.94 10.98
4/15/2021 6:00:00 PM 10.38 50.684 0.123 8 13.61 10.93
4/15/2021 6:15:00 PM 10.31 50.558 0.123 7.88 12.61 10.89
4/15/2021 6:30:00 PM 10.24 50.432 0.123 7.76 12.42 10.86
4/15/2021 6:45:00 PM 10.18 50.324 0.124 7.66 13.76 10.82
4/15/2021 7:00:00 PM 10.12 50.216 0.124 7.61 12.32 10.78
4/15/2021 7:15:00 PM 10.07 50.126 0.124 7.56 12.91 10.78
4/15/2021 7:30:00 PM 10.04 50.072 0.124 7.53 13.08 10.76
4/15/2021 7:45:00 PM 10 50 0.124 7.49 17.05 10.74
4/15/2021 8:00:00 PM 9.96 49.928 0.124 7.45 12.62 10.72
4/15/2021 8:15:00 PM 9.92 49.856 0.125 7.43 12.33 10.69
4/15/2021 8:30:00 PM 9.87 49.766 0.124 7.41 11.54 10.69
4/15/2021 8:45:00 PM 9.82 49.676 0.124 7.38 12.76 10.67
4/15/2021 9:00:00 PM 9.77 49.586 0.125 7.37 12.58 10.69
4/15/2021 9:15:00 PM 9.72 49.496 0.125 7.36 12.39 10.68
4/15/2021 9:30:00 PM 9.64 49.352 0.124 7.34 12.31 10.69
4/15/2021 9:45:00 PM 9.57 49.226 0.124 7.32 12.26 10.71
4/15/2021 10:00:00 PM 9.51 49.118 0.124 7.33 12.5 10.72
4/15/2021 10:15:00 PM 9.44 48.992 0.124 7.33 12.34 10.73
4/15/2021 10:30:00 PM 9.37 48.866 0.124 7.3 12.06 10.74
4/15/2021 10:45:00 PM 9.29 48.722 0.124 7.31 12.43 10.75
4/15/2021 11:00:00 PM 9.21 48.578 0.124 7.3 12.75 10.77
4/15/2021 11:15:00 PM 9.12 48.416 0.124 7.29 12.29 10.8
4/15/2021 11:30:00 PM 9.04 48.272 0.124 7.27 12.04 10.82
4/15/2021 11:45:00 PM 8.97 48.146 0.125 7.28 12.18 10.83
4/16/2021 12:00:00 AM 8.9 48.02 0.125 7.27 11.9 10.86
4/16/2021 12:15:00 AM 8.83 47.894 0.125 7.28 12.28 10.86
4/16/2021 12:30:00 AM 8.75 47.75 0.125 7.26 12.01 10.89
4/16/2021 12:45:00 AM 8.68 47.624 0.125 7.27 11.82 10.92
4/16/2021 1:00:00 AM 8.6 47.48 0.125 7.26 11.96 10.92
4/16/2021 1:15:00 AM 8.53 47.354 0.125 7.27 13.06 10.95
4/16/2021 1:30:00 AM 8.47 47.246 0.125 7.26 13.33 10.97
4/16/2021 1:45:00 AM 8.43 47.174 0.125 7.28 12.65 11
4/16/2021 2:00:00 AM 8.39 47.102 0.126 7.27 12.83 11.01
4/16/2021 2:15:00 AM 8.34 47.012 0.126 7.27 12.98 11
4/16/2021 2:30:00 AM 8.29 46.922 0.126 7.28 14.3 11.03
4/16/2021 2:45:00 AM 8.24 46.832 0.126 7.28 13.12 11.04
4/16/2021 3:00:00 AM 8.2 46.76 0.126 7.27 13.52 11.05
4/16/2021 3:15:00 AM 8.15 46.67 0.127 7.27 13.67 11.07
4/16/2021 3:30:00 AM 8.1 46.58 0.127 7.29 14.06 11.08
4/16/2021 3:45:00 AM 8.06 46.508 0.127 7.28 13.22 11.1
4/16/2021 4:00:00 AM 8.01 46.418 0.127 7.28 12.78 11.11
4/16/2021 4:15:00 AM 7.97 46.346 0.128 7.27 12.4 11.12
4/16/2021 4:30:00 AM 7.94 46.292 0.128 7.27 13.43 11.14
4/16/2021 4:45:00 AM 7.9 46.22 0.127 7.28 13.67 11.15
4/16/2021 5:00:00 AM 7.87 46.166 0.128 7.28 13.22 11.16
4/16/2021 5:15:00 AM 7.84 46.112 0.128 7.28 13.23 11.17
4/16/2021 5:30:00 AM 7.81 46.058 0.128 7.28 13.66 11.18
4/16/2021 5:45:00 AM 7.79 46.022 0.129 7.29 13.12 11.2
4/16/2021 6:00:00 AM 7.75 45.95 0.128 7.3 12.93 11.19
4/16/2021 6:15:00 AM 7.73 45.914 0.128 7.29 13.23 11.2
4/16/2021 6:30:00 AM 7.7 45.86 0.128 7.3 13.04 11.22
4/16/2021 6:45:00 AM 7.67 45.806 0.128 7.31 13.08 11.24
4/16/2021 7:00:00 AM 7.65 45.77 0.128 7.32 12.88 11.29
4/16/2021 7:15:00 AM 7.64 45.752 0.128 7.34 13.8 11.37
4/16/2021 7:30:00 AM 7.63 45.734 0.128 7.36 14.4 11.45
4/16/2021 7:45:00 AM 7.63 45.734 0.128 7.4 13.49 11.54
4/16/2021 8:00:00 AM 7.62 45.716 0.127 7.42 13.37 11.64
4/16/2021 8:15:00 AM 7.62 45.716 0.128 7.46 14.24 11.69
4/16/2021 8:30:00 AM 7.61 45.698 0.128 7.5 13.8 11.78
4/16/2021 8:45:00 AM 7.6 45.68 0.127 7.5 14.64 11.84
4/16/2021 9:00:00 AM 7.6 45.68 0.127 7.56 13.11 11.93
4/16/2021 9:15:00 AM 7.61 45.698 0.127 7.61 13.16 12
4/16/2021 9:30:00 AM 7.63 45.734 0.127 7.65 12.82 12.07
4/16/2021 9:45:00 AM 7.67 45.806 0.126 7.73 12.26 12.15
4/16/2021 10:00:00 AM 7.72 45.896